<?xml version="1.0" encoding="UTF-8" standalone="no" ?>
<gpx xmlns="http://www.topografix.com/GPX/1/1" xmlns:xsi="http://www.w3.org/2001/XMLSchema-instance" xsi:schemaLocation="http://www.topografix.com/GPX/1/1 http://www.topografix.com/GPX/1/1/gpx.xsd" version="1.1" creator="VisuGPX - https://www.visugpx.com">
  <metadata>
    <name>Entraînement CCM</name>
    <desc><![CDATA[CCM entraînement club avec la team]]></desc>
  </metadata>
  <trk>
    <name><![CDATA[20180624130801-48Qdh]]></name>
    <trkseg>
      <trkpt lat="50.13411" lon="3.7772">
        <ele>177</ele>
        <time>2018-06-24T06:27:00Z</time>
      </trkpt>
      <trkpt lat="50.13426" lon="3.77633">
        <ele>177</ele>
        <time>2018-06-24T06:27:10Z</time>
      </trkpt>
      <trkpt lat="50.13447" lon="3.77548">
        <ele>176</ele>
        <time>2018-06-24T06:27:20Z</time>
      </trkpt>
      <trkpt lat="50.13448" lon="3.77539">
        <ele>176</ele>
        <time>2018-06-24T06:27:21Z</time>
      </trkpt>
      <trkpt lat="50.13447" lon="3.7752">
        <ele>176</ele>
        <time>2018-06-24T06:27:23Z</time>
      </trkpt>
      <trkpt lat="50.13431" lon="3.77451">
        <ele>176</ele>
        <time>2018-06-24T06:27:30Z</time>
      </trkpt>
      <trkpt lat="50.1343" lon="3.7743">
        <ele>176</ele>
        <time>2018-06-24T06:27:32Z</time>
      </trkpt>
      <trkpt lat="50.13439" lon="3.77345">
        <ele>175</ele>
        <time>2018-06-24T06:27:40Z</time>
      </trkpt>
      <trkpt lat="50.13449" lon="3.7725">
        <ele>174</ele>
        <time>2018-06-24T06:27:48Z</time>
      </trkpt>
      <trkpt lat="50.13456" lon="3.7716">
        <ele>171</ele>
        <time>2018-06-24T06:27:55Z</time>
      </trkpt>
      <trkpt lat="50.13458" lon="3.77065">
        <ele>169</ele>
        <time>2018-06-24T06:28:02Z</time>
      </trkpt>
      <trkpt lat="50.13462" lon="3.76985">
        <ele>168</ele>
        <time>2018-06-24T06:28:08Z</time>
      </trkpt>
      <trkpt lat="50.13454" lon="3.76922">
        <ele>167</ele>
        <time>2018-06-24T06:28:13Z</time>
      </trkpt>
      <trkpt lat="50.13455" lon="3.76897">
        <ele>166</ele>
        <time>2018-06-24T06:28:15Z</time>
      </trkpt>
      <trkpt lat="50.13472" lon="3.76814">
        <ele>166</ele>
        <time>2018-06-24T06:28:22Z</time>
      </trkpt>
      <trkpt lat="50.13483" lon="3.76765">
        <ele>165</ele>
        <time>2018-06-24T06:28:27Z</time>
      </trkpt>
      <trkpt lat="50.13485" lon="3.7667">
        <ele>165</ele>
        <time>2018-06-24T06:28:35Z</time>
      </trkpt>
      <trkpt lat="50.1349" lon="3.76577">
        <ele>163</ele>
        <time>2018-06-24T06:28:42Z</time>
      </trkpt>
      <trkpt lat="50.13492" lon="3.76485">
        <ele>161</ele>
        <time>2018-06-24T06:28:49Z</time>
      </trkpt>
      <trkpt lat="50.13503" lon="3.76391">
        <ele>158</ele>
        <time>2018-06-24T06:28:56Z</time>
      </trkpt>
      <trkpt lat="50.13517" lon="3.76304">
        <ele>156</ele>
        <time>2018-06-24T06:29:02Z</time>
      </trkpt>
      <trkpt lat="50.13533" lon="3.76221">
        <ele>154</ele>
        <time>2018-06-24T06:29:08Z</time>
      </trkpt>
      <trkpt lat="50.1354" lon="3.76169">
        <ele>154</ele>
        <time>2018-06-24T06:29:12Z</time>
      </trkpt>
      <trkpt lat="50.13539" lon="3.76143">
        <ele>153</ele>
        <time>2018-06-24T06:29:14Z</time>
      </trkpt>
      <trkpt lat="50.13534" lon="3.76119">
        <ele>153</ele>
        <time>2018-06-24T06:29:16Z</time>
      </trkpt>
      <trkpt lat="50.13524" lon="3.76098">
        <ele>152</ele>
        <time>2018-06-24T06:29:18Z</time>
      </trkpt>
      <trkpt lat="50.13509" lon="3.76083">
        <ele>151</ele>
        <time>2018-06-24T06:29:20Z</time>
      </trkpt>
      <trkpt lat="50.13454" lon="3.76045">
        <ele>149</ele>
        <time>2018-06-24T06:29:27Z</time>
      </trkpt>
      <trkpt lat="50.1341" lon="3.76014">
        <ele>147</ele>
        <time>2018-06-24T06:29:33Z</time>
      </trkpt>
      <trkpt lat="50.13398" lon="3.75996">
        <ele>146</ele>
        <time>2018-06-24T06:29:35Z</time>
      </trkpt>
      <trkpt lat="50.13394" lon="3.75973">
        <ele>145</ele>
        <time>2018-06-24T06:29:37Z</time>
      </trkpt>
      <trkpt lat="50.13399" lon="3.75956">
        <ele>145</ele>
        <time>2018-06-24T06:29:39Z</time>
      </trkpt>
      <trkpt lat="50.13413" lon="3.75938">
        <ele>145</ele>
        <time>2018-06-24T06:29:42Z</time>
      </trkpt>
      <trkpt lat="50.1342" lon="3.75925">
        <ele>146</ele>
        <time>2018-06-24T06:29:44Z</time>
      </trkpt>
      <trkpt lat="50.13416" lon="3.7593">
        <ele>145</ele>
        <time>2018-06-24T06:31:09Z</time>
      </trkpt>
      <trkpt lat="50.13396" lon="3.75936">
        <ele>145</ele>
        <time>2018-06-24T06:31:16Z</time>
      </trkpt>
      <trkpt lat="50.13392" lon="3.75924">
        <ele>144</ele>
        <time>2018-06-24T06:31:18Z</time>
      </trkpt>
      <trkpt lat="50.13389" lon="3.7584">
        <ele>142</ele>
        <time>2018-06-24T06:31:27Z</time>
      </trkpt>
      <trkpt lat="50.13384" lon="3.75821">
        <ele>141</ele>
        <time>2018-06-24T06:31:29Z</time>
      </trkpt>
      <trkpt lat="50.13375" lon="3.75805">
        <ele>140</ele>
        <time>2018-06-24T06:31:31Z</time>
      </trkpt>
      <trkpt lat="50.13364" lon="3.75792">
        <ele>140</ele>
        <time>2018-06-24T06:31:33Z</time>
      </trkpt>
      <trkpt lat="50.13351" lon="3.75787">
        <ele>140</ele>
        <time>2018-06-24T06:31:35Z</time>
      </trkpt>
      <trkpt lat="50.13297" lon="3.75802">
        <ele>137</ele>
        <time>2018-06-24T06:31:42Z</time>
      </trkpt>
      <trkpt lat="50.13289" lon="3.75807">
        <ele>137</ele>
        <time>2018-06-24T06:31:43Z</time>
      </trkpt>
      <trkpt lat="50.13271" lon="3.75832">
        <ele>136</ele>
        <time>2018-06-24T06:31:46Z</time>
      </trkpt>
      <trkpt lat="50.13266" lon="3.75856">
        <ele>137</ele>
        <time>2018-06-24T06:31:48Z</time>
      </trkpt>
      <trkpt lat="50.13259" lon="3.75884">
        <ele>137</ele>
        <time>2018-06-24T06:31:51Z</time>
      </trkpt>
      <trkpt lat="50.1325" lon="3.75893">
        <ele>136</ele>
        <time>2018-06-24T06:31:53Z</time>
      </trkpt>
      <trkpt lat="50.13208" lon="3.75921">
        <ele>135</ele>
        <time>2018-06-24T06:32:03Z</time>
      </trkpt>
      <trkpt lat="50.13154" lon="3.75948">
        <ele>135</ele>
        <time>2018-06-24T06:32:13Z</time>
      </trkpt>
      <trkpt lat="50.13104" lon="3.75985">
        <ele>136</ele>
        <time>2018-06-24T06:32:22Z</time>
      </trkpt>
      <trkpt lat="50.1305" lon="3.75998">
        <ele>135</ele>
        <time>2018-06-24T06:32:30Z</time>
      </trkpt>
      <trkpt lat="50.12992" lon="3.76004">
        <ele>134</ele>
        <time>2018-06-24T06:32:39Z</time>
      </trkpt>
      <trkpt lat="50.12934" lon="3.76006">
        <ele>134</ele>
        <time>2018-06-24T06:32:48Z</time>
      </trkpt>
      <trkpt lat="50.12875" lon="3.75995">
        <ele>135</ele>
        <time>2018-06-24T06:32:57Z</time>
      </trkpt>
      <trkpt lat="50.12821" lon="3.75953">
        <ele>135</ele>
        <time>2018-06-24T06:33:06Z</time>
      </trkpt>
      <trkpt lat="50.12775" lon="3.75897">
        <ele>135</ele>
        <time>2018-06-24T06:33:15Z</time>
      </trkpt>
      <trkpt lat="50.12749" lon="3.75874">
        <ele>135</ele>
        <time>2018-06-24T06:33:20Z</time>
      </trkpt>
      <trkpt lat="50.12738" lon="3.75871">
        <ele>135</ele>
        <time>2018-06-24T06:33:22Z</time>
      </trkpt>
      <trkpt lat="50.12681" lon="3.75884">
        <ele>135</ele>
        <time>2018-06-24T06:33:32Z</time>
      </trkpt>
      <trkpt lat="50.12623" lon="3.75897">
        <ele>136</ele>
        <time>2018-06-24T06:33:42Z</time>
      </trkpt>
      <trkpt lat="50.12587" lon="3.75905">
        <ele>137</ele>
        <time>2018-06-24T06:33:49Z</time>
      </trkpt>
      <trkpt lat="50.12571" lon="3.75903">
        <ele>137</ele>
        <time>2018-06-24T06:33:52Z</time>
      </trkpt>
      <trkpt lat="50.12562" lon="3.75897">
        <ele>137</ele>
        <time>2018-06-24T06:33:54Z</time>
      </trkpt>
      <trkpt lat="50.12533" lon="3.75874">
        <ele>137</ele>
        <time>2018-06-24T06:34:01Z</time>
      </trkpt>
      <trkpt lat="50.12479" lon="3.75859">
        <ele>137</ele>
        <time>2018-06-24T06:34:11Z</time>
      </trkpt>
      <trkpt lat="50.12425" lon="3.75836">
        <ele>138</ele>
        <time>2018-06-24T06:34:21Z</time>
      </trkpt>
      <trkpt lat="50.12377" lon="3.75793">
        <ele>139</ele>
        <time>2018-06-24T06:34:31Z</time>
      </trkpt>
      <trkpt lat="50.12331" lon="3.75743">
        <ele>139</ele>
        <time>2018-06-24T06:34:41Z</time>
      </trkpt>
      <trkpt lat="50.12291" lon="3.75681">
        <ele>139</ele>
        <time>2018-06-24T06:34:52Z</time>
      </trkpt>
      <trkpt lat="50.1228" lon="3.75668">
        <ele>139</ele>
        <time>2018-06-24T06:34:55Z</time>
      </trkpt>
      <trkpt lat="50.1227" lon="3.75663">
        <ele>139</ele>
        <time>2018-06-24T06:34:57Z</time>
      </trkpt>
      <trkpt lat="50.12261" lon="3.75666">
        <ele>139</ele>
        <time>2018-06-24T06:34:59Z</time>
      </trkpt>
      <trkpt lat="50.12249" lon="3.7568">
        <ele>141</ele>
        <time>2018-06-24T06:35:02Z</time>
      </trkpt>
      <trkpt lat="50.12212" lon="3.75749">
        <ele>142</ele>
        <time>2018-06-24T06:35:14Z</time>
      </trkpt>
      <trkpt lat="50.1218" lon="3.75817">
        <ele>143</ele>
        <time>2018-06-24T06:35:26Z</time>
      </trkpt>
      <trkpt lat="50.12145" lon="3.75881">
        <ele>142</ele>
        <time>2018-06-24T06:35:36Z</time>
      </trkpt>
      <trkpt lat="50.12109" lon="3.75945">
        <ele>140</ele>
        <time>2018-06-24T06:35:45Z</time>
      </trkpt>
      <trkpt lat="50.12079" lon="3.76022">
        <ele>140</ele>
        <time>2018-06-24T06:35:55Z</time>
      </trkpt>
      <trkpt lat="50.12056" lon="3.76072">
        <ele>140</ele>
        <time>2018-06-24T06:36:02Z</time>
      </trkpt>
      <trkpt lat="50.12008" lon="3.76122">
        <ele>141</ele>
        <time>2018-06-24T06:36:13Z</time>
      </trkpt>
      <trkpt lat="50.11985" lon="3.76138">
        <ele>143</ele>
        <time>2018-06-24T06:36:18Z</time>
      </trkpt>
      <trkpt lat="50.11946" lon="3.76166">
        <ele>143</ele>
        <time>2018-06-24T06:36:27Z</time>
      </trkpt>
      <trkpt lat="50.11919" lon="3.76205">
        <ele>142</ele>
        <time>2018-06-24T06:36:34Z</time>
      </trkpt>
      <trkpt lat="50.1191" lon="3.7621">
        <ele>143</ele>
        <time>2018-06-24T06:36:36Z</time>
      </trkpt>
      <trkpt lat="50.119" lon="3.76209">
        <ele>143</ele>
        <time>2018-06-24T06:36:38Z</time>
      </trkpt>
      <trkpt lat="50.1189" lon="3.76204">
        <ele>143</ele>
        <time>2018-06-24T06:36:40Z</time>
      </trkpt>
      <trkpt lat="50.11837" lon="3.76169">
        <ele>146</ele>
        <time>2018-06-24T06:36:51Z</time>
      </trkpt>
      <trkpt lat="50.11785" lon="3.76143">
        <ele>149</ele>
        <time>2018-06-24T06:37:03Z</time>
      </trkpt>
      <trkpt lat="50.11733" lon="3.76117">
        <ele>152</ele>
        <time>2018-06-24T06:37:16Z</time>
      </trkpt>
      <trkpt lat="50.11683" lon="3.76082">
        <ele>153</ele>
        <time>2018-06-24T06:37:29Z</time>
      </trkpt>
      <trkpt lat="50.1163" lon="3.76058">
        <ele>156</ele>
        <time>2018-06-24T06:37:43Z</time>
      </trkpt>
      <trkpt lat="50.11577" lon="3.76056">
        <ele>160</ele>
        <time>2018-06-24T06:37:57Z</time>
      </trkpt>
      <trkpt lat="50.11522" lon="3.76073">
        <ele>161</ele>
        <time>2018-06-24T06:38:11Z</time>
      </trkpt>
      <trkpt lat="50.11466" lon="3.76084">
        <ele>162</ele>
        <time>2018-06-24T06:38:25Z</time>
      </trkpt>
      <trkpt lat="50.11411" lon="3.76086">
        <ele>164</ele>
        <time>2018-06-24T06:38:38Z</time>
      </trkpt>
      <trkpt lat="50.11357" lon="3.76075">
        <ele>166</ele>
        <time>2018-06-24T06:38:51Z</time>
      </trkpt>
      <trkpt lat="50.11302" lon="3.76076">
        <ele>169</ele>
        <time>2018-06-24T06:39:03Z</time>
      </trkpt>
      <trkpt lat="50.11249" lon="3.761">
        <ele>170</ele>
        <time>2018-06-24T06:39:16Z</time>
      </trkpt>
      <trkpt lat="50.11194" lon="3.76125">
        <ele>170</ele>
        <time>2018-06-24T06:39:29Z</time>
      </trkpt>
      <trkpt lat="50.11142" lon="3.76157">
        <ele>170</ele>
        <time>2018-06-24T06:39:41Z</time>
      </trkpt>
      <trkpt lat="50.11093" lon="3.76194">
        <ele>170</ele>
        <time>2018-06-24T06:39:53Z</time>
      </trkpt>
      <trkpt lat="50.11043" lon="3.76234">
        <ele>171</ele>
        <time>2018-06-24T06:40:04Z</time>
      </trkpt>
      <trkpt lat="50.10989" lon="3.76268">
        <ele>169</ele>
        <time>2018-06-24T06:40:13Z</time>
      </trkpt>
      <trkpt lat="50.10943" lon="3.76294">
        <ele>168</ele>
        <time>2018-06-24T06:40:20Z</time>
      </trkpt>
      <trkpt lat="50.10883" lon="3.76292">
        <ele>167</ele>
        <time>2018-06-24T06:40:29Z</time>
      </trkpt>
      <trkpt lat="50.10827" lon="3.76287">
        <ele>168</ele>
        <time>2018-06-24T06:40:39Z</time>
      </trkpt>
      <trkpt lat="50.10768" lon="3.76278">
        <ele>168</ele>
        <time>2018-06-24T06:40:49Z</time>
      </trkpt>
      <trkpt lat="50.10714" lon="3.7627">
        <ele>167</ele>
        <time>2018-06-24T06:40:58Z</time>
      </trkpt>
      <trkpt lat="50.10656" lon="3.76285">
        <ele>168</ele>
        <time>2018-06-24T06:41:08Z</time>
      </trkpt>
      <trkpt lat="50.10599" lon="3.7631">
        <ele>169</ele>
        <time>2018-06-24T06:41:18Z</time>
      </trkpt>
      <trkpt lat="50.10545" lon="3.76346">
        <ele>169</ele>
        <time>2018-06-24T06:41:28Z</time>
      </trkpt>
      <trkpt lat="50.10495" lon="3.76378">
        <ele>170</ele>
        <time>2018-06-24T06:41:36Z</time>
      </trkpt>
      <trkpt lat="50.10438" lon="3.76379">
        <ele>171</ele>
        <time>2018-06-24T06:41:46Z</time>
      </trkpt>
      <trkpt lat="50.1038" lon="3.76375">
        <ele>172</ele>
        <time>2018-06-24T06:41:58Z</time>
      </trkpt>
      <trkpt lat="50.10324" lon="3.76373">
        <ele>175</ele>
        <time>2018-06-24T06:42:10Z</time>
      </trkpt>
      <trkpt lat="50.10268" lon="3.76372">
        <ele>176</ele>
        <time>2018-06-24T06:42:22Z</time>
      </trkpt>
      <trkpt lat="50.10211" lon="3.76369">
        <ele>179</ele>
        <time>2018-06-24T06:42:34Z</time>
      </trkpt>
      <trkpt lat="50.10155" lon="3.76368">
        <ele>181</ele>
        <time>2018-06-24T06:42:45Z</time>
      </trkpt>
      <trkpt lat="50.10096" lon="3.76371">
        <ele>181</ele>
        <time>2018-06-24T06:42:56Z</time>
      </trkpt>
      <trkpt lat="50.10039" lon="3.76367">
        <ele>182</ele>
        <time>2018-06-24T06:43:05Z</time>
      </trkpt>
      <trkpt lat="50.09983" lon="3.76353">
        <ele>183</ele>
        <time>2018-06-24T06:43:15Z</time>
      </trkpt>
      <trkpt lat="50.09926" lon="3.76335">
        <ele>185</ele>
        <time>2018-06-24T06:43:27Z</time>
      </trkpt>
      <trkpt lat="50.0987" lon="3.7632">
        <ele>187</ele>
        <time>2018-06-24T06:43:39Z</time>
      </trkpt>
      <trkpt lat="50.09814" lon="3.76305">
        <ele>188</ele>
        <time>2018-06-24T06:43:51Z</time>
      </trkpt>
      <trkpt lat="50.09761" lon="3.76289">
        <ele>189</ele>
        <time>2018-06-24T06:44:02Z</time>
      </trkpt>
      <trkpt lat="50.09703" lon="3.76274">
        <ele>190</ele>
        <time>2018-06-24T06:44:14Z</time>
      </trkpt>
      <trkpt lat="50.09647" lon="3.76267">
        <ele>190</ele>
        <time>2018-06-24T06:44:25Z</time>
      </trkpt>
      <trkpt lat="50.09592" lon="3.76263">
        <ele>190</ele>
        <time>2018-06-24T06:44:35Z</time>
      </trkpt>
      <trkpt lat="50.09535" lon="3.76263">
        <ele>190</ele>
        <time>2018-06-24T06:44:45Z</time>
      </trkpt>
      <trkpt lat="50.09476" lon="3.76271">
        <ele>190</ele>
        <time>2018-06-24T06:44:54Z</time>
      </trkpt>
      <trkpt lat="50.09419" lon="3.76277">
        <ele>190</ele>
        <time>2018-06-24T06:45:03Z</time>
      </trkpt>
      <trkpt lat="50.09363" lon="3.76282">
        <ele>190</ele>
        <time>2018-06-24T06:45:12Z</time>
      </trkpt>
      <trkpt lat="50.09308" lon="3.76289">
        <ele>190</ele>
        <time>2018-06-24T06:45:21Z</time>
      </trkpt>
      <trkpt lat="50.09248" lon="3.76295">
        <ele>192</ele>
        <time>2018-06-24T06:45:31Z</time>
      </trkpt>
      <trkpt lat="50.09193" lon="3.76302">
        <ele>193</ele>
        <time>2018-06-24T06:45:40Z</time>
      </trkpt>
      <trkpt lat="50.09136" lon="3.76308">
        <ele>195</ele>
        <time>2018-06-24T06:45:50Z</time>
      </trkpt>
      <trkpt lat="50.09082" lon="3.76317">
        <ele>196</ele>
        <time>2018-06-24T06:46:00Z</time>
      </trkpt>
      <trkpt lat="50.09024" lon="3.76327">
        <ele>195</ele>
        <time>2018-06-24T06:46:11Z</time>
      </trkpt>
      <trkpt lat="50.0897" lon="3.76345">
        <ele>195</ele>
        <time>2018-06-24T06:46:21Z</time>
      </trkpt>
      <trkpt lat="50.08916" lon="3.76369">
        <ele>194</ele>
        <time>2018-06-24T06:46:30Z</time>
      </trkpt>
      <trkpt lat="50.08858" lon="3.7638">
        <ele>193</ele>
        <time>2018-06-24T06:46:38Z</time>
      </trkpt>
      <trkpt lat="50.08804" lon="3.76375">
        <ele>191</ele>
        <time>2018-06-24T06:46:45Z</time>
      </trkpt>
      <trkpt lat="50.08747" lon="3.76372">
        <ele>189</ele>
        <time>2018-06-24T06:46:52Z</time>
      </trkpt>
      <trkpt lat="50.08689" lon="3.7638">
        <ele>189</ele>
        <time>2018-06-24T06:46:59Z</time>
      </trkpt>
      <trkpt lat="50.08634" lon="3.76393">
        <ele>187</ele>
        <time>2018-06-24T06:47:06Z</time>
      </trkpt>
      <trkpt lat="50.0859" lon="3.764">
        <ele>187</ele>
        <time>2018-06-24T06:47:12Z</time>
      </trkpt>
      <trkpt lat="50.08577" lon="3.76408">
        <ele>186</ele>
        <time>2018-06-24T06:47:14Z</time>
      </trkpt>
      <trkpt lat="50.08535" lon="3.76465">
        <ele>186</ele>
        <time>2018-06-24T06:47:22Z</time>
      </trkpt>
      <trkpt lat="50.08491" lon="3.76512">
        <ele>186</ele>
        <time>2018-06-24T06:47:30Z</time>
      </trkpt>
      <trkpt lat="50.08436" lon="3.76547">
        <ele>186</ele>
        <time>2018-06-24T06:47:39Z</time>
      </trkpt>
      <trkpt lat="50.08382" lon="3.76573">
        <ele>185</ele>
        <time>2018-06-24T06:47:47Z</time>
      </trkpt>
      <trkpt lat="50.08326" lon="3.76592">
        <ele>184</ele>
        <time>2018-06-24T06:47:54Z</time>
      </trkpt>
      <trkpt lat="50.0831" lon="3.76585">
        <ele>184</ele>
        <time>2018-06-24T06:47:56Z</time>
      </trkpt>
      <trkpt lat="50.08261" lon="3.76527">
        <ele>181</ele>
        <time>2018-06-24T06:48:03Z</time>
      </trkpt>
      <trkpt lat="50.0822" lon="3.76468">
        <ele>178</ele>
        <time>2018-06-24T06:48:11Z</time>
      </trkpt>
      <trkpt lat="50.08217" lon="3.76463">
        <ele>178</ele>
        <time>2018-06-24T06:48:12Z</time>
      </trkpt>
      <trkpt lat="50.08196" lon="3.76446">
        <ele>177</ele>
        <time>2018-06-24T06:48:19Z</time>
      </trkpt>
      <trkpt lat="50.08147" lon="3.76484">
        <ele>177</ele>
        <time>2018-06-24T06:48:29Z</time>
      </trkpt>
      <trkpt lat="50.08095" lon="3.7653">
        <ele>178</ele>
        <time>2018-06-24T06:48:39Z</time>
      </trkpt>
      <trkpt lat="50.08054" lon="3.76585">
        <ele>178</ele>
        <time>2018-06-24T06:48:49Z</time>
      </trkpt>
      <trkpt lat="50.0801" lon="3.76644">
        <ele>178</ele>
        <time>2018-06-24T06:49:01Z</time>
      </trkpt>
      <trkpt lat="50.07961" lon="3.76695">
        <ele>177</ele>
        <time>2018-06-24T06:49:12Z</time>
      </trkpt>
      <trkpt lat="50.07916" lon="3.76748">
        <ele>177</ele>
        <time>2018-06-24T06:49:20Z</time>
      </trkpt>
      <trkpt lat="50.07876" lon="3.76806">
        <ele>177</ele>
        <time>2018-06-24T06:49:28Z</time>
      </trkpt>
      <trkpt lat="50.07861" lon="3.76833">
        <ele>177</ele>
        <time>2018-06-24T06:49:32Z</time>
      </trkpt>
      <trkpt lat="50.07856" lon="3.76848">
        <ele>178</ele>
        <time>2018-06-24T06:49:34Z</time>
      </trkpt>
      <trkpt lat="50.0784" lon="3.76934">
        <ele>180</ele>
        <time>2018-06-24T06:49:45Z</time>
      </trkpt>
      <trkpt lat="50.07828" lon="3.77018">
        <ele>181</ele>
        <time>2018-06-24T06:49:57Z</time>
      </trkpt>
      <trkpt lat="50.0782" lon="3.77057">
        <ele>181</ele>
        <time>2018-06-24T06:50:03Z</time>
      </trkpt>
      <trkpt lat="50.07788" lon="3.77125">
        <ele>182</ele>
        <time>2018-06-24T06:50:14Z</time>
      </trkpt>
      <trkpt lat="50.07751" lon="3.77199">
        <ele>183</ele>
        <time>2018-06-24T06:50:24Z</time>
      </trkpt>
      <trkpt lat="50.07718" lon="3.77267">
        <ele>182</ele>
        <time>2018-06-24T06:50:33Z</time>
      </trkpt>
      <trkpt lat="50.07679" lon="3.77335">
        <ele>183</ele>
        <time>2018-06-24T06:50:43Z</time>
      </trkpt>
      <trkpt lat="50.07637" lon="3.77389">
        <ele>182</ele>
        <time>2018-06-24T06:50:52Z</time>
      </trkpt>
      <trkpt lat="50.07591" lon="3.7744">
        <ele>182</ele>
        <time>2018-06-24T06:51:03Z</time>
      </trkpt>
      <trkpt lat="50.07586" lon="3.77445">
        <ele>182</ele>
        <time>2018-06-24T06:51:04Z</time>
      </trkpt>
      <trkpt lat="50.07575" lon="3.77449">
        <ele>181</ele>
        <time>2018-06-24T06:51:06Z</time>
      </trkpt>
      <trkpt lat="50.07563" lon="3.77445">
        <ele>181</ele>
        <time>2018-06-24T06:51:08Z</time>
      </trkpt>
      <trkpt lat="50.07512" lon="3.77405">
        <ele>179</ele>
        <time>2018-06-24T06:51:16Z</time>
      </trkpt>
      <trkpt lat="50.07461" lon="3.77364">
        <ele>176</ele>
        <time>2018-06-24T06:51:23Z</time>
      </trkpt>
      <trkpt lat="50.07408" lon="3.7732">
        <ele>173</ele>
        <time>2018-06-24T06:51:30Z</time>
      </trkpt>
      <trkpt lat="50.07358" lon="3.77281">
        <ele>173</ele>
        <time>2018-06-24T06:51:37Z</time>
      </trkpt>
      <trkpt lat="50.07306" lon="3.77255">
        <ele>174</ele>
        <time>2018-06-24T06:51:45Z</time>
      </trkpt>
      <trkpt lat="50.07254" lon="3.77232">
        <ele>175</ele>
        <time>2018-06-24T06:51:54Z</time>
      </trkpt>
      <trkpt lat="50.072" lon="3.77209">
        <ele>177</ele>
        <time>2018-06-24T06:52:04Z</time>
      </trkpt>
      <trkpt lat="50.07147" lon="3.77182">
        <ele>179</ele>
        <time>2018-06-24T06:52:14Z</time>
      </trkpt>
      <trkpt lat="50.07092" lon="3.77151">
        <ele>180</ele>
        <time>2018-06-24T06:52:24Z</time>
      </trkpt>
      <trkpt lat="50.07036" lon="3.77122">
        <ele>181</ele>
        <time>2018-06-24T06:52:34Z</time>
      </trkpt>
      <trkpt lat="50.06982" lon="3.77099">
        <ele>182</ele>
        <time>2018-06-24T06:52:44Z</time>
      </trkpt>
      <trkpt lat="50.06925" lon="3.77071">
        <ele>183</ele>
        <time>2018-06-24T06:52:54Z</time>
      </trkpt>
      <trkpt lat="50.06872" lon="3.77042">
        <ele>184</ele>
        <time>2018-06-24T06:53:04Z</time>
      </trkpt>
      <trkpt lat="50.06819" lon="3.77015">
        <ele>186</ele>
        <time>2018-06-24T06:53:14Z</time>
      </trkpt>
      <trkpt lat="50.06765" lon="3.76993">
        <ele>187</ele>
        <time>2018-06-24T06:53:24Z</time>
      </trkpt>
      <trkpt lat="50.06708" lon="3.76971">
        <ele>187</ele>
        <time>2018-06-24T06:53:35Z</time>
      </trkpt>
      <trkpt lat="50.06654" lon="3.76948">
        <ele>188</ele>
        <time>2018-06-24T06:53:46Z</time>
      </trkpt>
      <trkpt lat="50.06598" lon="3.7692">
        <ele>189</ele>
        <time>2018-06-24T06:53:58Z</time>
      </trkpt>
      <trkpt lat="50.06541" lon="3.76891">
        <ele>190</ele>
        <time>2018-06-24T06:54:09Z</time>
      </trkpt>
      <trkpt lat="50.06489" lon="3.76865">
        <ele>191</ele>
        <time>2018-06-24T06:54:18Z</time>
      </trkpt>
      <trkpt lat="50.06434" lon="3.76838">
        <ele>191</ele>
        <time>2018-06-24T06:54:27Z</time>
      </trkpt>
      <trkpt lat="50.06381" lon="3.76816">
        <ele>193</ele>
        <time>2018-06-24T06:54:36Z</time>
      </trkpt>
      <trkpt lat="50.06326" lon="3.76794">
        <ele>194</ele>
        <time>2018-06-24T06:54:46Z</time>
      </trkpt>
      <trkpt lat="50.06272" lon="3.76776">
        <ele>194</ele>
        <time>2018-06-24T06:54:56Z</time>
      </trkpt>
      <trkpt lat="50.06215" lon="3.76761">
        <ele>194</ele>
        <time>2018-06-24T06:55:06Z</time>
      </trkpt>
      <trkpt lat="50.06158" lon="3.76748">
        <ele>195</ele>
        <time>2018-06-24T06:55:15Z</time>
      </trkpt>
      <trkpt lat="50.06101" lon="3.76736">
        <ele>195</ele>
        <time>2018-06-24T06:55:24Z</time>
      </trkpt>
      <trkpt lat="50.06044" lon="3.76725">
        <ele>196</ele>
        <time>2018-06-24T06:55:33Z</time>
      </trkpt>
      <trkpt lat="50.05989" lon="3.76713">
        <ele>197</ele>
        <time>2018-06-24T06:55:42Z</time>
      </trkpt>
      <trkpt lat="50.05936" lon="3.76703">
        <ele>197</ele>
        <time>2018-06-24T06:55:51Z</time>
      </trkpt>
      <trkpt lat="50.05879" lon="3.76697">
        <ele>199</ele>
        <time>2018-06-24T06:56:01Z</time>
      </trkpt>
      <trkpt lat="50.05821" lon="3.76694">
        <ele>200</ele>
        <time>2018-06-24T06:56:11Z</time>
      </trkpt>
      <trkpt lat="50.05766" lon="3.76694">
        <ele>200</ele>
        <time>2018-06-24T06:56:20Z</time>
      </trkpt>
      <trkpt lat="50.05709" lon="3.76701">
        <ele>201</ele>
        <time>2018-06-24T06:56:29Z</time>
      </trkpt>
      <trkpt lat="50.05655" lon="3.76707">
        <ele>200</ele>
        <time>2018-06-24T06:56:38Z</time>
      </trkpt>
      <trkpt lat="50.056" lon="3.76714">
        <ele>200</ele>
        <time>2018-06-24T06:56:46Z</time>
      </trkpt>
      <trkpt lat="50.05541" lon="3.7672">
        <ele>198</ele>
        <time>2018-06-24T06:56:54Z</time>
      </trkpt>
      <trkpt lat="50.05481" lon="3.76725">
        <ele>196</ele>
        <time>2018-06-24T06:57:02Z</time>
      </trkpt>
      <trkpt lat="50.0542" lon="3.76731">
        <ele>195</ele>
        <time>2018-06-24T06:57:10Z</time>
      </trkpt>
      <trkpt lat="50.05362" lon="3.76736">
        <ele>196</ele>
        <time>2018-06-24T06:57:18Z</time>
      </trkpt>
      <trkpt lat="50.05307" lon="3.76742">
        <ele>197</ele>
        <time>2018-06-24T06:57:26Z</time>
      </trkpt>
      <trkpt lat="50.05251" lon="3.76747">
        <ele>198</ele>
        <time>2018-06-24T06:57:35Z</time>
      </trkpt>
      <trkpt lat="50.05197" lon="3.76751">
        <ele>198</ele>
        <time>2018-06-24T06:57:44Z</time>
      </trkpt>
      <trkpt lat="50.05136" lon="3.76757">
        <ele>198</ele>
        <time>2018-06-24T06:57:54Z</time>
      </trkpt>
      <trkpt lat="50.05077" lon="3.76762">
        <ele>198</ele>
        <time>2018-06-24T06:58:03Z</time>
      </trkpt>
      <trkpt lat="50.05016" lon="3.7676">
        <ele>199</ele>
        <time>2018-06-24T06:58:12Z</time>
      </trkpt>
      <trkpt lat="50.04957" lon="3.76757">
        <ele>199</ele>
        <time>2018-06-24T06:58:21Z</time>
      </trkpt>
      <trkpt lat="50.04896" lon="3.76756">
        <ele>198</ele>
        <time>2018-06-24T06:58:30Z</time>
      </trkpt>
      <trkpt lat="50.04839" lon="3.76763">
        <ele>197</ele>
        <time>2018-06-24T06:58:38Z</time>
      </trkpt>
      <trkpt lat="50.04782" lon="3.76779">
        <ele>196</ele>
        <time>2018-06-24T06:58:45Z</time>
      </trkpt>
      <trkpt lat="50.04728" lon="3.76795">
        <ele>193</ele>
        <time>2018-06-24T06:58:51Z</time>
      </trkpt>
      <trkpt lat="50.0467" lon="3.76813">
        <ele>191</ele>
        <time>2018-06-24T06:58:57Z</time>
      </trkpt>
      <trkpt lat="50.0461" lon="3.76831">
        <ele>188</ele>
        <time>2018-06-24T06:59:03Z</time>
      </trkpt>
      <trkpt lat="50.04556" lon="3.76848">
        <ele>185</ele>
        <time>2018-06-24T06:59:08Z</time>
      </trkpt>
      <trkpt lat="50.04495" lon="3.76874">
        <ele>181</ele>
        <time>2018-06-24T06:59:14Z</time>
      </trkpt>
      <trkpt lat="50.0444" lon="3.769">
        <ele>180</ele>
        <time>2018-06-24T06:59:19Z</time>
      </trkpt>
      <trkpt lat="50.04386" lon="3.76925">
        <ele>177</ele>
        <time>2018-06-24T06:59:24Z</time>
      </trkpt>
      <trkpt lat="50.04329" lon="3.76962">
        <ele>176</ele>
        <time>2018-06-24T06:59:30Z</time>
      </trkpt>
      <trkpt lat="50.04282" lon="3.77002">
        <ele>177</ele>
        <time>2018-06-24T06:59:36Z</time>
      </trkpt>
      <trkpt lat="50.04229" lon="3.77041">
        <ele>179</ele>
        <time>2018-06-24T06:59:44Z</time>
      </trkpt>
      <trkpt lat="50.04176" lon="3.77069">
        <ele>180</ele>
        <time>2018-06-24T06:59:52Z</time>
      </trkpt>
      <trkpt lat="50.0412" lon="3.77082">
        <ele>182</ele>
        <time>2018-06-24T07:00:02Z</time>
      </trkpt>
      <trkpt lat="50.04064" lon="3.77089">
        <ele>184</ele>
        <time>2018-06-24T07:00:12Z</time>
      </trkpt>
      <trkpt lat="50.04006" lon="3.77101">
        <ele>186</ele>
        <time>2018-06-24T07:00:23Z</time>
      </trkpt>
      <trkpt lat="50.03951" lon="3.77121">
        <ele>188</ele>
        <time>2018-06-24T07:00:34Z</time>
      </trkpt>
      <trkpt lat="50.03895" lon="3.77141">
        <ele>191</ele>
        <time>2018-06-24T07:00:46Z</time>
      </trkpt>
      <trkpt lat="50.03838" lon="3.77161">
        <ele>192</ele>
        <time>2018-06-24T07:00:58Z</time>
      </trkpt>
      <trkpt lat="50.03784" lon="3.77181">
        <ele>192</ele>
        <time>2018-06-24T07:01:08Z</time>
      </trkpt>
      <trkpt lat="50.03726" lon="3.77203">
        <ele>190</ele>
        <time>2018-06-24T07:01:17Z</time>
      </trkpt>
      <trkpt lat="50.03672" lon="3.7722">
        <ele>189</ele>
        <time>2018-06-24T07:01:25Z</time>
      </trkpt>
      <trkpt lat="50.03617" lon="3.77236">
        <ele>188</ele>
        <time>2018-06-24T07:01:33Z</time>
      </trkpt>
      <trkpt lat="50.03563" lon="3.77252">
        <ele>188</ele>
        <time>2018-06-24T07:01:41Z</time>
      </trkpt>
      <trkpt lat="50.03506" lon="3.77275">
        <ele>189</ele>
        <time>2018-06-24T07:01:50Z</time>
      </trkpt>
      <trkpt lat="50.03452" lon="3.77298">
        <ele>191</ele>
        <time>2018-06-24T07:01:59Z</time>
      </trkpt>
      <trkpt lat="50.03399" lon="3.7732">
        <ele>194</ele>
        <time>2018-06-24T07:02:08Z</time>
      </trkpt>
      <trkpt lat="50.03345" lon="3.77342">
        <ele>196</ele>
        <time>2018-06-24T07:02:18Z</time>
      </trkpt>
      <trkpt lat="50.03289" lon="3.77363">
        <ele>197</ele>
        <time>2018-06-24T07:02:29Z</time>
      </trkpt>
      <trkpt lat="50.03233" lon="3.77384">
        <ele>198</ele>
        <time>2018-06-24T07:02:40Z</time>
      </trkpt>
      <trkpt lat="50.03175" lon="3.77408">
        <ele>199</ele>
        <time>2018-06-24T07:02:51Z</time>
      </trkpt>
      <trkpt lat="50.0312" lon="3.77431">
        <ele>201</ele>
        <time>2018-06-24T07:03:01Z</time>
      </trkpt>
      <trkpt lat="50.03063" lon="3.77448">
        <ele>202</ele>
        <time>2018-06-24T07:03:10Z</time>
      </trkpt>
      <trkpt lat="50.03004" lon="3.77454">
        <ele>202</ele>
        <time>2018-06-24T07:03:20Z</time>
      </trkpt>
      <trkpt lat="50.0295" lon="3.77461">
        <ele>202</ele>
        <time>2018-06-24T07:03:29Z</time>
      </trkpt>
      <trkpt lat="50.02894" lon="3.77481">
        <ele>202</ele>
        <time>2018-06-24T07:03:38Z</time>
      </trkpt>
      <trkpt lat="50.02844" lon="3.77525">
        <ele>201</ele>
        <time>2018-06-24T07:03:46Z</time>
      </trkpt>
      <trkpt lat="50.02797" lon="3.77572">
        <ele>201</ele>
        <time>2018-06-24T07:03:53Z</time>
      </trkpt>
      <trkpt lat="50.02751" lon="3.77618">
        <ele>200</ele>
        <time>2018-06-24T07:04:00Z</time>
      </trkpt>
      <trkpt lat="50.027" lon="3.77668">
        <ele>199</ele>
        <time>2018-06-24T07:04:08Z</time>
      </trkpt>
      <trkpt lat="50.02652" lon="3.77718">
        <ele>197</ele>
        <time>2018-06-24T07:04:16Z</time>
      </trkpt>
      <trkpt lat="50.02609" lon="3.77783">
        <ele>196</ele>
        <time>2018-06-24T07:04:25Z</time>
      </trkpt>
      <trkpt lat="50.02573" lon="3.77846">
        <ele>197</ele>
        <time>2018-06-24T07:04:33Z</time>
      </trkpt>
      <trkpt lat="50.02533" lon="3.77905">
        <ele>197</ele>
        <time>2018-06-24T07:04:41Z</time>
      </trkpt>
      <trkpt lat="50.02482" lon="3.77953">
        <ele>200</ele>
        <time>2018-06-24T07:04:50Z</time>
      </trkpt>
      <trkpt lat="50.02434" lon="3.77993">
        <ele>201</ele>
        <time>2018-06-24T07:04:58Z</time>
      </trkpt>
      <trkpt lat="50.02383" lon="3.78039">
        <ele>202</ele>
        <time>2018-06-24T07:05:07Z</time>
      </trkpt>
      <trkpt lat="50.02339" lon="3.78091">
        <ele>202</ele>
        <time>2018-06-24T07:05:15Z</time>
      </trkpt>
      <trkpt lat="50.02297" lon="3.7815">
        <ele>201</ele>
        <time>2018-06-24T07:05:23Z</time>
      </trkpt>
      <trkpt lat="50.02256" lon="3.7821">
        <ele>200</ele>
        <time>2018-06-24T07:05:31Z</time>
      </trkpt>
      <trkpt lat="50.02212" lon="3.78267">
        <ele>200</ele>
        <time>2018-06-24T07:05:39Z</time>
      </trkpt>
      <trkpt lat="50.02163" lon="3.78317">
        <ele>200</ele>
        <time>2018-06-24T07:05:48Z</time>
      </trkpt>
      <trkpt lat="50.0211" lon="3.78351">
        <ele>200</ele>
        <time>2018-06-24T07:05:56Z</time>
      </trkpt>
      <trkpt lat="50.02056" lon="3.78387">
        <ele>199</ele>
        <time>2018-06-24T07:06:03Z</time>
      </trkpt>
      <trkpt lat="50.01996" lon="3.78416">
        <ele>197</ele>
        <time>2018-06-24T07:06:10Z</time>
      </trkpt>
      <trkpt lat="50.01936" lon="3.78432">
        <ele>195</ele>
        <time>2018-06-24T07:06:17Z</time>
      </trkpt>
      <trkpt lat="50.01878" lon="3.78449">
        <ele>193</ele>
        <time>2018-06-24T07:06:24Z</time>
      </trkpt>
      <trkpt lat="50.01824" lon="3.78463">
        <ele>189</ele>
        <time>2018-06-24T07:06:31Z</time>
      </trkpt>
      <trkpt lat="50.01765" lon="3.78464">
        <ele>188</ele>
        <time>2018-06-24T07:06:38Z</time>
      </trkpt>
      <trkpt lat="50.01705" lon="3.78455">
        <ele>185</ele>
        <time>2018-06-24T07:06:45Z</time>
      </trkpt>
      <trkpt lat="50.0167" lon="3.78449">
        <ele>184</ele>
        <time>2018-06-24T07:06:55Z</time>
      </trkpt>
      <trkpt lat="50.01671" lon="3.78442">
        <ele>184</ele>
        <time>2018-06-24T07:07:15Z</time>
      </trkpt>
      <trkpt lat="50.01668" lon="3.784">
        <ele>184</ele>
        <time>2018-06-24T07:07:24Z</time>
      </trkpt>
      <trkpt lat="50.01658" lon="3.78396">
        <ele>181</ele>
        <time>2018-06-24T07:07:26Z</time>
      </trkpt>
      <trkpt lat="50.01601" lon="3.78396">
        <ele>179</ele>
        <time>2018-06-24T07:07:35Z</time>
      </trkpt>
      <trkpt lat="50.0159" lon="3.78394">
        <ele>179</ele>
        <time>2018-06-24T07:07:37Z</time>
      </trkpt>
      <trkpt lat="50.01543" lon="3.78392">
        <ele>175</ele>
        <time>2018-06-24T07:07:48Z</time>
      </trkpt>
      <trkpt lat="50.0154" lon="3.78376">
        <ele>174</ele>
        <time>2018-06-24T07:07:50Z</time>
      </trkpt>
      <trkpt lat="50.01534" lon="3.78298">
        <ele>174</ele>
        <time>2018-06-24T07:07:58Z</time>
      </trkpt>
      <trkpt lat="50.01536" lon="3.78277">
        <ele>175</ele>
        <time>2018-06-24T07:08:00Z</time>
      </trkpt>
      <trkpt lat="50.01556" lon="3.78197">
        <ele>176</ele>
        <time>2018-06-24T07:08:09Z</time>
      </trkpt>
      <trkpt lat="50.01565" lon="3.78174">
        <ele>176</ele>
        <time>2018-06-24T07:08:13Z</time>
      </trkpt>
      <trkpt lat="50.01562" lon="3.78142">
        <ele>176</ele>
        <time>2018-06-24T07:08:19Z</time>
      </trkpt>
      <trkpt lat="50.01509" lon="3.78107">
        <ele>174</ele>
        <time>2018-06-24T07:08:27Z</time>
      </trkpt>
      <trkpt lat="50.01457" lon="3.78073">
        <ele>171</ele>
        <time>2018-06-24T07:08:34Z</time>
      </trkpt>
      <trkpt lat="50.01402" lon="3.78034">
        <ele>172</ele>
        <time>2018-06-24T07:08:42Z</time>
      </trkpt>
      <trkpt lat="50.01348" lon="3.77998">
        <ele>171</ele>
        <time>2018-06-24T07:08:50Z</time>
      </trkpt>
      <trkpt lat="50.01296" lon="3.77955">
        <ele>173</ele>
        <time>2018-06-24T07:08:59Z</time>
      </trkpt>
      <trkpt lat="50.01247" lon="3.77908">
        <ele>176</ele>
        <time>2018-06-24T07:09:08Z</time>
      </trkpt>
      <trkpt lat="50.01198" lon="3.77862">
        <ele>178</ele>
        <time>2018-06-24T07:09:17Z</time>
      </trkpt>
      <trkpt lat="50.01149" lon="3.77815">
        <ele>179</ele>
        <time>2018-06-24T07:09:28Z</time>
      </trkpt>
      <trkpt lat="50.011" lon="3.77775">
        <ele>179</ele>
        <time>2018-06-24T07:09:39Z</time>
      </trkpt>
      <trkpt lat="50.01067" lon="3.77751">
        <ele>180</ele>
        <time>2018-06-24T07:09:46Z</time>
      </trkpt>
      <trkpt lat="50.01007" lon="3.77745">
        <ele>180</ele>
        <time>2018-06-24T07:09:55Z</time>
      </trkpt>
      <trkpt lat="50.00948" lon="3.77739">
        <ele>178</ele>
        <time>2018-06-24T07:10:02Z</time>
      </trkpt>
      <trkpt lat="50.00894" lon="3.77736">
        <ele>177</ele>
        <time>2018-06-24T07:10:08Z</time>
      </trkpt>
      <trkpt lat="50.00839" lon="3.77731">
        <ele>178</ele>
        <time>2018-06-24T07:10:15Z</time>
      </trkpt>
      <trkpt lat="50.00783" lon="3.77729">
        <ele>180</ele>
        <time>2018-06-24T07:10:24Z</time>
      </trkpt>
      <trkpt lat="50.00725" lon="3.77722">
        <ele>182</ele>
        <time>2018-06-24T07:10:35Z</time>
      </trkpt>
      <trkpt lat="50.00667" lon="3.77718">
        <ele>184</ele>
        <time>2018-06-24T07:10:47Z</time>
      </trkpt>
      <trkpt lat="50.0061" lon="3.77717">
        <ele>188</ele>
        <time>2018-06-24T07:10:58Z</time>
      </trkpt>
      <trkpt lat="50.00555" lon="3.77716">
        <ele>191</ele>
        <time>2018-06-24T07:11:09Z</time>
      </trkpt>
      <trkpt lat="50.00501" lon="3.77719">
        <ele>192</ele>
        <time>2018-06-24T07:11:20Z</time>
      </trkpt>
      <trkpt lat="50.00446" lon="3.77721">
        <ele>197</ele>
        <time>2018-06-24T07:11:31Z</time>
      </trkpt>
      <trkpt lat="50.00391" lon="3.77721">
        <ele>202</ele>
        <time>2018-06-24T07:11:43Z</time>
      </trkpt>
      <trkpt lat="50.00333" lon="3.77712">
        <ele>203</ele>
        <time>2018-06-24T07:11:55Z</time>
      </trkpt>
      <trkpt lat="50.00325" lon="3.77707">
        <ele>205</ele>
        <time>2018-06-24T07:11:57Z</time>
      </trkpt>
      <trkpt lat="50.00276" lon="3.77673">
        <ele>204</ele>
        <time>2018-06-24T07:12:08Z</time>
      </trkpt>
      <trkpt lat="50.00225" lon="3.77636">
        <ele>205</ele>
        <time>2018-06-24T07:12:19Z</time>
      </trkpt>
      <trkpt lat="50.00171" lon="3.77602">
        <ele>204</ele>
        <time>2018-06-24T07:12:28Z</time>
      </trkpt>
      <trkpt lat="50.00118" lon="3.77574">
        <ele>203</ele>
        <time>2018-06-24T07:12:37Z</time>
      </trkpt>
      <trkpt lat="50.00062" lon="3.77546">
        <ele>202</ele>
        <time>2018-06-24T07:12:46Z</time>
      </trkpt>
      <trkpt lat="50.00005" lon="3.77522">
        <ele>201</ele>
        <time>2018-06-24T07:12:55Z</time>
      </trkpt>
      <trkpt lat="49.99945" lon="3.77506">
        <ele>201</ele>
        <time>2018-06-24T07:13:04Z</time>
      </trkpt>
      <trkpt lat="49.99888" lon="3.77496">
        <ele>201</ele>
        <time>2018-06-24T07:13:12Z</time>
      </trkpt>
      <trkpt lat="49.99829" lon="3.77491">
        <ele>199</ele>
        <time>2018-06-24T07:13:21Z</time>
      </trkpt>
      <trkpt lat="49.99775" lon="3.77504">
        <ele>197</ele>
        <time>2018-06-24T07:13:30Z</time>
      </trkpt>
      <trkpt lat="49.99719" lon="3.77527">
        <ele>196</ele>
        <time>2018-06-24T07:13:39Z</time>
      </trkpt>
      <trkpt lat="49.9966" lon="3.77545">
        <ele>194</ele>
        <time>2018-06-24T07:13:48Z</time>
      </trkpt>
      <trkpt lat="49.99602" lon="3.7756">
        <ele>192</ele>
        <time>2018-06-24T07:13:55Z</time>
      </trkpt>
      <trkpt lat="49.99541" lon="3.77577">
        <ele>189</ele>
        <time>2018-06-24T07:14:02Z</time>
      </trkpt>
      <trkpt lat="49.9949" lon="3.77607">
        <ele>188</ele>
        <time>2018-06-24T07:14:09Z</time>
      </trkpt>
      <trkpt lat="49.99442" lon="3.77658">
        <ele>189</ele>
        <time>2018-06-24T07:14:17Z</time>
      </trkpt>
      <trkpt lat="49.99401" lon="3.77717">
        <ele>190</ele>
        <time>2018-06-24T07:14:25Z</time>
      </trkpt>
      <trkpt lat="49.99359" lon="3.77775">
        <ele>193</ele>
        <time>2018-06-24T07:14:33Z</time>
      </trkpt>
      <trkpt lat="49.9931" lon="3.77822">
        <ele>193</ele>
        <time>2018-06-24T07:14:41Z</time>
      </trkpt>
      <trkpt lat="49.99259" lon="3.77859">
        <ele>194</ele>
        <time>2018-06-24T07:14:49Z</time>
      </trkpt>
      <trkpt lat="49.99205" lon="3.77889">
        <ele>191</ele>
        <time>2018-06-24T07:14:57Z</time>
      </trkpt>
      <trkpt lat="49.99155" lon="3.77919">
        <ele>189</ele>
        <time>2018-06-24T07:15:05Z</time>
      </trkpt>
      <trkpt lat="49.99101" lon="3.77956">
        <ele>188</ele>
        <time>2018-06-24T07:15:14Z</time>
      </trkpt>
      <trkpt lat="49.99057" lon="3.78008">
        <ele>186</ele>
        <time>2018-06-24T07:15:22Z</time>
      </trkpt>
      <trkpt lat="49.99011" lon="3.78068">
        <ele>185</ele>
        <time>2018-06-24T07:15:30Z</time>
      </trkpt>
      <trkpt lat="49.98975" lon="3.78103">
        <ele>183</ele>
        <time>2018-06-24T07:15:35Z</time>
      </trkpt>
      <trkpt lat="49.9894" lon="3.78118">
        <ele>183</ele>
        <time>2018-06-24T07:15:39Z</time>
      </trkpt>
      <trkpt lat="49.98876" lon="3.78107">
        <ele>181</ele>
        <time>2018-06-24T07:15:45Z</time>
      </trkpt>
      <trkpt lat="49.98818" lon="3.78075">
        <ele>181</ele>
        <time>2018-06-24T07:15:51Z</time>
      </trkpt>
      <trkpt lat="49.98763" lon="3.78052">
        <ele>182</ele>
        <time>2018-06-24T07:15:58Z</time>
      </trkpt>
      <trkpt lat="49.98704" lon="3.78036">
        <ele>185</ele>
        <time>2018-06-24T07:16:06Z</time>
      </trkpt>
      <trkpt lat="49.98644" lon="3.78023">
        <ele>188</ele>
        <time>2018-06-24T07:16:15Z</time>
      </trkpt>
      <trkpt lat="49.98612" lon="3.78016">
        <ele>188</ele>
        <time>2018-06-24T07:16:20Z</time>
      </trkpt>
      <trkpt lat="49.98558" lon="3.77998">
        <ele>188</ele>
        <time>2018-06-24T07:16:29Z</time>
      </trkpt>
      <trkpt lat="49.98502" lon="3.77976">
        <ele>188</ele>
        <time>2018-06-24T07:16:38Z</time>
      </trkpt>
      <trkpt lat="49.98445" lon="3.77953">
        <ele>189</ele>
        <time>2018-06-24T07:16:47Z</time>
      </trkpt>
      <trkpt lat="49.98388" lon="3.77932">
        <ele>190</ele>
        <time>2018-06-24T07:16:56Z</time>
      </trkpt>
      <trkpt lat="49.98334" lon="3.77912">
        <ele>190</ele>
        <time>2018-06-24T07:17:05Z</time>
      </trkpt>
      <trkpt lat="49.98297" lon="3.77902">
        <ele>189</ele>
        <time>2018-06-24T07:17:10Z</time>
      </trkpt>
      <trkpt lat="49.9824" lon="3.77901">
        <ele>188</ele>
        <time>2018-06-24T07:17:17Z</time>
      </trkpt>
      <trkpt lat="49.98225" lon="3.77897">
        <ele>187</ele>
        <time>2018-06-24T07:17:18Z</time>
      </trkpt>
      <trkpt lat="49.98191" lon="3.77883">
        <ele>187</ele>
        <time>2018-06-24T07:17:25Z</time>
      </trkpt>
      <trkpt lat="49.98173" lon="3.77891">
        <ele>187</ele>
        <time>2018-06-24T07:17:28Z</time>
      </trkpt>
      <trkpt lat="49.98122" lon="3.77938">
        <ele>188</ele>
        <time>2018-06-24T07:17:37Z</time>
      </trkpt>
      <trkpt lat="49.9807" lon="3.77977">
        <ele>189</ele>
        <time>2018-06-24T07:17:47Z</time>
      </trkpt>
      <trkpt lat="49.98065" lon="3.77981">
        <ele>189</ele>
        <time>2018-06-24T07:17:48Z</time>
      </trkpt>
      <trkpt lat="49.98047" lon="3.78007">
        <ele>190</ele>
        <time>2018-06-24T07:17:52Z</time>
      </trkpt>
      <trkpt lat="49.98018" lon="3.78084">
        <ele>191</ele>
        <time>2018-06-24T07:18:01Z</time>
      </trkpt>
      <trkpt lat="49.97991" lon="3.78166">
        <ele>191</ele>
        <time>2018-06-24T07:18:10Z</time>
      </trkpt>
      <trkpt lat="49.9796" lon="3.78241">
        <ele>191</ele>
        <time>2018-06-24T07:18:18Z</time>
      </trkpt>
      <trkpt lat="49.97925" lon="3.78313">
        <ele>193</ele>
        <time>2018-06-24T07:18:26Z</time>
      </trkpt>
      <trkpt lat="49.97889" lon="3.78386">
        <ele>193</ele>
        <time>2018-06-24T07:18:34Z</time>
      </trkpt>
      <trkpt lat="49.97855" lon="3.78457">
        <ele>193</ele>
        <time>2018-06-24T07:18:43Z</time>
      </trkpt>
      <trkpt lat="49.9782" lon="3.78525">
        <ele>194</ele>
        <time>2018-06-24T07:18:52Z</time>
      </trkpt>
      <trkpt lat="49.9778" lon="3.78586">
        <ele>193</ele>
        <time>2018-06-24T07:19:01Z</time>
      </trkpt>
      <trkpt lat="49.97737" lon="3.78651">
        <ele>192</ele>
        <time>2018-06-24T07:19:10Z</time>
      </trkpt>
      <trkpt lat="49.97695" lon="3.78713">
        <ele>192</ele>
        <time>2018-06-24T07:19:18Z</time>
      </trkpt>
      <trkpt lat="49.97652" lon="3.78778">
        <ele>191</ele>
        <time>2018-06-24T07:19:26Z</time>
      </trkpt>
      <trkpt lat="49.97609" lon="3.78842">
        <ele>192</ele>
        <time>2018-06-24T07:19:34Z</time>
      </trkpt>
      <trkpt lat="49.97565" lon="3.78901">
        <ele>191</ele>
        <time>2018-06-24T07:19:42Z</time>
      </trkpt>
      <trkpt lat="49.97522" lon="3.78957">
        <ele>192</ele>
        <time>2018-06-24T07:19:50Z</time>
      </trkpt>
      <trkpt lat="49.9748" lon="3.79013">
        <ele>193</ele>
        <time>2018-06-24T07:19:58Z</time>
      </trkpt>
      <trkpt lat="49.97457" lon="3.79051">
        <ele>193</ele>
        <time>2018-06-24T07:20:03Z</time>
      </trkpt>
      <trkpt lat="49.97432" lon="3.79135">
        <ele>194</ele>
        <time>2018-06-24T07:20:12Z</time>
      </trkpt>
      <trkpt lat="49.97412" lon="3.79218">
        <ele>193</ele>
        <time>2018-06-24T07:20:20Z</time>
      </trkpt>
      <trkpt lat="49.97391" lon="3.79301">
        <ele>192</ele>
        <time>2018-06-24T07:20:28Z</time>
      </trkpt>
      <trkpt lat="49.9737" lon="3.79386">
        <ele>191</ele>
        <time>2018-06-24T07:20:36Z</time>
      </trkpt>
      <trkpt lat="49.97349" lon="3.79467">
        <ele>189</ele>
        <time>2018-06-24T07:20:43Z</time>
      </trkpt>
      <trkpt lat="49.9733" lon="3.79553">
        <ele>187</ele>
        <time>2018-06-24T07:20:50Z</time>
      </trkpt>
      <trkpt lat="49.97319" lon="3.79637">
        <ele>188</ele>
        <time>2018-06-24T07:20:57Z</time>
      </trkpt>
      <trkpt lat="49.97305" lon="3.79704">
        <ele>190</ele>
        <time>2018-06-24T07:21:03Z</time>
      </trkpt>
      <trkpt lat="49.97297" lon="3.79724">
        <ele>191</ele>
        <time>2018-06-24T07:21:05Z</time>
      </trkpt>
      <trkpt lat="49.97249" lon="3.79772">
        <ele>192</ele>
        <time>2018-06-24T07:21:13Z</time>
      </trkpt>
      <trkpt lat="49.972" lon="3.79812">
        <ele>192</ele>
        <time>2018-06-24T07:21:21Z</time>
      </trkpt>
      <trkpt lat="49.97147" lon="3.79856">
        <ele>191</ele>
        <time>2018-06-24T07:21:29Z</time>
      </trkpt>
      <trkpt lat="49.971" lon="3.79898">
        <ele>191</ele>
        <time>2018-06-24T07:21:36Z</time>
      </trkpt>
      <trkpt lat="49.9705" lon="3.7995">
        <ele>191</ele>
        <time>2018-06-24T07:21:44Z</time>
      </trkpt>
      <trkpt lat="49.97004" lon="3.80011">
        <ele>190</ele>
        <time>2018-06-24T07:21:52Z</time>
      </trkpt>
      <trkpt lat="49.96959" lon="3.80072">
        <ele>190</ele>
        <time>2018-06-24T07:22:00Z</time>
      </trkpt>
      <trkpt lat="49.96917" lon="3.80129">
        <ele>191</ele>
        <time>2018-06-24T07:22:07Z</time>
      </trkpt>
      <trkpt lat="49.96874" lon="3.80188">
        <ele>193</ele>
        <time>2018-06-24T07:22:15Z</time>
      </trkpt>
      <trkpt lat="49.96832" lon="3.80246">
        <ele>195</ele>
        <time>2018-06-24T07:22:23Z</time>
      </trkpt>
      <trkpt lat="49.96789" lon="3.80303">
        <ele>196</ele>
        <time>2018-06-24T07:22:31Z</time>
      </trkpt>
      <trkpt lat="49.9675" lon="3.8035">
        <ele>197</ele>
        <time>2018-06-24T07:22:38Z</time>
      </trkpt>
      <trkpt lat="49.96716" lon="3.80418">
        <ele>196</ele>
        <time>2018-06-24T07:22:46Z</time>
      </trkpt>
      <trkpt lat="49.96687" lon="3.80494">
        <ele>195</ele>
        <time>2018-06-24T07:22:54Z</time>
      </trkpt>
      <trkpt lat="49.96664" lon="3.80577">
        <ele>195</ele>
        <time>2018-06-24T07:23:02Z</time>
      </trkpt>
      <trkpt lat="49.96655" lon="3.80663">
        <ele>196</ele>
        <time>2018-06-24T07:23:09Z</time>
      </trkpt>
      <trkpt lat="49.96652" lon="3.80757">
        <ele>196</ele>
        <time>2018-06-24T07:23:16Z</time>
      </trkpt>
      <trkpt lat="49.96639" lon="3.80849">
        <ele>195</ele>
        <time>2018-06-24T07:23:23Z</time>
      </trkpt>
      <trkpt lat="49.96622" lon="3.80934">
        <ele>196</ele>
        <time>2018-06-24T07:23:30Z</time>
      </trkpt>
      <trkpt lat="49.96601" lon="3.81013">
        <ele>197</ele>
        <time>2018-06-24T07:23:37Z</time>
      </trkpt>
      <trkpt lat="49.96584" lon="3.81101">
        <ele>199</ele>
        <time>2018-06-24T07:23:45Z</time>
      </trkpt>
      <trkpt lat="49.96582" lon="3.81134">
        <ele>197</ele>
        <time>2018-06-24T07:23:48Z</time>
      </trkpt>
      <trkpt lat="49.96593" lon="3.81223">
        <ele>201</ele>
        <time>2018-06-24T07:23:57Z</time>
      </trkpt>
      <trkpt lat="49.9661" lon="3.81308">
        <ele>201</ele>
        <time>2018-06-24T07:24:06Z</time>
      </trkpt>
      <trkpt lat="49.9663" lon="3.81386">
        <ele>202</ele>
        <time>2018-06-24T07:24:15Z</time>
      </trkpt>
      <trkpt lat="49.96627" lon="3.81473">
        <ele>204</ele>
        <time>2018-06-24T07:24:24Z</time>
      </trkpt>
      <trkpt lat="49.96624" lon="3.81492">
        <ele>204</ele>
        <time>2018-06-24T07:24:25Z</time>
      </trkpt>
      <trkpt lat="49.96606" lon="3.81581">
        <ele>203</ele>
        <time>2018-06-24T07:24:35Z</time>
      </trkpt>
      <trkpt lat="49.96593" lon="3.81669">
        <ele>200</ele>
        <time>2018-06-24T07:24:44Z</time>
      </trkpt>
      <trkpt lat="49.96584" lon="3.81755">
        <ele>197</ele>
        <time>2018-06-24T07:24:52Z</time>
      </trkpt>
      <trkpt lat="49.96585" lon="3.8183">
        <ele>197</ele>
        <time>2018-06-24T07:24:58Z</time>
      </trkpt>
      <trkpt lat="49.96589" lon="3.81917">
        <ele>197</ele>
        <time>2018-06-24T07:25:05Z</time>
      </trkpt>
      <trkpt lat="49.96594" lon="3.82005">
        <ele>198</ele>
        <time>2018-06-24T07:25:13Z</time>
      </trkpt>
      <trkpt lat="49.96599" lon="3.82095">
        <ele>198</ele>
        <time>2018-06-24T07:25:22Z</time>
      </trkpt>
      <trkpt lat="49.96602" lon="3.82186">
        <ele>199</ele>
        <time>2018-06-24T07:25:32Z</time>
      </trkpt>
      <trkpt lat="49.96607" lon="3.82274">
        <ele>200</ele>
        <time>2018-06-24T07:25:41Z</time>
      </trkpt>
      <trkpt lat="49.96611" lon="3.8236">
        <ele>201</ele>
        <time>2018-06-24T07:25:50Z</time>
      </trkpt>
      <trkpt lat="49.96616" lon="3.8245">
        <ele>200</ele>
        <time>2018-06-24T07:25:59Z</time>
      </trkpt>
      <trkpt lat="49.96618" lon="3.82544">
        <ele>198</ele>
        <time>2018-06-24T07:26:07Z</time>
      </trkpt>
      <trkpt lat="49.9662" lon="3.82631">
        <ele>195</ele>
        <time>2018-06-24T07:26:14Z</time>
      </trkpt>
      <trkpt lat="49.96623" lon="3.82655">
        <ele>195</ele>
        <time>2018-06-24T07:26:15Z</time>
      </trkpt>
      <trkpt lat="49.96646" lon="3.8274">
        <ele>195</ele>
        <time>2018-06-24T07:26:24Z</time>
      </trkpt>
      <trkpt lat="49.96669" lon="3.82818">
        <ele>197</ele>
        <time>2018-06-24T07:26:33Z</time>
      </trkpt>
      <trkpt lat="49.96692" lon="3.82894">
        <ele>198</ele>
        <time>2018-06-24T07:26:42Z</time>
      </trkpt>
      <trkpt lat="49.96716" lon="3.82969">
        <ele>198</ele>
        <time>2018-06-24T07:26:51Z</time>
      </trkpt>
      <trkpt lat="49.96716" lon="3.82988">
        <ele>198</ele>
        <time>2018-06-24T07:26:53Z</time>
      </trkpt>
      <trkpt lat="49.96698" lon="3.83021">
        <ele>197</ele>
        <time>2018-06-24T07:26:57Z</time>
      </trkpt>
      <trkpt lat="49.96649" lon="3.83067">
        <ele>194</ele>
        <time>2018-06-24T07:27:04Z</time>
      </trkpt>
      <trkpt lat="49.966" lon="3.8312">
        <ele>195</ele>
        <time>2018-06-24T07:27:12Z</time>
      </trkpt>
      <trkpt lat="49.96562" lon="3.8318">
        <ele>197</ele>
        <time>2018-06-24T07:27:21Z</time>
      </trkpt>
      <trkpt lat="49.96531" lon="3.83244">
        <ele>199</ele>
        <time>2018-06-24T07:27:30Z</time>
      </trkpt>
      <trkpt lat="49.96505" lon="3.83325">
        <ele>201</ele>
        <time>2018-06-24T07:27:40Z</time>
      </trkpt>
      <trkpt lat="49.96478" lon="3.83398">
        <ele>203</ele>
        <time>2018-06-24T07:27:50Z</time>
      </trkpt>
      <trkpt lat="49.9645" lon="3.83471">
        <ele>204</ele>
        <time>2018-06-24T07:28:00Z</time>
      </trkpt>
      <trkpt lat="49.96417" lon="3.83544">
        <ele>205</ele>
        <time>2018-06-24T07:28:11Z</time>
      </trkpt>
      <trkpt lat="49.96393" lon="3.83583">
        <ele>205</ele>
        <time>2018-06-24T07:28:23Z</time>
      </trkpt>
      <trkpt lat="49.96392" lon="3.83577">
        <ele>205</ele>
        <time>2018-06-24T07:28:27Z</time>
      </trkpt>
      <trkpt lat="49.96393" lon="3.83584">
        <ele>206</ele>
        <time>2018-06-24T07:29:15Z</time>
      </trkpt>
      <trkpt lat="49.96392" lon="3.8359">
        <ele>206</ele>
        <time>2018-06-24T07:29:18Z</time>
      </trkpt>
      <trkpt lat="49.96379" lon="3.83646">
        <ele>206</ele>
        <time>2018-06-24T07:29:35Z</time>
      </trkpt>
      <trkpt lat="49.96377" lon="3.8366">
        <ele>206</ele>
        <time>2018-06-24T07:30:07Z</time>
      </trkpt>
      <trkpt lat="49.96369" lon="3.83679">
        <ele>207</ele>
        <time>2018-06-24T07:30:11Z</time>
      </trkpt>
      <trkpt lat="49.96359" lon="3.83706">
        <ele>207</ele>
        <time>2018-06-24T07:30:15Z</time>
      </trkpt>
      <trkpt lat="49.96353" lon="3.83721">
        <ele>207</ele>
        <time>2018-06-24T07:30:17Z</time>
      </trkpt>
      <trkpt lat="49.96345" lon="3.83745">
        <ele>207</ele>
        <time>2018-06-24T07:30:20Z</time>
      </trkpt>
      <trkpt lat="49.96313" lon="3.83819">
        <ele>207</ele>
        <time>2018-06-24T07:30:29Z</time>
      </trkpt>
      <trkpt lat="49.96301" lon="3.83834">
        <ele>208</ele>
        <time>2018-06-24T07:30:31Z</time>
      </trkpt>
      <trkpt lat="49.96285" lon="3.83846">
        <ele>208</ele>
        <time>2018-06-24T07:30:33Z</time>
      </trkpt>
      <trkpt lat="49.96267" lon="3.83853">
        <ele>208</ele>
        <time>2018-06-24T07:30:35Z</time>
      </trkpt>
      <trkpt lat="49.96206" lon="3.83853">
        <ele>208</ele>
        <time>2018-06-24T07:30:41Z</time>
      </trkpt>
      <trkpt lat="49.96145" lon="3.83853">
        <ele>207</ele>
        <time>2018-06-24T07:30:47Z</time>
      </trkpt>
      <trkpt lat="49.96088" lon="3.83859">
        <ele>206</ele>
        <time>2018-06-24T07:30:53Z</time>
      </trkpt>
      <trkpt lat="49.96033" lon="3.8386">
        <ele>206</ele>
        <time>2018-06-24T07:30:59Z</time>
      </trkpt>
      <trkpt lat="49.95977" lon="3.83854">
        <ele>205</ele>
        <time>2018-06-24T07:31:05Z</time>
      </trkpt>
      <trkpt lat="49.95914" lon="3.83842">
        <ele>204</ele>
        <time>2018-06-24T07:31:11Z</time>
      </trkpt>
      <trkpt lat="49.95853" lon="3.83833">
        <ele>203</ele>
        <time>2018-06-24T07:31:17Z</time>
      </trkpt>
      <trkpt lat="49.95792" lon="3.83828">
        <ele>204</ele>
        <time>2018-06-24T07:31:24Z</time>
      </trkpt>
      <trkpt lat="49.95776" lon="3.83823">
        <ele>205</ele>
        <time>2018-06-24T07:31:25Z</time>
      </trkpt>
      <trkpt lat="49.95722" lon="3.83792">
        <ele>207</ele>
        <time>2018-06-24T07:31:34Z</time>
      </trkpt>
      <trkpt lat="49.95671" lon="3.83764">
        <ele>208</ele>
        <time>2018-06-24T07:31:42Z</time>
      </trkpt>
      <trkpt lat="49.95615" lon="3.83764">
        <ele>207</ele>
        <time>2018-06-24T07:31:50Z</time>
      </trkpt>
      <trkpt lat="49.95601" lon="3.8377">
        <ele>206</ele>
        <time>2018-06-24T07:31:51Z</time>
      </trkpt>
      <trkpt lat="49.95551" lon="3.83814">
        <ele>205</ele>
        <time>2018-06-24T07:32:00Z</time>
      </trkpt>
      <trkpt lat="49.95498" lon="3.83848">
        <ele>205</ele>
        <time>2018-06-24T07:32:08Z</time>
      </trkpt>
      <trkpt lat="49.95443" lon="3.83875">
        <ele>206</ele>
        <time>2018-06-24T07:32:17Z</time>
      </trkpt>
      <trkpt lat="49.9539" lon="3.83904">
        <ele>205</ele>
        <time>2018-06-24T07:32:26Z</time>
      </trkpt>
      <trkpt lat="49.95335" lon="3.83933">
        <ele>205</ele>
        <time>2018-06-24T07:32:35Z</time>
      </trkpt>
      <trkpt lat="49.95289" lon="3.83954">
        <ele>204</ele>
        <time>2018-06-24T07:32:41Z</time>
      </trkpt>
      <trkpt lat="49.95264" lon="3.83946">
        <ele>204</ele>
        <time>2018-06-24T07:32:44Z</time>
      </trkpt>
      <trkpt lat="49.95218" lon="3.83899">
        <ele>204</ele>
        <time>2018-06-24T07:32:51Z</time>
      </trkpt>
      <trkpt lat="49.95205" lon="3.83891">
        <ele>204</ele>
        <time>2018-06-24T07:32:52Z</time>
      </trkpt>
      <trkpt lat="49.95187" lon="3.83885">
        <ele>204</ele>
        <time>2018-06-24T07:32:56Z</time>
      </trkpt>
      <trkpt lat="49.95174" lon="3.83886">
        <ele>204</ele>
        <time>2018-06-24T07:32:58Z</time>
      </trkpt>
      <trkpt lat="49.95117" lon="3.83903">
        <ele>207</ele>
        <time>2018-06-24T07:33:08Z</time>
      </trkpt>
      <trkpt lat="49.9508" lon="3.83922">
        <ele>208</ele>
        <time>2018-06-24T07:33:15Z</time>
      </trkpt>
      <trkpt lat="49.95071" lon="3.83931">
        <ele>209</ele>
        <time>2018-06-24T07:33:17Z</time>
      </trkpt>
      <trkpt lat="49.95054" lon="3.83953">
        <ele>209</ele>
        <time>2018-06-24T07:33:21Z</time>
      </trkpt>
      <trkpt lat="49.95044" lon="3.83959">
        <ele>209</ele>
        <time>2018-06-24T07:33:23Z</time>
      </trkpt>
      <trkpt lat="49.95033" lon="3.83961">
        <ele>209</ele>
        <time>2018-06-24T07:33:25Z</time>
      </trkpt>
      <trkpt lat="49.94976" lon="3.83951">
        <ele>209</ele>
        <time>2018-06-24T07:33:36Z</time>
      </trkpt>
      <trkpt lat="49.94921" lon="3.8394">
        <ele>209</ele>
        <time>2018-06-24T07:33:46Z</time>
      </trkpt>
      <trkpt lat="49.94864" lon="3.83925">
        <ele>208</ele>
        <time>2018-06-24T07:33:55Z</time>
      </trkpt>
      <trkpt lat="49.94807" lon="3.83898">
        <ele>208</ele>
        <time>2018-06-24T07:34:04Z</time>
      </trkpt>
      <trkpt lat="49.94788" lon="3.83889">
        <ele>208</ele>
        <time>2018-06-24T07:34:07Z</time>
      </trkpt>
      <trkpt lat="49.94778" lon="3.83875">
        <ele>208</ele>
        <time>2018-06-24T07:34:09Z</time>
      </trkpt>
      <trkpt lat="49.94779" lon="3.83846">
        <ele>208</ele>
        <time>2018-06-24T07:34:12Z</time>
      </trkpt>
      <trkpt lat="49.948" lon="3.83762">
        <ele>208</ele>
        <time>2018-06-24T07:34:22Z</time>
      </trkpt>
      <trkpt lat="49.94818" lon="3.83682">
        <ele>208</ele>
        <time>2018-06-24T07:34:32Z</time>
      </trkpt>
      <trkpt lat="49.94841" lon="3.83601">
        <ele>207</ele>
        <time>2018-06-24T07:34:42Z</time>
      </trkpt>
      <trkpt lat="49.94858" lon="3.83517">
        <ele>207</ele>
        <time>2018-06-24T07:34:51Z</time>
      </trkpt>
      <trkpt lat="49.94864" lon="3.83433">
        <ele>208</ele>
        <time>2018-06-24T07:35:00Z</time>
      </trkpt>
      <trkpt lat="49.94852" lon="3.83347">
        <ele>207</ele>
        <time>2018-06-24T07:35:09Z</time>
      </trkpt>
      <trkpt lat="49.94834" lon="3.8326">
        <ele>207</ele>
        <time>2018-06-24T07:35:18Z</time>
      </trkpt>
      <trkpt lat="49.94823" lon="3.83172">
        <ele>207</ele>
        <time>2018-06-24T07:35:27Z</time>
      </trkpt>
      <trkpt lat="49.9481" lon="3.83084">
        <ele>206</ele>
        <time>2018-06-24T07:35:35Z</time>
      </trkpt>
      <trkpt lat="49.94799" lon="3.83001">
        <ele>206</ele>
        <time>2018-06-24T07:35:42Z</time>
      </trkpt>
      <trkpt lat="49.94789" lon="3.82907">
        <ele>204</ele>
        <time>2018-06-24T07:35:50Z</time>
      </trkpt>
      <trkpt lat="49.94779" lon="3.82824">
        <ele>205</ele>
        <time>2018-06-24T07:35:57Z</time>
      </trkpt>
      <trkpt lat="49.94768" lon="3.82736">
        <ele>204</ele>
        <time>2018-06-24T07:36:04Z</time>
      </trkpt>
      <trkpt lat="49.94755" lon="3.82651">
        <ele>204</ele>
        <time>2018-06-24T07:36:11Z</time>
      </trkpt>
      <trkpt lat="49.94739" lon="3.82568">
        <ele>204</ele>
        <time>2018-06-24T07:36:18Z</time>
      </trkpt>
      <trkpt lat="49.94733" lon="3.82546">
        <ele>203</ele>
        <time>2018-06-24T07:36:19Z</time>
      </trkpt>
      <trkpt lat="49.94698" lon="3.82478">
        <ele>202</ele>
        <time>2018-06-24T07:36:27Z</time>
      </trkpt>
      <trkpt lat="49.94658" lon="3.8241">
        <ele>201</ele>
        <time>2018-06-24T07:36:34Z</time>
      </trkpt>
      <trkpt lat="49.9463" lon="3.82347">
        <ele>201</ele>
        <time>2018-06-24T07:36:40Z</time>
      </trkpt>
      <trkpt lat="49.94612" lon="3.82322">
        <ele>200</ele>
        <time>2018-06-24T07:36:43Z</time>
      </trkpt>
      <trkpt lat="49.9456" lon="3.82282">
        <ele>201</ele>
        <time>2018-06-24T07:36:50Z</time>
      </trkpt>
      <trkpt lat="49.94511" lon="3.82246">
        <ele>200</ele>
        <time>2018-06-24T07:36:57Z</time>
      </trkpt>
      <trkpt lat="49.94461" lon="3.82209">
        <ele>201</ele>
        <time>2018-06-24T07:37:04Z</time>
      </trkpt>
      <trkpt lat="49.94409" lon="3.82169">
        <ele>201</ele>
        <time>2018-06-24T07:37:11Z</time>
      </trkpt>
      <trkpt lat="49.94358" lon="3.82122">
        <ele>199</ele>
        <time>2018-06-24T07:37:18Z</time>
      </trkpt>
      <trkpt lat="49.94308" lon="3.82071">
        <ele>200</ele>
        <time>2018-06-24T07:37:25Z</time>
      </trkpt>
      <trkpt lat="49.9426" lon="3.82021">
        <ele>202</ele>
        <time>2018-06-24T07:37:32Z</time>
      </trkpt>
      <trkpt lat="49.94212" lon="3.81969">
        <ele>205</ele>
        <time>2018-06-24T07:37:39Z</time>
      </trkpt>
      <trkpt lat="49.94163" lon="3.8192">
        <ele>206</ele>
        <time>2018-06-24T07:37:46Z</time>
      </trkpt>
      <trkpt lat="49.94113" lon="3.81869">
        <ele>206</ele>
        <time>2018-06-24T07:37:53Z</time>
      </trkpt>
      <trkpt lat="49.94067" lon="3.81823">
        <ele>205</ele>
        <time>2018-06-24T07:38:00Z</time>
      </trkpt>
      <trkpt lat="49.94017" lon="3.81772">
        <ele>206</ele>
        <time>2018-06-24T07:38:08Z</time>
      </trkpt>
      <trkpt lat="49.9397" lon="3.8173">
        <ele>202</ele>
        <time>2018-06-24T07:38:15Z</time>
      </trkpt>
      <trkpt lat="49.93953" lon="3.8172">
        <ele>201</ele>
        <time>2018-06-24T07:38:16Z</time>
      </trkpt>
      <trkpt lat="49.93895" lon="3.81684">
        <ele>196</ele>
        <time>2018-06-24T07:38:24Z</time>
      </trkpt>
      <trkpt lat="49.93841" lon="3.81643">
        <ele>195</ele>
        <time>2018-06-24T07:38:31Z</time>
      </trkpt>
      <trkpt lat="49.93791" lon="3.81597">
        <ele>191</ele>
        <time>2018-06-24T07:38:37Z</time>
      </trkpt>
      <trkpt lat="49.93773" lon="3.81563">
        <ele>191</ele>
        <time>2018-06-24T07:38:40Z</time>
      </trkpt>
      <trkpt lat="49.93743" lon="3.81492">
        <ele>190</ele>
        <time>2018-06-24T07:38:47Z</time>
      </trkpt>
      <trkpt lat="49.93708" lon="3.81422">
        <ele>189</ele>
        <time>2018-06-24T07:38:54Z</time>
      </trkpt>
      <trkpt lat="49.93672" lon="3.8135">
        <ele>189</ele>
        <time>2018-06-24T07:39:01Z</time>
      </trkpt>
      <trkpt lat="49.93639" lon="3.8128">
        <ele>186</ele>
        <time>2018-06-24T07:39:07Z</time>
      </trkpt>
      <trkpt lat="49.93602" lon="3.81203">
        <ele>188</ele>
        <time>2018-06-24T07:39:14Z</time>
      </trkpt>
      <trkpt lat="49.93569" lon="3.81132">
        <ele>189</ele>
        <time>2018-06-24T07:39:21Z</time>
      </trkpt>
      <trkpt lat="49.93534" lon="3.81054">
        <ele>189</ele>
        <time>2018-06-24T07:39:29Z</time>
      </trkpt>
      <trkpt lat="49.93505" lon="3.80978">
        <ele>188</ele>
        <time>2018-06-24T07:39:36Z</time>
      </trkpt>
      <trkpt lat="49.93473" lon="3.80902">
        <ele>189</ele>
        <time>2018-06-24T07:39:43Z</time>
      </trkpt>
      <trkpt lat="49.93435" lon="3.80828">
        <ele>191</ele>
        <time>2018-06-24T07:39:51Z</time>
      </trkpt>
      <trkpt lat="49.93397" lon="3.80756">
        <ele>190</ele>
        <time>2018-06-24T07:39:59Z</time>
      </trkpt>
      <trkpt lat="49.93363" lon="3.8069">
        <ele>190</ele>
        <time>2018-06-24T07:40:06Z</time>
      </trkpt>
      <trkpt lat="49.93328" lon="3.80622">
        <ele>188</ele>
        <time>2018-06-24T07:40:13Z</time>
      </trkpt>
      <trkpt lat="49.93291" lon="3.80548">
        <ele>189</ele>
        <time>2018-06-24T07:40:21Z</time>
      </trkpt>
      <trkpt lat="49.93268" lon="3.80508">
        <ele>189</ele>
        <time>2018-06-24T07:40:27Z</time>
      </trkpt>
      <trkpt lat="49.93222" lon="3.8048">
        <ele>186</ele>
        <time>2018-06-24T07:40:44Z</time>
      </trkpt>
      <trkpt lat="49.93221" lon="3.80482">
        <ele>186</ele>
        <time>2018-06-24T07:40:46Z</time>
      </trkpt>
      <trkpt lat="49.9323" lon="3.80488">
        <ele>187</ele>
        <time>2018-06-24T07:40:55Z</time>
      </trkpt>
      <trkpt lat="49.93241" lon="3.80492">
        <ele>187</ele>
        <time>2018-06-24T07:41:01Z</time>
      </trkpt>
      <trkpt lat="49.93246" lon="3.80472">
        <ele>187</ele>
        <time>2018-06-24T07:41:06Z</time>
      </trkpt>
      <trkpt lat="49.93241" lon="3.80457">
        <ele>187</ele>
        <time>2018-06-24T07:41:08Z</time>
      </trkpt>
      <trkpt lat="49.93208" lon="3.80387">
        <ele>187</ele>
        <time>2018-06-24T07:41:16Z</time>
      </trkpt>
      <trkpt lat="49.93185" lon="3.80308">
        <ele>188</ele>
        <time>2018-06-24T07:41:23Z</time>
      </trkpt>
      <trkpt lat="49.93169" lon="3.80226">
        <ele>190</ele>
        <time>2018-06-24T07:41:29Z</time>
      </trkpt>
      <trkpt lat="49.93154" lon="3.80142">
        <ele>190</ele>
        <time>2018-06-24T07:41:35Z</time>
      </trkpt>
      <trkpt lat="49.93139" lon="3.80061">
        <ele>192</ele>
        <time>2018-06-24T07:41:42Z</time>
      </trkpt>
      <trkpt lat="49.93124" lon="3.79972">
        <ele>191</ele>
        <time>2018-06-24T07:41:50Z</time>
      </trkpt>
      <trkpt lat="49.9311" lon="3.79886">
        <ele>190</ele>
        <time>2018-06-24T07:41:58Z</time>
      </trkpt>
      <trkpt lat="49.93098" lon="3.79799">
        <ele>190</ele>
        <time>2018-06-24T07:42:05Z</time>
      </trkpt>
      <trkpt lat="49.93086" lon="3.79708">
        <ele>189</ele>
        <time>2018-06-24T07:42:12Z</time>
      </trkpt>
      <trkpt lat="49.93066" lon="3.79622">
        <ele>190</ele>
        <time>2018-06-24T07:42:19Z</time>
      </trkpt>
      <trkpt lat="49.93036" lon="3.79543">
        <ele>192</ele>
        <time>2018-06-24T07:42:26Z</time>
      </trkpt>
      <trkpt lat="49.92999" lon="3.79468">
        <ele>189</ele>
        <time>2018-06-24T07:42:33Z</time>
      </trkpt>
      <trkpt lat="49.92961" lon="3.79403">
        <ele>189</ele>
        <time>2018-06-24T07:42:40Z</time>
      </trkpt>
      <trkpt lat="49.92921" lon="3.79342">
        <ele>187</ele>
        <time>2018-06-24T07:42:47Z</time>
      </trkpt>
      <trkpt lat="49.92883" lon="3.79276">
        <ele>186</ele>
        <time>2018-06-24T07:42:55Z</time>
      </trkpt>
      <trkpt lat="49.92875" lon="3.79259">
        <ele>186</ele>
        <time>2018-06-24T07:42:56Z</time>
      </trkpt>
      <trkpt lat="49.92851" lon="3.79174">
        <ele>187</ele>
        <time>2018-06-24T07:43:06Z</time>
      </trkpt>
      <trkpt lat="49.92834" lon="3.79093">
        <ele>188</ele>
        <time>2018-06-24T07:43:20Z</time>
      </trkpt>
      <trkpt lat="49.92816" lon="3.79007">
        <ele>189</ele>
        <time>2018-06-24T07:43:31Z</time>
      </trkpt>
      <trkpt lat="49.92798" lon="3.78925">
        <ele>189</ele>
        <time>2018-06-24T07:43:40Z</time>
      </trkpt>
      <trkpt lat="49.92779" lon="3.78839">
        <ele>188</ele>
        <time>2018-06-24T07:43:49Z</time>
      </trkpt>
      <trkpt lat="49.92759" lon="3.78755">
        <ele>188</ele>
        <time>2018-06-24T07:43:58Z</time>
      </trkpt>
      <trkpt lat="49.92736" lon="3.78678">
        <ele>187</ele>
        <time>2018-06-24T07:44:06Z</time>
      </trkpt>
      <trkpt lat="49.9271" lon="3.78592">
        <ele>186</ele>
        <time>2018-06-24T07:44:14Z</time>
      </trkpt>
      <trkpt lat="49.92685" lon="3.78511">
        <ele>183</ele>
        <time>2018-06-24T07:44:21Z</time>
      </trkpt>
      <trkpt lat="49.9266" lon="3.7843">
        <ele>181</ele>
        <time>2018-06-24T07:44:28Z</time>
      </trkpt>
      <trkpt lat="49.92635" lon="3.78349">
        <ele>183</ele>
        <time>2018-06-24T07:44:36Z</time>
      </trkpt>
      <trkpt lat="49.92611" lon="3.78268">
        <ele>186</ele>
        <time>2018-06-24T07:44:45Z</time>
      </trkpt>
      <trkpt lat="49.92587" lon="3.78187">
        <ele>187</ele>
        <time>2018-06-24T07:44:54Z</time>
      </trkpt>
      <trkpt lat="49.92562" lon="3.78107">
        <ele>185</ele>
        <time>2018-06-24T07:45:03Z</time>
      </trkpt>
      <trkpt lat="49.92526" lon="3.78035">
        <ele>185</ele>
        <time>2018-06-24T07:45:12Z</time>
      </trkpt>
      <trkpt lat="49.92509" lon="3.78002">
        <ele>185</ele>
        <time>2018-06-24T07:45:16Z</time>
      </trkpt>
      <trkpt lat="49.92503" lon="3.77984">
        <ele>185</ele>
        <time>2018-06-24T07:45:18Z</time>
      </trkpt>
      <trkpt lat="49.92484" lon="3.77904">
        <ele>185</ele>
        <time>2018-06-24T07:45:27Z</time>
      </trkpt>
      <trkpt lat="49.92465" lon="3.7782">
        <ele>184</ele>
        <time>2018-06-24T07:45:37Z</time>
      </trkpt>
      <trkpt lat="49.92434" lon="3.7774">
        <ele>183</ele>
        <time>2018-06-24T07:45:47Z</time>
      </trkpt>
      <trkpt lat="49.92393" lon="3.7768">
        <ele>182</ele>
        <time>2018-06-24T07:45:55Z</time>
      </trkpt>
      <trkpt lat="49.92345" lon="3.77625">
        <ele>180</ele>
        <time>2018-06-24T07:46:03Z</time>
      </trkpt>
      <trkpt lat="49.92307" lon="3.7757">
        <ele>179</ele>
        <time>2018-06-24T07:46:10Z</time>
      </trkpt>
      <trkpt lat="49.92288" lon="3.77485">
        <ele>178</ele>
        <time>2018-06-24T07:46:17Z</time>
      </trkpt>
      <trkpt lat="49.92279" lon="3.77449">
        <ele>178</ele>
        <time>2018-06-24T07:46:20Z</time>
      </trkpt>
      <trkpt lat="49.92235" lon="3.77385">
        <ele>177</ele>
        <time>2018-06-24T07:46:27Z</time>
      </trkpt>
      <trkpt lat="49.92189" lon="3.77331">
        <ele>177</ele>
        <time>2018-06-24T07:46:34Z</time>
      </trkpt>
      <trkpt lat="49.92143" lon="3.77279">
        <ele>176</ele>
        <time>2018-06-24T07:46:41Z</time>
      </trkpt>
      <trkpt lat="49.92101" lon="3.77226">
        <ele>175</ele>
        <time>2018-06-24T07:46:47Z</time>
      </trkpt>
      <trkpt lat="49.92063" lon="3.77157">
        <ele>174</ele>
        <time>2018-06-24T07:46:54Z</time>
      </trkpt>
      <trkpt lat="49.92052" lon="3.77108">
        <ele>174</ele>
        <time>2018-06-24T07:47:06Z</time>
      </trkpt>
      <trkpt lat="49.92041" lon="3.77096">
        <ele>174</ele>
        <time>2018-06-24T07:47:10Z</time>
      </trkpt>
      <trkpt lat="49.91995" lon="3.77037">
        <ele>173</ele>
        <time>2018-06-24T07:47:19Z</time>
      </trkpt>
      <trkpt lat="49.91974" lon="3.7701">
        <ele>173</ele>
        <time>2018-06-24T07:47:23Z</time>
      </trkpt>
      <trkpt lat="49.9196" lon="3.76981">
        <ele>172</ele>
        <time>2018-06-24T07:47:26Z</time>
      </trkpt>
      <trkpt lat="49.91932" lon="3.76899">
        <ele>173</ele>
        <time>2018-06-24T07:47:35Z</time>
      </trkpt>
      <trkpt lat="49.91906" lon="3.76822">
        <ele>171</ele>
        <time>2018-06-24T07:47:43Z</time>
      </trkpt>
      <trkpt lat="49.91873" lon="3.76754">
        <ele>170</ele>
        <time>2018-06-24T07:47:51Z</time>
      </trkpt>
      <trkpt lat="49.91842" lon="3.76676">
        <ele>169</ele>
        <time>2018-06-24T07:47:59Z</time>
      </trkpt>
      <trkpt lat="49.91814" lon="3.76598">
        <ele>169</ele>
        <time>2018-06-24T07:48:07Z</time>
      </trkpt>
      <trkpt lat="49.91786" lon="3.7652">
        <ele>169</ele>
        <time>2018-06-24T07:48:15Z</time>
      </trkpt>
      <trkpt lat="49.91756" lon="3.7644">
        <ele>170</ele>
        <time>2018-06-24T07:48:23Z</time>
      </trkpt>
      <trkpt lat="49.91737" lon="3.76404">
        <ele>168</ele>
        <time>2018-06-24T07:48:27Z</time>
      </trkpt>
      <trkpt lat="49.91709" lon="3.76376">
        <ele>166</ele>
        <time>2018-06-24T07:48:31Z</time>
      </trkpt>
      <trkpt lat="49.91683" lon="3.76364">
        <ele>166</ele>
        <time>2018-06-24T07:48:34Z</time>
      </trkpt>
      <trkpt lat="49.91655" lon="3.76361">
        <ele>163</ele>
        <time>2018-06-24T07:48:37Z</time>
      </trkpt>
      <trkpt lat="49.91609" lon="3.76376">
        <ele>162</ele>
        <time>2018-06-24T07:48:43Z</time>
      </trkpt>
      <trkpt lat="49.91597" lon="3.76366">
        <ele>161</ele>
        <time>2018-06-24T07:48:45Z</time>
      </trkpt>
      <trkpt lat="49.91574" lon="3.76288">
        <ele>158</ele>
        <time>2018-06-24T07:48:53Z</time>
      </trkpt>
      <trkpt lat="49.91551" lon="3.76207">
        <ele>157</ele>
        <time>2018-06-24T07:49:01Z</time>
      </trkpt>
      <trkpt lat="49.91528" lon="3.76127">
        <ele>154</ele>
        <time>2018-06-24T07:49:08Z</time>
      </trkpt>
      <trkpt lat="49.9152" lon="3.76085">
        <ele>152</ele>
        <time>2018-06-24T07:49:11Z</time>
      </trkpt>
      <trkpt lat="49.91517" lon="3.75997">
        <ele>151</ele>
        <time>2018-06-24T07:49:17Z</time>
      </trkpt>
      <trkpt lat="49.91504" lon="3.7591">
        <ele>149</ele>
        <time>2018-06-24T07:49:23Z</time>
      </trkpt>
      <trkpt lat="49.91483" lon="3.75821">
        <ele>141</ele>
        <time>2018-06-24T07:49:29Z</time>
      </trkpt>
      <trkpt lat="49.91464" lon="3.75727">
        <ele>139</ele>
        <time>2018-06-24T07:49:35Z</time>
      </trkpt>
      <trkpt lat="49.91452" lon="3.75634">
        <ele>139</ele>
        <time>2018-06-24T07:49:41Z</time>
      </trkpt>
      <trkpt lat="49.91442" lon="3.75544">
        <ele>138</ele>
        <time>2018-06-24T07:49:47Z</time>
      </trkpt>
      <trkpt lat="49.91429" lon="3.7545">
        <ele>138</ele>
        <time>2018-06-24T07:49:53Z</time>
      </trkpt>
      <trkpt lat="49.91404" lon="3.75371">
        <ele>132</ele>
        <time>2018-06-24T07:49:58Z</time>
      </trkpt>
      <trkpt lat="49.91374" lon="3.75298">
        <ele>135</ele>
        <time>2018-06-24T07:50:03Z</time>
      </trkpt>
      <trkpt lat="49.91346" lon="3.75227">
        <ele>136</ele>
        <time>2018-06-24T07:50:08Z</time>
      </trkpt>
      <trkpt lat="49.91311" lon="3.75146">
        <ele>131</ele>
        <time>2018-06-24T07:50:14Z</time>
      </trkpt>
      <trkpt lat="49.91275" lon="3.75064">
        <ele>131</ele>
        <time>2018-06-24T07:50:20Z</time>
      </trkpt>
      <trkpt lat="49.91238" lon="3.74983">
        <ele>127</ele>
        <time>2018-06-24T07:50:26Z</time>
      </trkpt>
      <trkpt lat="49.91202" lon="3.74902">
        <ele>128</ele>
        <time>2018-06-24T07:50:32Z</time>
      </trkpt>
      <trkpt lat="49.91166" lon="3.74821">
        <ele>123</ele>
        <time>2018-06-24T07:50:38Z</time>
      </trkpt>
      <trkpt lat="49.91131" lon="3.74745">
        <ele>125</ele>
        <time>2018-06-24T07:50:44Z</time>
      </trkpt>
      <trkpt lat="49.91102" lon="3.74673">
        <ele>122</ele>
        <time>2018-06-24T07:50:50Z</time>
      </trkpt>
      <trkpt lat="49.91071" lon="3.74604">
        <ele>117</ele>
        <time>2018-06-24T07:50:56Z</time>
      </trkpt>
      <trkpt lat="49.91052" lon="3.74556">
        <ele>116</ele>
        <time>2018-06-24T07:51:00Z</time>
      </trkpt>
      <trkpt lat="49.91048" lon="3.74514">
        <ele>116</ele>
        <time>2018-06-24T07:51:03Z</time>
      </trkpt>
      <trkpt lat="49.91053" lon="3.74471">
        <ele>115</ele>
        <time>2018-06-24T07:51:06Z</time>
      </trkpt>
      <trkpt lat="49.91077" lon="3.74383">
        <ele>115</ele>
        <time>2018-06-24T07:51:13Z</time>
      </trkpt>
      <trkpt lat="49.91078" lon="3.74359">
        <ele>115</ele>
        <time>2018-06-24T07:51:15Z</time>
      </trkpt>
      <trkpt lat="49.91065" lon="3.7433">
        <ele>115</ele>
        <time>2018-06-24T07:51:18Z</time>
      </trkpt>
      <trkpt lat="49.91008" lon="3.74299">
        <ele>116</ele>
        <time>2018-06-24T07:51:26Z</time>
      </trkpt>
      <trkpt lat="49.90959" lon="3.74285">
        <ele>116</ele>
        <time>2018-06-24T07:51:33Z</time>
      </trkpt>
      <trkpt lat="49.90914" lon="3.7424">
        <ele>117</ele>
        <time>2018-06-24T07:51:41Z</time>
      </trkpt>
      <trkpt lat="49.90868" lon="3.74186">
        <ele>116</ele>
        <time>2018-06-24T07:51:50Z</time>
      </trkpt>
      <trkpt lat="49.90822" lon="3.74131">
        <ele>114</ele>
        <time>2018-06-24T07:51:58Z</time>
      </trkpt>
      <trkpt lat="49.90805" lon="3.74107">
        <ele>115</ele>
        <time>2018-06-24T07:52:01Z</time>
      </trkpt>
      <trkpt lat="49.90797" lon="3.74088">
        <ele>115</ele>
        <time>2018-06-24T07:52:03Z</time>
      </trkpt>
      <trkpt lat="49.90781" lon="3.74004">
        <ele>116</ele>
        <time>2018-06-24T07:52:11Z</time>
      </trkpt>
      <trkpt lat="49.90768" lon="3.73913">
        <ele>118</ele>
        <time>2018-06-24T07:52:20Z</time>
      </trkpt>
      <trkpt lat="49.90754" lon="3.73831">
        <ele>117</ele>
        <time>2018-06-24T07:52:28Z</time>
      </trkpt>
      <trkpt lat="49.90738" lon="3.7374">
        <ele>117</ele>
        <time>2018-06-24T07:52:37Z</time>
      </trkpt>
      <trkpt lat="49.90723" lon="3.73656">
        <ele>116</ele>
        <time>2018-06-24T07:52:45Z</time>
      </trkpt>
      <trkpt lat="49.90709" lon="3.73564">
        <ele>115</ele>
        <time>2018-06-24T07:52:53Z</time>
      </trkpt>
      <trkpt lat="49.90705" lon="3.7348">
        <ele>117</ele>
        <time>2018-06-24T07:53:01Z</time>
      </trkpt>
      <trkpt lat="49.90709" lon="3.73397">
        <ele>119</ele>
        <time>2018-06-24T07:53:10Z</time>
      </trkpt>
      <trkpt lat="49.90711" lon="3.73313">
        <ele>121</ele>
        <time>2018-06-24T07:53:19Z</time>
      </trkpt>
      <trkpt lat="49.90714" lon="3.73226">
        <ele>123</ele>
        <time>2018-06-24T07:53:28Z</time>
      </trkpt>
      <trkpt lat="49.90717" lon="3.73137">
        <ele>124</ele>
        <time>2018-06-24T07:53:37Z</time>
      </trkpt>
      <trkpt lat="49.9072" lon="3.73046">
        <ele>125</ele>
        <time>2018-06-24T07:53:46Z</time>
      </trkpt>
      <trkpt lat="49.90723" lon="3.72958">
        <ele>127</ele>
        <time>2018-06-24T07:53:55Z</time>
      </trkpt>
      <trkpt lat="49.90727" lon="3.72865">
        <ele>127</ele>
        <time>2018-06-24T07:54:04Z</time>
      </trkpt>
      <trkpt lat="49.90732" lon="3.72775">
        <ele>126</ele>
        <time>2018-06-24T07:54:12Z</time>
      </trkpt>
      <trkpt lat="49.90739" lon="3.72692">
        <ele>125</ele>
        <time>2018-06-24T07:54:19Z</time>
      </trkpt>
      <trkpt lat="49.90752" lon="3.72605">
        <ele>129</ele>
        <time>2018-06-24T07:54:27Z</time>
      </trkpt>
      <trkpt lat="49.9076" lon="3.72518">
        <ele>131</ele>
        <time>2018-06-24T07:54:36Z</time>
      </trkpt>
      <trkpt lat="49.90772" lon="3.72433">
        <ele>133</ele>
        <time>2018-06-24T07:54:45Z</time>
      </trkpt>
      <trkpt lat="49.90773" lon="3.72383">
        <ele>133</ele>
        <time>2018-06-24T07:54:50Z</time>
      </trkpt>
      <trkpt lat="49.90766" lon="3.72326">
        <ele>132</ele>
        <time>2018-06-24T07:54:55Z</time>
      </trkpt>
      <trkpt lat="49.90753" lon="3.72259">
        <ele>129</ele>
        <time>2018-06-24T07:55:00Z</time>
      </trkpt>
      <trkpt lat="49.90755" lon="3.72229">
        <ele>128</ele>
        <time>2018-06-24T07:55:02Z</time>
      </trkpt>
      <trkpt lat="49.90771" lon="3.72148">
        <ele>125</ele>
        <time>2018-06-24T07:55:08Z</time>
      </trkpt>
      <trkpt lat="49.90769" lon="3.72124">
        <ele>125</ele>
        <time>2018-06-24T07:55:10Z</time>
      </trkpt>
      <trkpt lat="49.9076" lon="3.72102">
        <ele>124</ele>
        <time>2018-06-24T07:55:12Z</time>
      </trkpt>
      <trkpt lat="49.90725" lon="3.72036">
        <ele>122</ele>
        <time>2018-06-24T07:55:19Z</time>
      </trkpt>
      <trkpt lat="49.90687" lon="3.7197">
        <ele>124</ele>
        <time>2018-06-24T07:55:26Z</time>
      </trkpt>
      <trkpt lat="49.90652" lon="3.71904">
        <ele>122</ele>
        <time>2018-06-24T07:55:33Z</time>
      </trkpt>
      <trkpt lat="49.90616" lon="3.71835">
        <ele>119</ele>
        <time>2018-06-24T07:55:40Z</time>
      </trkpt>
      <trkpt lat="49.90581" lon="3.7176">
        <ele>116</ele>
        <time>2018-06-24T07:55:47Z</time>
      </trkpt>
      <trkpt lat="49.90559" lon="3.7167">
        <ele>114</ele>
        <time>2018-06-24T07:55:54Z</time>
      </trkpt>
      <trkpt lat="49.90547" lon="3.71591">
        <ele>116</ele>
        <time>2018-06-24T07:56:00Z</time>
      </trkpt>
      <trkpt lat="49.90552" lon="3.71507">
        <ele>119</ele>
        <time>2018-06-24T07:56:07Z</time>
      </trkpt>
      <trkpt lat="49.90561" lon="3.71424">
        <ele>120</ele>
        <time>2018-06-24T07:56:14Z</time>
      </trkpt>
      <trkpt lat="49.90569" lon="3.71337">
        <ele>121</ele>
        <time>2018-06-24T07:56:22Z</time>
      </trkpt>
      <trkpt lat="49.90576" lon="3.71251">
        <ele>124</ele>
        <time>2018-06-24T07:56:30Z</time>
      </trkpt>
      <trkpt lat="49.90583" lon="3.71161">
        <ele>122</ele>
        <time>2018-06-24T07:56:38Z</time>
      </trkpt>
      <trkpt lat="49.90589" lon="3.71078">
        <ele>123</ele>
        <time>2018-06-24T07:56:45Z</time>
      </trkpt>
      <trkpt lat="49.90595" lon="3.70993">
        <ele>123</ele>
        <time>2018-06-24T07:56:52Z</time>
      </trkpt>
      <trkpt lat="49.90602" lon="3.70909">
        <ele>122</ele>
        <time>2018-06-24T07:56:59Z</time>
      </trkpt>
      <trkpt lat="49.90608" lon="3.70815">
        <ele>122</ele>
        <time>2018-06-24T07:57:07Z</time>
      </trkpt>
      <trkpt lat="49.9061" lon="3.70725">
        <ele>124</ele>
        <time>2018-06-24T07:57:15Z</time>
      </trkpt>
      <trkpt lat="49.90612" lon="3.70641">
        <ele>127</ele>
        <time>2018-06-24T07:57:23Z</time>
      </trkpt>
      <trkpt lat="49.9061" lon="3.7062">
        <ele>128</ele>
        <time>2018-06-24T07:57:24Z</time>
      </trkpt>
      <trkpt lat="49.9059" lon="3.7054">
        <ele>131</ele>
        <time>2018-06-24T07:57:33Z</time>
      </trkpt>
      <trkpt lat="49.90564" lon="3.70466">
        <ele>125</ele>
        <time>2018-06-24T07:57:41Z</time>
      </trkpt>
      <trkpt lat="49.90519" lon="3.70407">
        <ele>126</ele>
        <time>2018-06-24T07:57:49Z</time>
      </trkpt>
      <trkpt lat="49.90474" lon="3.70358">
        <ele>121</ele>
        <time>2018-06-24T07:57:56Z</time>
      </trkpt>
      <trkpt lat="49.90427" lon="3.70303">
        <ele>126</ele>
        <time>2018-06-24T07:58:03Z</time>
      </trkpt>
      <trkpt lat="49.90376" lon="3.70247">
        <ele>123</ele>
        <time>2018-06-24T07:58:10Z</time>
      </trkpt>
      <trkpt lat="49.90329" lon="3.70186">
        <ele>114</ele>
        <time>2018-06-24T07:58:17Z</time>
      </trkpt>
      <trkpt lat="49.90293" lon="3.70108">
        <ele>115</ele>
        <time>2018-06-24T07:58:24Z</time>
      </trkpt>
      <trkpt lat="49.90256" lon="3.7003">
        <ele>117</ele>
        <time>2018-06-24T07:58:31Z</time>
      </trkpt>
      <trkpt lat="49.90223" lon="3.69954">
        <ele>112</ele>
        <time>2018-06-24T07:58:38Z</time>
      </trkpt>
      <trkpt lat="49.90199" lon="3.6988">
        <ele>112</ele>
        <time>2018-06-24T07:58:45Z</time>
      </trkpt>
      <trkpt lat="49.90196" lon="3.69856">
        <ele>112</ele>
        <time>2018-06-24T07:58:46Z</time>
      </trkpt>
      <trkpt lat="49.90202" lon="3.69762">
        <ele>113</ele>
        <time>2018-06-24T07:58:54Z</time>
      </trkpt>
      <trkpt lat="49.9021" lon="3.69667">
        <ele>114</ele>
        <time>2018-06-24T07:59:01Z</time>
      </trkpt>
      <trkpt lat="49.90214" lon="3.69576">
        <ele>114</ele>
        <time>2018-06-24T07:59:08Z</time>
      </trkpt>
      <trkpt lat="49.90221" lon="3.69492">
        <ele>113</ele>
        <time>2018-06-24T07:59:15Z</time>
      </trkpt>
      <trkpt lat="49.90228" lon="3.69404">
        <ele>112</ele>
        <time>2018-06-24T07:59:22Z</time>
      </trkpt>
      <trkpt lat="49.90234" lon="3.69313">
        <ele>112</ele>
        <time>2018-06-24T07:59:29Z</time>
      </trkpt>
      <trkpt lat="49.90247" lon="3.69228">
        <ele>112</ele>
        <time>2018-06-24T07:59:36Z</time>
      </trkpt>
      <trkpt lat="49.90257" lon="3.69159">
        <ele>115</ele>
        <time>2018-06-24T07:59:42Z</time>
      </trkpt>
      <trkpt lat="49.90249" lon="3.69073">
        <ele>114</ele>
        <time>2018-06-24T07:59:49Z</time>
      </trkpt>
      <trkpt lat="49.90235" lon="3.68988">
        <ele>114</ele>
        <time>2018-06-24T07:59:56Z</time>
      </trkpt>
      <trkpt lat="49.9023" lon="3.68964">
        <ele>113</ele>
        <time>2018-06-24T07:59:58Z</time>
      </trkpt>
      <trkpt lat="49.90214" lon="3.68934">
        <ele>113</ele>
        <time>2018-06-24T08:00:01Z</time>
      </trkpt>
      <trkpt lat="49.90163" lon="3.68885">
        <ele>108</ele>
        <time>2018-06-24T08:00:07Z</time>
      </trkpt>
      <trkpt lat="49.9011" lon="3.68836">
        <ele>106</ele>
        <time>2018-06-24T08:00:13Z</time>
      </trkpt>
      <trkpt lat="49.90101" lon="3.68825">
        <ele>106</ele>
        <time>2018-06-24T08:00:14Z</time>
      </trkpt>
      <trkpt lat="49.90086" lon="3.68799">
        <ele>106</ele>
        <time>2018-06-24T08:00:16Z</time>
      </trkpt>
      <trkpt lat="49.90075" lon="3.68768">
        <ele>104</ele>
        <time>2018-06-24T08:00:18Z</time>
      </trkpt>
      <trkpt lat="49.90057" lon="3.68688">
        <ele>105</ele>
        <time>2018-06-24T08:00:23Z</time>
      </trkpt>
      <trkpt lat="49.90037" lon="3.68597">
        <ele>105</ele>
        <time>2018-06-24T08:00:29Z</time>
      </trkpt>
      <trkpt lat="49.9002" lon="3.68511">
        <ele>105</ele>
        <time>2018-06-24T08:00:35Z</time>
      </trkpt>
      <trkpt lat="49.90005" lon="3.68426">
        <ele>105</ele>
        <time>2018-06-24T08:00:41Z</time>
      </trkpt>
      <trkpt lat="49.8999" lon="3.68341">
        <ele>104</ele>
        <time>2018-06-24T08:00:47Z</time>
      </trkpt>
      <trkpt lat="49.89978" lon="3.68257">
        <ele>104</ele>
        <time>2018-06-24T08:00:53Z</time>
      </trkpt>
      <trkpt lat="49.89966" lon="3.68162">
        <ele>104</ele>
        <time>2018-06-24T08:01:00Z</time>
      </trkpt>
      <trkpt lat="49.89954" lon="3.68069">
        <ele>104</ele>
        <time>2018-06-24T08:01:07Z</time>
      </trkpt>
      <trkpt lat="49.89944" lon="3.67987">
        <ele>104</ele>
        <time>2018-06-24T08:01:13Z</time>
      </trkpt>
      <trkpt lat="49.89933" lon="3.67904">
        <ele>104</ele>
        <time>2018-06-24T08:01:19Z</time>
      </trkpt>
      <trkpt lat="49.89922" lon="3.67821">
        <ele>103</ele>
        <time>2018-06-24T08:01:25Z</time>
      </trkpt>
      <trkpt lat="49.89911" lon="3.67726">
        <ele>103</ele>
        <time>2018-06-24T08:01:32Z</time>
      </trkpt>
      <trkpt lat="49.89895" lon="3.67651">
        <ele>105</ele>
        <time>2018-06-24T08:01:38Z</time>
      </trkpt>
      <trkpt lat="49.89883" lon="3.67636">
        <ele>105</ele>
        <time>2018-06-24T08:01:40Z</time>
      </trkpt>
      <trkpt lat="49.89859" lon="3.67627">
        <ele>104</ele>
        <time>2018-06-24T08:01:43Z</time>
      </trkpt>
      <trkpt lat="49.89846" lon="3.67613">
        <ele>104</ele>
        <time>2018-06-24T08:01:45Z</time>
      </trkpt>
      <trkpt lat="49.89835" lon="3.67578">
        <ele>103</ele>
        <time>2018-06-24T08:01:48Z</time>
      </trkpt>
      <trkpt lat="49.89832" lon="3.67551">
        <ele>102</ele>
        <time>2018-06-24T08:01:50Z</time>
      </trkpt>
      <trkpt lat="49.8984" lon="3.67461">
        <ele>107</ele>
        <time>2018-06-24T08:01:57Z</time>
      </trkpt>
      <trkpt lat="49.89844" lon="3.67376">
        <ele>110</ele>
        <time>2018-06-24T08:02:04Z</time>
      </trkpt>
      <trkpt lat="49.89841" lon="3.67342">
        <ele>108</ele>
        <time>2018-06-24T08:02:07Z</time>
      </trkpt>
      <trkpt lat="49.89821" lon="3.67253">
        <ele>109</ele>
        <time>2018-06-24T08:02:15Z</time>
      </trkpt>
      <trkpt lat="49.89801" lon="3.6717">
        <ele>110</ele>
        <time>2018-06-24T08:02:22Z</time>
      </trkpt>
      <trkpt lat="49.8977" lon="3.67073">
        <ele>112</ele>
        <time>2018-06-24T08:02:29Z</time>
      </trkpt>
      <trkpt lat="49.89743" lon="3.6699">
        <ele>108</ele>
        <time>2018-06-24T08:02:37Z</time>
      </trkpt>
      <trkpt lat="49.89717" lon="3.6691">
        <ele>112</ele>
        <time>2018-06-24T08:02:44Z</time>
      </trkpt>
      <trkpt lat="49.8969" lon="3.6683">
        <ele>113</ele>
        <time>2018-06-24T08:02:51Z</time>
      </trkpt>
      <trkpt lat="49.89664" lon="3.66744">
        <ele>109</ele>
        <time>2018-06-24T08:02:58Z</time>
      </trkpt>
      <trkpt lat="49.89631" lon="3.66676">
        <ele>111</ele>
        <time>2018-06-24T08:03:05Z</time>
      </trkpt>
      <trkpt lat="49.89588" lon="3.66604">
        <ele>116</ele>
        <time>2018-06-24T08:03:12Z</time>
      </trkpt>
      <trkpt lat="49.89544" lon="3.6654">
        <ele>111</ele>
        <time>2018-06-24T08:03:18Z</time>
      </trkpt>
      <trkpt lat="49.89499" lon="3.66474">
        <ele>105</ele>
        <time>2018-06-24T08:03:25Z</time>
      </trkpt>
      <trkpt lat="49.89494" lon="3.66463">
        <ele>104</ele>
        <time>2018-06-24T08:03:26Z</time>
      </trkpt>
      <trkpt lat="49.89486" lon="3.66442">
        <ele>105</ele>
        <time>2018-06-24T08:03:28Z</time>
      </trkpt>
      <trkpt lat="49.8947" lon="3.66357">
        <ele>107</ele>
        <time>2018-06-24T08:03:38Z</time>
      </trkpt>
      <trkpt lat="49.89459" lon="3.66273">
        <ele>108</ele>
        <time>2018-06-24T08:03:48Z</time>
      </trkpt>
      <trkpt lat="49.89459" lon="3.66242">
        <ele>110</ele>
        <time>2018-06-24T08:03:52Z</time>
      </trkpt>
      <trkpt lat="49.8946" lon="3.66157">
        <ele>112</ele>
        <time>2018-06-24T08:04:03Z</time>
      </trkpt>
      <trkpt lat="49.89456" lon="3.66071">
        <ele>111</ele>
        <time>2018-06-24T08:04:12Z</time>
      </trkpt>
      <trkpt lat="49.8946" lon="3.66018">
        <ele>111</ele>
        <time>2018-06-24T08:04:17Z</time>
      </trkpt>
      <trkpt lat="49.89486" lon="3.65936">
        <ele>109</ele>
        <time>2018-06-24T08:04:26Z</time>
      </trkpt>
      <trkpt lat="49.89512" lon="3.65856">
        <ele>110</ele>
        <time>2018-06-24T08:04:34Z</time>
      </trkpt>
      <trkpt lat="49.89537" lon="3.65778">
        <ele>111</ele>
        <time>2018-06-24T08:04:42Z</time>
      </trkpt>
      <trkpt lat="49.89562" lon="3.65703">
        <ele>109</ele>
        <time>2018-06-24T08:04:49Z</time>
      </trkpt>
      <trkpt lat="49.89572" lon="3.65683">
        <ele>109</ele>
        <time>2018-06-24T08:04:51Z</time>
      </trkpt>
      <trkpt lat="49.89585" lon="3.65666">
        <ele>109</ele>
        <time>2018-06-24T08:04:53Z</time>
      </trkpt>
      <trkpt lat="49.89637" lon="3.65628">
        <ele>108</ele>
        <time>2018-06-24T08:05:00Z</time>
      </trkpt>
      <trkpt lat="49.8969" lon="3.656">
        <ele>111</ele>
        <time>2018-06-24T08:05:07Z</time>
      </trkpt>
      <trkpt lat="49.89742" lon="3.6557">
        <ele>109</ele>
        <time>2018-06-24T08:05:14Z</time>
      </trkpt>
      <trkpt lat="49.89793" lon="3.65529">
        <ele>108</ele>
        <time>2018-06-24T08:05:21Z</time>
      </trkpt>
      <trkpt lat="49.89846" lon="3.65495">
        <ele>103</ele>
        <time>2018-06-24T08:05:28Z</time>
      </trkpt>
      <trkpt lat="49.89895" lon="3.65458">
        <ele>104</ele>
        <time>2018-06-24T08:05:35Z</time>
      </trkpt>
      <trkpt lat="49.89937" lon="3.65405">
        <ele>103</ele>
        <time>2018-06-24T08:05:42Z</time>
      </trkpt>
      <trkpt lat="49.89978" lon="3.65339">
        <ele>103</ele>
        <time>2018-06-24T08:05:49Z</time>
      </trkpt>
      <trkpt lat="49.90022" lon="3.65282">
        <ele>104</ele>
        <time>2018-06-24T08:05:56Z</time>
      </trkpt>
      <trkpt lat="49.90055" lon="3.65214">
        <ele>103</ele>
        <time>2018-06-24T08:06:03Z</time>
      </trkpt>
      <trkpt lat="49.90082" lon="3.65137">
        <ele>102</ele>
        <time>2018-06-24T08:06:10Z</time>
      </trkpt>
      <trkpt lat="49.90112" lon="3.65065">
        <ele>104</ele>
        <time>2018-06-24T08:06:17Z</time>
      </trkpt>
      <trkpt lat="49.90146" lon="3.64997">
        <ele>102</ele>
        <time>2018-06-24T08:06:24Z</time>
      </trkpt>
      <trkpt lat="49.90173" lon="3.64952">
        <ele>107</ele>
        <time>2018-06-24T08:06:29Z</time>
      </trkpt>
      <trkpt lat="49.90202" lon="3.64877">
        <ele>105</ele>
        <time>2018-06-24T08:06:36Z</time>
      </trkpt>
      <trkpt lat="49.90242" lon="3.64815">
        <ele>105</ele>
        <time>2018-06-24T08:06:43Z</time>
      </trkpt>
      <trkpt lat="49.90266" lon="3.64767">
        <ele>113</ele>
        <time>2018-06-24T08:06:48Z</time>
      </trkpt>
      <trkpt lat="49.90272" lon="3.64745">
        <ele>112</ele>
        <time>2018-06-24T08:06:50Z</time>
      </trkpt>
      <trkpt lat="49.90274" lon="3.64709">
        <ele>114</ele>
        <time>2018-06-24T08:06:53Z</time>
      </trkpt>
      <trkpt lat="49.90267" lon="3.64621">
        <ele>114</ele>
        <time>2018-06-24T08:07:00Z</time>
      </trkpt>
      <trkpt lat="49.90259" lon="3.64538">
        <ele>114</ele>
        <time>2018-06-24T08:07:06Z</time>
      </trkpt>
      <trkpt lat="49.90253" lon="3.64453">
        <ele>116</ele>
        <time>2018-06-24T08:07:12Z</time>
      </trkpt>
      <trkpt lat="49.90232" lon="3.64365">
        <ele>109</ele>
        <time>2018-06-24T08:07:19Z</time>
      </trkpt>
      <trkpt lat="49.90214" lon="3.64272">
        <ele>111</ele>
        <time>2018-06-24T08:07:26Z</time>
      </trkpt>
      <trkpt lat="49.90206" lon="3.64189">
        <ele>111</ele>
        <time>2018-06-24T08:07:32Z</time>
      </trkpt>
      <trkpt lat="49.90182" lon="3.64102">
        <ele>111</ele>
        <time>2018-06-24T08:07:39Z</time>
      </trkpt>
      <trkpt lat="49.90153" lon="3.64018">
        <ele>107</ele>
        <time>2018-06-24T08:07:46Z</time>
      </trkpt>
      <trkpt lat="49.90124" lon="3.63932">
        <ele>107</ele>
        <time>2018-06-24T08:07:53Z</time>
      </trkpt>
      <trkpt lat="49.90098" lon="3.63851">
        <ele>107</ele>
        <time>2018-06-24T08:08:00Z</time>
      </trkpt>
      <trkpt lat="49.90062" lon="3.63774">
        <ele>103</ele>
        <time>2018-06-24T08:08:07Z</time>
      </trkpt>
      <trkpt lat="49.90024" lon="3.63699">
        <ele>102</ele>
        <time>2018-06-24T08:08:14Z</time>
      </trkpt>
      <trkpt lat="49.89982" lon="3.63633">
        <ele>99</ele>
        <time>2018-06-24T08:08:21Z</time>
      </trkpt>
      <trkpt lat="49.89938" lon="3.63571">
        <ele>100</ele>
        <time>2018-06-24T08:08:28Z</time>
      </trkpt>
      <trkpt lat="49.89892" lon="3.63506">
        <ele>99</ele>
        <time>2018-06-24T08:08:35Z</time>
      </trkpt>
      <trkpt lat="49.89848" lon="3.63439">
        <ele>99</ele>
        <time>2018-06-24T08:08:42Z</time>
      </trkpt>
      <trkpt lat="49.89837" lon="3.63417">
        <ele>98</ele>
        <time>2018-06-24T08:08:44Z</time>
      </trkpt>
      <trkpt lat="49.89831" lon="3.63393">
        <ele>98</ele>
        <time>2018-06-24T08:08:46Z</time>
      </trkpt>
      <trkpt lat="49.89829" lon="3.63367">
        <ele>98</ele>
        <time>2018-06-24T08:08:48Z</time>
      </trkpt>
      <trkpt lat="49.89837" lon="3.63333">
        <ele>99</ele>
        <time>2018-06-24T08:08:51Z</time>
      </trkpt>
      <trkpt lat="49.89852" lon="3.63305">
        <ele>100</ele>
        <time>2018-06-24T08:08:54Z</time>
      </trkpt>
      <trkpt lat="49.89905" lon="3.63265">
        <ele>102</ele>
        <time>2018-06-24T08:09:02Z</time>
      </trkpt>
      <trkpt lat="49.89926" lon="3.63255">
        <ele>103</ele>
        <time>2018-06-24T08:09:06Z</time>
      </trkpt>
      <trkpt lat="49.89933" lon="3.63247">
        <ele>103</ele>
        <time>2018-06-24T08:09:08Z</time>
      </trkpt>
      <trkpt lat="49.89937" lon="3.63235">
        <ele>103</ele>
        <time>2018-06-24T08:09:10Z</time>
      </trkpt>
      <trkpt lat="49.89936" lon="3.63143">
        <ele>100</ele>
        <time>2018-06-24T08:09:19Z</time>
      </trkpt>
      <trkpt lat="49.89931" lon="3.63102">
        <ele>99</ele>
        <time>2018-06-24T08:09:26Z</time>
      </trkpt>
      <trkpt lat="49.89935" lon="3.63098">
        <ele>99</ele>
        <time>2018-06-24T08:09:42Z</time>
      </trkpt>
      <trkpt lat="49.89994" lon="3.63081">
        <ele>99</ele>
        <time>2018-06-24T08:09:56Z</time>
      </trkpt>
      <trkpt lat="49.90029" lon="3.63073">
        <ele>99</ele>
        <time>2018-06-24T08:10:02Z</time>
      </trkpt>
      <trkpt lat="49.90049" lon="3.63073">
        <ele>100</ele>
        <time>2018-06-24T08:10:07Z</time>
      </trkpt>
      <trkpt lat="49.90052" lon="3.63057">
        <ele>100</ele>
        <time>2018-06-24T08:10:10Z</time>
      </trkpt>
      <trkpt lat="49.90048" lon="3.63041">
        <ele>99</ele>
        <time>2018-06-24T08:10:12Z</time>
      </trkpt>
      <trkpt lat="49.90021" lon="3.6296">
        <ele>98</ele>
        <time>2018-06-24T08:10:21Z</time>
      </trkpt>
      <trkpt lat="49.89996" lon="3.62885">
        <ele>99</ele>
        <time>2018-06-24T08:10:30Z</time>
      </trkpt>
      <trkpt lat="49.89974" lon="3.62808">
        <ele>100</ele>
        <time>2018-06-24T08:10:40Z</time>
      </trkpt>
      <trkpt lat="49.89974" lon="3.62805">
        <ele>100</ele>
        <time>2018-06-24T08:10:42Z</time>
      </trkpt>
      <trkpt lat="49.89972" lon="3.62799">
        <ele>100</ele>
        <time>2018-06-24T08:11:26Z</time>
      </trkpt>
      <trkpt lat="49.90011" lon="3.6274">
        <ele>99</ele>
        <time>2018-06-24T08:11:40Z</time>
      </trkpt>
      <trkpt lat="49.90065" lon="3.627">
        <ele>98</ele>
        <time>2018-06-24T08:11:49Z</time>
      </trkpt>
      <trkpt lat="49.90118" lon="3.62678">
        <ele>98</ele>
        <time>2018-06-24T08:11:58Z</time>
      </trkpt>
      <trkpt lat="49.90168" lon="3.62647">
        <ele>97</ele>
        <time>2018-06-24T08:12:07Z</time>
      </trkpt>
      <trkpt lat="49.9022" lon="3.62613">
        <ele>97</ele>
        <time>2018-06-24T08:12:16Z</time>
      </trkpt>
      <trkpt lat="49.90274" lon="3.62583">
        <ele>96</ele>
        <time>2018-06-24T08:12:25Z</time>
      </trkpt>
      <trkpt lat="49.90326" lon="3.62552">
        <ele>97</ele>
        <time>2018-06-24T08:12:33Z</time>
      </trkpt>
      <trkpt lat="49.90352" lon="3.6252">
        <ele>99</ele>
        <time>2018-06-24T08:12:38Z</time>
      </trkpt>
      <trkpt lat="49.90359" lon="3.62492">
        <ele>99</ele>
        <time>2018-06-24T08:12:41Z</time>
      </trkpt>
      <trkpt lat="49.90356" lon="3.62408">
        <ele>97</ele>
        <time>2018-06-24T08:12:49Z</time>
      </trkpt>
      <trkpt lat="49.90354" lon="3.62317">
        <ele>96</ele>
        <time>2018-06-24T08:12:57Z</time>
      </trkpt>
      <trkpt lat="49.90354" lon="3.62227">
        <ele>96</ele>
        <time>2018-06-24T08:13:05Z</time>
      </trkpt>
      <trkpt lat="49.90353" lon="3.62138">
        <ele>97</ele>
        <time>2018-06-24T08:13:13Z</time>
      </trkpt>
      <trkpt lat="49.90344" lon="3.62051">
        <ele>97</ele>
        <time>2018-06-24T08:13:21Z</time>
      </trkpt>
      <trkpt lat="49.90323" lon="3.61965">
        <ele>97</ele>
        <time>2018-06-24T08:13:30Z</time>
      </trkpt>
      <trkpt lat="49.90302" lon="3.6188">
        <ele>97</ele>
        <time>2018-06-24T08:13:38Z</time>
      </trkpt>
      <trkpt lat="49.90291" lon="3.61825">
        <ele>100</ele>
        <time>2018-06-24T08:13:43Z</time>
      </trkpt>
      <trkpt lat="49.90292" lon="3.61802">
        <ele>101</ele>
        <time>2018-06-24T08:13:45Z</time>
      </trkpt>
      <trkpt lat="49.90309" lon="3.6172">
        <ele>104</ele>
        <time>2018-06-24T08:13:53Z</time>
      </trkpt>
      <trkpt lat="49.90329" lon="3.61638">
        <ele>106</ele>
        <time>2018-06-24T08:14:02Z</time>
      </trkpt>
      <trkpt lat="49.90348" lon="3.6156">
        <ele>101</ele>
        <time>2018-06-24T08:14:10Z</time>
      </trkpt>
      <trkpt lat="49.90371" lon="3.61483">
        <ele>104</ele>
        <time>2018-06-24T08:14:17Z</time>
      </trkpt>
      <trkpt lat="49.90406" lon="3.6141">
        <ele>101</ele>
        <time>2018-06-24T08:14:24Z</time>
      </trkpt>
      <trkpt lat="49.90443" lon="3.61338">
        <ele>99</ele>
        <time>2018-06-24T08:14:31Z</time>
      </trkpt>
      <trkpt lat="49.90482" lon="3.61267">
        <ele>101</ele>
        <time>2018-06-24T08:14:38Z</time>
      </trkpt>
      <trkpt lat="49.90528" lon="3.61206">
        <ele>100</ele>
        <time>2018-06-24T08:14:45Z</time>
      </trkpt>
      <trkpt lat="49.90576" lon="3.61151">
        <ele>101</ele>
        <time>2018-06-24T08:14:52Z</time>
      </trkpt>
      <trkpt lat="49.90623" lon="3.61097">
        <ele>99</ele>
        <time>2018-06-24T08:14:59Z</time>
      </trkpt>
      <trkpt lat="49.90664" lon="3.61034">
        <ele>103</ele>
        <time>2018-06-24T08:15:07Z</time>
      </trkpt>
      <trkpt lat="49.90703" lon="3.60963">
        <ele>104</ele>
        <time>2018-06-24T08:15:15Z</time>
      </trkpt>
      <trkpt lat="49.90743" lon="3.60907">
        <ele>108</ele>
        <time>2018-06-24T08:15:22Z</time>
      </trkpt>
      <trkpt lat="49.90789" lon="3.60851">
        <ele>107</ele>
        <time>2018-06-24T08:15:29Z</time>
      </trkpt>
      <trkpt lat="49.90831" lon="3.60795">
        <ele>112</ele>
        <time>2018-06-24T08:15:36Z</time>
      </trkpt>
      <trkpt lat="49.90874" lon="3.60736">
        <ele>107</ele>
        <time>2018-06-24T08:15:43Z</time>
      </trkpt>
      <trkpt lat="49.90917" lon="3.6068">
        <ele>102</ele>
        <time>2018-06-24T08:15:50Z</time>
      </trkpt>
      <trkpt lat="49.90964" lon="3.60631">
        <ele>105</ele>
        <time>2018-06-24T08:15:57Z</time>
      </trkpt>
      <trkpt lat="49.91012" lon="3.60578">
        <ele>102</ele>
        <time>2018-06-24T08:16:04Z</time>
      </trkpt>
      <trkpt lat="49.91032" lon="3.60537">
        <ele>103</ele>
        <time>2018-06-24T08:16:08Z</time>
      </trkpt>
      <trkpt lat="49.9104" lon="3.60502">
        <ele>104</ele>
        <time>2018-06-24T08:16:11Z</time>
      </trkpt>
      <trkpt lat="49.91039" lon="3.60477">
        <ele>109</ele>
        <time>2018-06-24T08:16:13Z</time>
      </trkpt>
      <trkpt lat="49.91032" lon="3.60445">
        <ele>110</ele>
        <time>2018-06-24T08:16:16Z</time>
      </trkpt>
      <trkpt lat="49.9099" lon="3.60382">
        <ele>116</ele>
        <time>2018-06-24T08:16:24Z</time>
      </trkpt>
      <trkpt lat="49.90941" lon="3.60331">
        <ele>117</ele>
        <time>2018-06-24T08:16:32Z</time>
      </trkpt>
      <trkpt lat="49.90888" lon="3.60301">
        <ele>121</ele>
        <time>2018-06-24T08:16:40Z</time>
      </trkpt>
      <trkpt lat="49.90832" lon="3.6027">
        <ele>121</ele>
        <time>2018-06-24T08:16:49Z</time>
      </trkpt>
      <trkpt lat="49.90779" lon="3.60245">
        <ele>116</ele>
        <time>2018-06-24T08:16:57Z</time>
      </trkpt>
      <trkpt lat="49.90725" lon="3.60228">
        <ele>116</ele>
        <time>2018-06-24T08:17:05Z</time>
      </trkpt>
      <trkpt lat="49.90694" lon="3.60202">
        <ele>116</ele>
        <time>2018-06-24T08:17:10Z</time>
      </trkpt>
      <trkpt lat="49.90684" lon="3.60187">
        <ele>116</ele>
        <time>2018-06-24T08:17:12Z</time>
      </trkpt>
      <trkpt lat="49.90673" lon="3.6016">
        <ele>116</ele>
        <time>2018-06-24T08:17:15Z</time>
      </trkpt>
      <trkpt lat="49.90668" lon="3.60141">
        <ele>116</ele>
        <time>2018-06-24T08:17:17Z</time>
      </trkpt>
      <trkpt lat="49.90653" lon="3.60058">
        <ele>122</ele>
        <time>2018-06-24T08:17:25Z</time>
      </trkpt>
      <trkpt lat="49.90634" lon="3.59974">
        <ele>126</ele>
        <time>2018-06-24T08:17:33Z</time>
      </trkpt>
      <trkpt lat="49.90617" lon="3.59892">
        <ele>129</ele>
        <time>2018-06-24T08:17:41Z</time>
      </trkpt>
      <trkpt lat="49.90599" lon="3.59802">
        <ele>128</ele>
        <time>2018-06-24T08:17:50Z</time>
      </trkpt>
      <trkpt lat="49.90581" lon="3.59716">
        <ele>129</ele>
        <time>2018-06-24T08:17:58Z</time>
      </trkpt>
      <trkpt lat="49.90563" lon="3.59628">
        <ele>130</ele>
        <time>2018-06-24T08:18:06Z</time>
      </trkpt>
      <trkpt lat="49.90559" lon="3.59537">
        <ele>132</ele>
        <time>2018-06-24T08:18:14Z</time>
      </trkpt>
      <trkpt lat="49.90577" lon="3.59454">
        <ele>133</ele>
        <time>2018-06-24T08:18:22Z</time>
      </trkpt>
      <trkpt lat="49.90605" lon="3.59381">
        <ele>136</ele>
        <time>2018-06-24T08:18:30Z</time>
      </trkpt>
      <trkpt lat="49.90646" lon="3.59314">
        <ele>137</ele>
        <time>2018-06-24T08:18:39Z</time>
      </trkpt>
      <trkpt lat="49.90689" lon="3.59252">
        <ele>140</ele>
        <time>2018-06-24T08:18:48Z</time>
      </trkpt>
      <trkpt lat="49.90732" lon="3.5919">
        <ele>143</ele>
        <time>2018-06-24T08:18:57Z</time>
      </trkpt>
      <trkpt lat="49.90775" lon="3.5913">
        <ele>145</ele>
        <time>2018-06-24T08:19:06Z</time>
      </trkpt>
      <trkpt lat="49.90819" lon="3.59069">
        <ele>146</ele>
        <time>2018-06-24T08:19:15Z</time>
      </trkpt>
      <trkpt lat="49.90862" lon="3.59008">
        <ele>148</ele>
        <time>2018-06-24T08:19:24Z</time>
      </trkpt>
      <trkpt lat="49.9091" lon="3.58961">
        <ele>148</ele>
        <time>2018-06-24T08:19:33Z</time>
      </trkpt>
      <trkpt lat="49.90963" lon="3.5892">
        <ele>147</ele>
        <time>2018-06-24T08:19:42Z</time>
      </trkpt>
      <trkpt lat="49.91017" lon="3.58881">
        <ele>147</ele>
        <time>2018-06-24T08:19:51Z</time>
      </trkpt>
      <trkpt lat="49.91066" lon="3.58833">
        <ele>148</ele>
        <time>2018-06-24T08:20:00Z</time>
      </trkpt>
      <trkpt lat="49.91106" lon="3.58772">
        <ele>148</ele>
        <time>2018-06-24T08:20:08Z</time>
      </trkpt>
      <trkpt lat="49.91146" lon="3.58712">
        <ele>147</ele>
        <time>2018-06-24T08:20:17Z</time>
      </trkpt>
      <trkpt lat="49.91188" lon="3.58654">
        <ele>146</ele>
        <time>2018-06-24T08:20:26Z</time>
      </trkpt>
      <trkpt lat="49.91225" lon="3.58581">
        <ele>143</ele>
        <time>2018-06-24T08:20:35Z</time>
      </trkpt>
      <trkpt lat="49.91253" lon="3.58496">
        <ele>142</ele>
        <time>2018-06-24T08:20:43Z</time>
      </trkpt>
      <trkpt lat="49.91279" lon="3.58416">
        <ele>138</ele>
        <time>2018-06-24T08:20:50Z</time>
      </trkpt>
      <trkpt lat="49.91313" lon="3.58341">
        <ele>136</ele>
        <time>2018-06-24T08:20:57Z</time>
      </trkpt>
      <trkpt lat="49.91347" lon="3.58267">
        <ele>133</ele>
        <time>2018-06-24T08:21:04Z</time>
      </trkpt>
      <trkpt lat="49.91382" lon="3.58191">
        <ele>131</ele>
        <time>2018-06-24T08:21:11Z</time>
      </trkpt>
      <trkpt lat="49.91413" lon="3.58114">
        <ele>129</ele>
        <time>2018-06-24T08:21:18Z</time>
      </trkpt>
      <trkpt lat="49.91444" lon="3.58031">
        <ele>129</ele>
        <time>2018-06-24T08:21:25Z</time>
      </trkpt>
      <trkpt lat="49.91476" lon="3.57953">
        <ele>127</ele>
        <time>2018-06-24T08:21:31Z</time>
      </trkpt>
      <trkpt lat="49.91519" lon="3.57885">
        <ele>125</ele>
        <time>2018-06-24T08:21:37Z</time>
      </trkpt>
      <trkpt lat="49.91566" lon="3.57822">
        <ele>121</ele>
        <time>2018-06-24T08:21:43Z</time>
      </trkpt>
      <trkpt lat="49.91613" lon="3.57766">
        <ele>119</ele>
        <time>2018-06-24T08:21:49Z</time>
      </trkpt>
      <trkpt lat="49.91622" lon="3.57759">
        <ele>119</ele>
        <time>2018-06-24T08:21:50Z</time>
      </trkpt>
      <trkpt lat="49.9166" lon="3.57742">
        <ele>117</ele>
        <time>2018-06-24T08:21:54Z</time>
      </trkpt>
      <trkpt lat="49.91719" lon="3.57748">
        <ele>115</ele>
        <time>2018-06-24T08:22:00Z</time>
      </trkpt>
      <trkpt lat="49.91773" lon="3.57759">
        <ele>114</ele>
        <time>2018-06-24T08:22:06Z</time>
      </trkpt>
      <trkpt lat="49.91825" lon="3.57757">
        <ele>110</ele>
        <time>2018-06-24T08:22:18Z</time>
      </trkpt>
      <trkpt lat="49.91828" lon="3.57759">
        <ele>110</ele>
        <time>2018-06-24T08:22:45Z</time>
      </trkpt>
      <trkpt lat="49.91839" lon="3.57768">
        <ele>108</ele>
        <time>2018-06-24T08:22:49Z</time>
      </trkpt>
      <trkpt lat="49.91889" lon="3.57816">
        <ele>108</ele>
        <time>2018-06-24T08:22:58Z</time>
      </trkpt>
      <trkpt lat="49.91944" lon="3.57862">
        <ele>106</ele>
        <time>2018-06-24T08:23:05Z</time>
      </trkpt>
      <trkpt lat="49.91994" lon="3.57902">
        <ele>106</ele>
        <time>2018-06-24T08:23:11Z</time>
      </trkpt>
      <trkpt lat="49.92045" lon="3.57946">
        <ele>105</ele>
        <time>2018-06-24T08:23:17Z</time>
      </trkpt>
      <trkpt lat="49.92097" lon="3.57989">
        <ele>102</ele>
        <time>2018-06-24T08:23:23Z</time>
      </trkpt>
      <trkpt lat="49.9215" lon="3.58028">
        <ele>105</ele>
        <time>2018-06-24T08:23:29Z</time>
      </trkpt>
      <trkpt lat="49.92204" lon="3.58045">
        <ele>101</ele>
        <time>2018-06-24T08:23:34Z</time>
      </trkpt>
      <trkpt lat="49.92264" lon="3.58045">
        <ele>95</ele>
        <time>2018-06-24T08:23:39Z</time>
      </trkpt>
      <trkpt lat="49.92322" lon="3.58019">
        <ele>91</ele>
        <time>2018-06-24T08:23:44Z</time>
      </trkpt>
      <trkpt lat="49.92378" lon="3.5798">
        <ele>87</ele>
        <time>2018-06-24T08:23:49Z</time>
      </trkpt>
      <trkpt lat="49.92429" lon="3.57944">
        <ele>87</ele>
        <time>2018-06-24T08:23:54Z</time>
      </trkpt>
      <trkpt lat="49.92482" lon="3.57908">
        <ele>87</ele>
        <time>2018-06-24T08:24:00Z</time>
      </trkpt>
      <trkpt lat="49.92532" lon="3.57875">
        <ele>86</ele>
        <time>2018-06-24T08:24:05Z</time>
      </trkpt>
      <trkpt lat="49.92583" lon="3.57841">
        <ele>86</ele>
        <time>2018-06-24T08:24:10Z</time>
      </trkpt>
      <trkpt lat="49.92639" lon="3.57805">
        <ele>86</ele>
        <time>2018-06-24T08:24:16Z</time>
      </trkpt>
      <trkpt lat="49.92695" lon="3.57774">
        <ele>86</ele>
        <time>2018-06-24T08:24:22Z</time>
      </trkpt>
      <trkpt lat="49.92751" lon="3.57766">
        <ele>87</ele>
        <time>2018-06-24T08:24:28Z</time>
      </trkpt>
      <trkpt lat="49.92813" lon="3.57767">
        <ele>90</ele>
        <time>2018-06-24T08:24:35Z</time>
      </trkpt>
      <trkpt lat="49.92867" lon="3.5776">
        <ele>93</ele>
        <time>2018-06-24T08:24:42Z</time>
      </trkpt>
      <trkpt lat="49.92881" lon="3.57759">
        <ele>93</ele>
        <time>2018-06-24T08:24:45Z</time>
      </trkpt>
      <trkpt lat="49.9289" lon="3.57768">
        <ele>93</ele>
        <time>2018-06-24T08:24:48Z</time>
      </trkpt>
      <trkpt lat="49.92892" lon="3.57782">
        <ele>93</ele>
        <time>2018-06-24T08:24:50Z</time>
      </trkpt>
      <trkpt lat="49.92906" lon="3.5787">
        <ele>93</ele>
        <time>2018-06-24T08:25:00Z</time>
      </trkpt>
      <trkpt lat="49.92918" lon="3.57912">
        <ele>94</ele>
        <time>2018-06-24T08:25:05Z</time>
      </trkpt>
      <trkpt lat="49.92931" lon="3.57919">
        <ele>95</ele>
        <time>2018-06-24T08:25:08Z</time>
      </trkpt>
      <trkpt lat="49.92986" lon="3.57911">
        <ele>96</ele>
        <time>2018-06-24T08:25:17Z</time>
      </trkpt>
      <trkpt lat="49.93" lon="3.57912">
        <ele>96</ele>
        <time>2018-06-24T08:25:19Z</time>
      </trkpt>
      <trkpt lat="49.93053" lon="3.57946">
        <ele>96</ele>
        <time>2018-06-24T08:25:27Z</time>
      </trkpt>
      <trkpt lat="49.93108" lon="3.57987">
        <ele>97</ele>
        <time>2018-06-24T08:25:35Z</time>
      </trkpt>
      <trkpt lat="49.93159" lon="3.58024">
        <ele>97</ele>
        <time>2018-06-24T08:25:42Z</time>
      </trkpt>
      <trkpt lat="49.93209" lon="3.5806">
        <ele>96</ele>
        <time>2018-06-24T08:25:49Z</time>
      </trkpt>
      <trkpt lat="49.93263" lon="3.58108">
        <ele>94</ele>
        <time>2018-06-24T08:25:56Z</time>
      </trkpt>
      <trkpt lat="49.93312" lon="3.58151">
        <ele>94</ele>
        <time>2018-06-24T08:26:02Z</time>
      </trkpt>
      <trkpt lat="49.93356" lon="3.58189">
        <ele>95</ele>
        <time>2018-06-24T08:26:08Z</time>
      </trkpt>
      <trkpt lat="49.93405" lon="3.58226">
        <ele>96</ele>
        <time>2018-06-24T08:26:15Z</time>
      </trkpt>
      <trkpt lat="49.9346" lon="3.58243">
        <ele>99</ele>
        <time>2018-06-24T08:26:23Z</time>
      </trkpt>
      <trkpt lat="49.93516" lon="3.58247">
        <ele>101</ele>
        <time>2018-06-24T08:26:32Z</time>
      </trkpt>
      <trkpt lat="49.93574" lon="3.58254">
        <ele>102</ele>
        <time>2018-06-24T08:26:42Z</time>
      </trkpt>
      <trkpt lat="49.93628" lon="3.58261">
        <ele>105</ele>
        <time>2018-06-24T08:26:51Z</time>
      </trkpt>
      <trkpt lat="49.93684" lon="3.58276">
        <ele>110</ele>
        <time>2018-06-24T08:27:01Z</time>
      </trkpt>
      <trkpt lat="49.93717" lon="3.5829">
        <ele>111</ele>
        <time>2018-06-24T08:27:08Z</time>
      </trkpt>
      <trkpt lat="49.93767" lon="3.58333">
        <ele>114</ele>
        <time>2018-06-24T08:27:21Z</time>
      </trkpt>
      <trkpt lat="49.93775" lon="3.58332">
        <ele>115</ele>
        <time>2018-06-24T08:27:23Z</time>
      </trkpt>
      <trkpt lat="49.93829" lon="3.58318">
        <ele>117</ele>
        <time>2018-06-24T08:27:35Z</time>
      </trkpt>
      <trkpt lat="49.93884" lon="3.5831">
        <ele>119</ele>
        <time>2018-06-24T08:27:47Z</time>
      </trkpt>
      <trkpt lat="49.93938" lon="3.58294">
        <ele>122</ele>
        <time>2018-06-24T08:27:59Z</time>
      </trkpt>
      <trkpt lat="49.93942" lon="3.58293">
        <ele>122</ele>
        <time>2018-06-24T08:28:00Z</time>
      </trkpt>
      <trkpt lat="49.9395" lon="3.58296">
        <ele>122</ele>
        <time>2018-06-24T08:28:02Z</time>
      </trkpt>
      <trkpt lat="49.93978" lon="3.58356">
        <ele>122</ele>
        <time>2018-06-24T08:28:12Z</time>
      </trkpt>
      <trkpt lat="49.93984" lon="3.58379">
        <ele>122</ele>
        <time>2018-06-24T08:28:15Z</time>
      </trkpt>
      <trkpt lat="49.93996" lon="3.58464">
        <ele>120</ele>
        <time>2018-06-24T08:28:24Z</time>
      </trkpt>
      <trkpt lat="49.94013" lon="3.5855">
        <ele>122</ele>
        <time>2018-06-24T08:28:33Z</time>
      </trkpt>
      <trkpt lat="49.94033" lon="3.58638">
        <ele>120</ele>
        <time>2018-06-24T08:28:42Z</time>
      </trkpt>
      <trkpt lat="49.94053" lon="3.58677">
        <ele>117</ele>
        <time>2018-06-24T08:28:47Z</time>
      </trkpt>
      <trkpt lat="49.94105" lon="3.58719">
        <ele>119</ele>
        <time>2018-06-24T08:28:56Z</time>
      </trkpt>
      <trkpt lat="49.94166" lon="3.5873">
        <ele>117</ele>
        <time>2018-06-24T08:29:05Z</time>
      </trkpt>
      <trkpt lat="49.94222" lon="3.58722">
        <ele>117</ele>
        <time>2018-06-24T08:29:12Z</time>
      </trkpt>
      <trkpt lat="49.94282" lon="3.58712">
        <ele>116</ele>
        <time>2018-06-24T08:29:19Z</time>
      </trkpt>
      <trkpt lat="49.94338" lon="3.58706">
        <ele>114</ele>
        <time>2018-06-24T08:29:25Z</time>
      </trkpt>
      <trkpt lat="49.94395" lon="3.58715">
        <ele>112</ele>
        <time>2018-06-24T08:29:31Z</time>
      </trkpt>
      <trkpt lat="49.94453" lon="3.58733">
        <ele>109</ele>
        <time>2018-06-24T08:29:37Z</time>
      </trkpt>
      <trkpt lat="49.94509" lon="3.58749">
        <ele>107</ele>
        <time>2018-06-24T08:29:43Z</time>
      </trkpt>
      <trkpt lat="49.94569" lon="3.58772">
        <ele>104</ele>
        <time>2018-06-24T08:29:50Z</time>
      </trkpt>
      <trkpt lat="49.9462" lon="3.58808">
        <ele>105</ele>
        <time>2018-06-24T08:29:57Z</time>
      </trkpt>
      <trkpt lat="49.94669" lon="3.58847">
        <ele>108</ele>
        <time>2018-06-24T08:30:05Z</time>
      </trkpt>
      <trkpt lat="49.9472" lon="3.5889">
        <ele>111</ele>
        <time>2018-06-24T08:30:14Z</time>
      </trkpt>
      <trkpt lat="49.94773" lon="3.5893">
        <ele>112</ele>
        <time>2018-06-24T08:30:23Z</time>
      </trkpt>
      <trkpt lat="49.94828" lon="3.5897">
        <ele>113</ele>
        <time>2018-06-24T08:30:32Z</time>
      </trkpt>
      <trkpt lat="49.94879" lon="3.59008">
        <ele>112</ele>
        <time>2018-06-24T08:30:41Z</time>
      </trkpt>
      <trkpt lat="49.94934" lon="3.59048">
        <ele>114</ele>
        <time>2018-06-24T08:30:50Z</time>
      </trkpt>
      <trkpt lat="49.94987" lon="3.59086">
        <ele>112</ele>
        <time>2018-06-24T08:30:58Z</time>
      </trkpt>
      <trkpt lat="49.95037" lon="3.59122">
        <ele>114</ele>
        <time>2018-06-24T08:31:05Z</time>
      </trkpt>
      <trkpt lat="49.95085" lon="3.59168">
        <ele>113</ele>
        <time>2018-06-24T08:31:12Z</time>
      </trkpt>
      <trkpt lat="49.95131" lon="3.59226">
        <ele>114</ele>
        <time>2018-06-24T08:31:20Z</time>
      </trkpt>
      <trkpt lat="49.95177" lon="3.59285">
        <ele>118</ele>
        <time>2018-06-24T08:31:30Z</time>
      </trkpt>
      <trkpt lat="49.95217" lon="3.59348">
        <ele>115</ele>
        <time>2018-06-24T08:31:40Z</time>
      </trkpt>
      <trkpt lat="49.95257" lon="3.59409">
        <ele>119</ele>
        <time>2018-06-24T08:31:50Z</time>
      </trkpt>
      <trkpt lat="49.95303" lon="3.59467">
        <ele>120</ele>
        <time>2018-06-24T08:32:01Z</time>
      </trkpt>
      <trkpt lat="49.95344" lon="3.59524">
        <ele>125</ele>
        <time>2018-06-24T08:32:12Z</time>
      </trkpt>
      <trkpt lat="49.95382" lon="3.5959">
        <ele>123</ele>
        <time>2018-06-24T08:32:23Z</time>
      </trkpt>
      <trkpt lat="49.95419" lon="3.59662">
        <ele>129</ele>
        <time>2018-06-24T08:32:33Z</time>
      </trkpt>
      <trkpt lat="49.95441" lon="3.59711">
        <ele>127</ele>
        <time>2018-06-24T08:32:39Z</time>
      </trkpt>
      <trkpt lat="49.95446" lon="3.5973">
        <ele>127</ele>
        <time>2018-06-24T08:32:41Z</time>
      </trkpt>
      <trkpt lat="49.95449" lon="3.59752">
        <ele>123</ele>
        <time>2018-06-24T08:32:43Z</time>
      </trkpt>
      <trkpt lat="49.95452" lon="3.59819">
        <ele>122</ele>
        <time>2018-06-24T08:32:49Z</time>
      </trkpt>
      <trkpt lat="49.95458" lon="3.59839">
        <ele>120</ele>
        <time>2018-06-24T08:32:51Z</time>
      </trkpt>
      <trkpt lat="49.955" lon="3.59894">
        <ele>122</ele>
        <time>2018-06-24T08:32:59Z</time>
      </trkpt>
      <trkpt lat="49.95537" lon="3.59955">
        <ele>125</ele>
        <time>2018-06-24T08:33:07Z</time>
      </trkpt>
      <trkpt lat="49.95541" lon="3.59964">
        <ele>125</ele>
        <time>2018-06-24T08:33:08Z</time>
      </trkpt>
      <trkpt lat="49.95562" lon="3.60053">
        <ele>123</ele>
        <time>2018-06-24T08:33:16Z</time>
      </trkpt>
      <trkpt lat="49.95582" lon="3.60145">
        <ele>120</ele>
        <time>2018-06-24T08:33:23Z</time>
      </trkpt>
      <trkpt lat="49.95602" lon="3.60231">
        <ele>116</ele>
        <time>2018-06-24T08:33:29Z</time>
      </trkpt>
      <trkpt lat="49.95625" lon="3.60314">
        <ele>114</ele>
        <time>2018-06-24T08:33:35Z</time>
      </trkpt>
      <trkpt lat="49.95649" lon="3.60404">
        <ele>111</ele>
        <time>2018-06-24T08:33:41Z</time>
      </trkpt>
      <trkpt lat="49.95674" lon="3.60484">
        <ele>110</ele>
        <time>2018-06-24T08:33:46Z</time>
      </trkpt>
      <trkpt lat="49.95703" lon="3.6056">
        <ele>107</ele>
        <time>2018-06-24T08:33:51Z</time>
      </trkpt>
      <trkpt lat="49.9573" lon="3.60639">
        <ele>105</ele>
        <time>2018-06-24T08:33:57Z</time>
      </trkpt>
      <trkpt lat="49.95741" lon="3.60673">
        <ele>104</ele>
        <time>2018-06-24T08:34:01Z</time>
      </trkpt>
      <trkpt lat="49.95747" lon="3.60688">
        <ele>103</ele>
        <time>2018-06-24T08:34:07Z</time>
      </trkpt>
      <trkpt lat="49.95788" lon="3.60658">
        <ele>110</ele>
        <time>2018-06-24T08:34:17Z</time>
      </trkpt>
      <trkpt lat="49.95798" lon="3.6066">
        <ele>110</ele>
        <time>2018-06-24T08:34:19Z</time>
      </trkpt>
      <trkpt lat="49.95821" lon="3.60741">
        <ele>107</ele>
        <time>2018-06-24T08:34:27Z</time>
      </trkpt>
      <trkpt lat="49.9584" lon="3.60799">
        <ele>107</ele>
        <time>2018-06-24T08:34:32Z</time>
      </trkpt>
      <trkpt lat="49.95886" lon="3.60859">
        <ele>104</ele>
        <time>2018-06-24T08:34:40Z</time>
      </trkpt>
      <trkpt lat="49.95913" lon="3.60894">
        <ele>104</ele>
        <time>2018-06-24T08:34:45Z</time>
      </trkpt>
      <trkpt lat="49.95927" lon="3.60933">
        <ele>110</ele>
        <time>2018-06-24T08:34:49Z</time>
      </trkpt>
      <trkpt lat="49.95928" lon="3.60957">
        <ele>112</ele>
        <time>2018-06-24T08:34:51Z</time>
      </trkpt>
      <trkpt lat="49.9593" lon="3.61047">
        <ele>113</ele>
        <time>2018-06-24T08:34:59Z</time>
      </trkpt>
      <trkpt lat="49.95931" lon="3.61136">
        <ele>111</ele>
        <time>2018-06-24T08:35:07Z</time>
      </trkpt>
      <trkpt lat="49.95925" lon="3.6122">
        <ele>110</ele>
        <time>2018-06-24T08:35:14Z</time>
      </trkpt>
      <trkpt lat="49.95913" lon="3.61302">
        <ele>105</ele>
        <time>2018-06-24T08:35:21Z</time>
      </trkpt>
      <trkpt lat="49.95917" lon="3.61348">
        <ele>108</ele>
        <time>2018-06-24T08:35:25Z</time>
      </trkpt>
      <trkpt lat="49.95949" lon="3.61426">
        <ele>109</ele>
        <time>2018-06-24T08:35:33Z</time>
      </trkpt>
      <trkpt lat="49.95993" lon="3.61484">
        <ele>109</ele>
        <time>2018-06-24T08:35:41Z</time>
      </trkpt>
      <trkpt lat="49.96042" lon="3.6154">
        <ele>109</ele>
        <time>2018-06-24T08:35:49Z</time>
      </trkpt>
      <trkpt lat="49.96054" lon="3.6155">
        <ele>109</ele>
        <time>2018-06-24T08:35:51Z</time>
      </trkpt>
      <trkpt lat="49.96109" lon="3.6157">
        <ele>111</ele>
        <time>2018-06-24T08:35:59Z</time>
      </trkpt>
      <trkpt lat="49.96165" lon="3.61577">
        <ele>110</ele>
        <time>2018-06-24T08:36:07Z</time>
      </trkpt>
      <trkpt lat="49.96224" lon="3.61585">
        <ele>110</ele>
        <time>2018-06-24T08:36:15Z</time>
      </trkpt>
      <trkpt lat="49.96278" lon="3.61593">
        <ele>111</ele>
        <time>2018-06-24T08:36:23Z</time>
      </trkpt>
      <trkpt lat="49.96335" lon="3.61589">
        <ele>114</ele>
        <time>2018-06-24T08:36:31Z</time>
      </trkpt>
      <trkpt lat="49.96392" lon="3.61576">
        <ele>117</ele>
        <time>2018-06-24T08:36:40Z</time>
      </trkpt>
      <trkpt lat="49.96452" lon="3.61574">
        <ele>118</ele>
        <time>2018-06-24T08:36:49Z</time>
      </trkpt>
      <trkpt lat="49.96512" lon="3.61582">
        <ele>118</ele>
        <time>2018-06-24T08:36:57Z</time>
      </trkpt>
      <trkpt lat="49.96567" lon="3.61587">
        <ele>113</ele>
        <time>2018-06-24T08:37:04Z</time>
      </trkpt>
      <trkpt lat="49.96623" lon="3.61603">
        <ele>111</ele>
        <time>2018-06-24T08:37:11Z</time>
      </trkpt>
      <trkpt lat="49.96673" lon="3.61657">
        <ele>107</ele>
        <time>2018-06-24T08:37:19Z</time>
      </trkpt>
      <trkpt lat="49.96713" lon="3.61718">
        <ele>106</ele>
        <time>2018-06-24T08:37:27Z</time>
      </trkpt>
      <trkpt lat="49.96752" lon="3.61779">
        <ele>108</ele>
        <time>2018-06-24T08:37:35Z</time>
      </trkpt>
      <trkpt lat="49.96795" lon="3.61845">
        <ele>108</ele>
        <time>2018-06-24T08:37:44Z</time>
      </trkpt>
      <trkpt lat="49.96833" lon="3.61905">
        <ele>109</ele>
        <time>2018-06-24T08:37:52Z</time>
      </trkpt>
      <trkpt lat="49.9686" lon="3.61943">
        <ele>112</ele>
        <time>2018-06-24T08:37:57Z</time>
      </trkpt>
      <trkpt lat="49.96912" lon="3.61991">
        <ele>112</ele>
        <time>2018-06-24T08:38:05Z</time>
      </trkpt>
      <trkpt lat="49.9696" lon="3.62043">
        <ele>113</ele>
        <time>2018-06-24T08:38:13Z</time>
      </trkpt>
      <trkpt lat="49.96991" lon="3.62122">
        <ele>110</ele>
        <time>2018-06-24T08:38:22Z</time>
      </trkpt>
      <trkpt lat="49.97026" lon="3.62191">
        <ele>112</ele>
        <time>2018-06-24T08:38:30Z</time>
      </trkpt>
      <trkpt lat="49.97048" lon="3.62269">
        <ele>110</ele>
        <time>2018-06-24T08:38:39Z</time>
      </trkpt>
      <trkpt lat="49.97081" lon="3.62341">
        <ele>109</ele>
        <time>2018-06-24T08:38:47Z</time>
      </trkpt>
      <trkpt lat="49.9713" lon="3.62392">
        <ele>110</ele>
        <time>2018-06-24T08:38:55Z</time>
      </trkpt>
      <trkpt lat="49.97186" lon="3.62424">
        <ele>110</ele>
        <time>2018-06-24T08:39:03Z</time>
      </trkpt>
      <trkpt lat="49.97241" lon="3.62453">
        <ele>112</ele>
        <time>2018-06-24T08:39:11Z</time>
      </trkpt>
      <trkpt lat="49.97291" lon="3.62479">
        <ele>113</ele>
        <time>2018-06-24T08:39:19Z</time>
      </trkpt>
      <trkpt lat="49.97302" lon="3.62492">
        <ele>113</ele>
        <time>2018-06-24T08:39:25Z</time>
      </trkpt>
      <trkpt lat="49.97309" lon="3.62493">
        <ele>113</ele>
        <time>2018-06-24T08:40:27Z</time>
      </trkpt>
      <trkpt lat="49.97335" lon="3.62497">
        <ele>112</ele>
        <time>2018-06-24T08:40:33Z</time>
      </trkpt>
      <trkpt lat="49.97378" lon="3.62552">
        <ele>113</ele>
        <time>2018-06-24T08:40:43Z</time>
      </trkpt>
      <trkpt lat="49.97411" lon="3.62622">
        <ele>112</ele>
        <time>2018-06-24T08:40:51Z</time>
      </trkpt>
      <trkpt lat="49.9745" lon="3.62688">
        <ele>115</ele>
        <time>2018-06-24T08:40:59Z</time>
      </trkpt>
      <trkpt lat="49.97495" lon="3.62744">
        <ele>116</ele>
        <time>2018-06-24T08:41:07Z</time>
      </trkpt>
      <trkpt lat="49.97543" lon="3.62797">
        <ele>118</ele>
        <time>2018-06-24T08:41:16Z</time>
      </trkpt>
      <trkpt lat="49.97593" lon="3.62849">
        <ele>119</ele>
        <time>2018-06-24T08:41:25Z</time>
      </trkpt>
      <trkpt lat="49.97641" lon="3.62906">
        <ele>118</ele>
        <time>2018-06-24T08:41:33Z</time>
      </trkpt>
      <trkpt lat="49.97688" lon="3.62959">
        <ele>119</ele>
        <time>2018-06-24T08:41:40Z</time>
      </trkpt>
      <trkpt lat="49.97733" lon="3.63012">
        <ele>119</ele>
        <time>2018-06-24T08:41:47Z</time>
      </trkpt>
      <trkpt lat="49.97744" lon="3.63031">
        <ele>119</ele>
        <time>2018-06-24T08:41:48Z</time>
      </trkpt>
      <trkpt lat="49.97753" lon="3.63051">
        <ele>124</ele>
        <time>2018-06-24T08:41:51Z</time>
      </trkpt>
      <trkpt lat="49.97775" lon="3.6314">
        <ele>120</ele>
        <time>2018-06-24T08:41:59Z</time>
      </trkpt>
      <trkpt lat="49.97811" lon="3.63215">
        <ele>116</ele>
        <time>2018-06-24T08:42:07Z</time>
      </trkpt>
      <trkpt lat="49.97858" lon="3.63267">
        <ele>115</ele>
        <time>2018-06-24T08:42:15Z</time>
      </trkpt>
      <trkpt lat="49.97902" lon="3.63331">
        <ele>116</ele>
        <time>2018-06-24T08:42:23Z</time>
      </trkpt>
      <trkpt lat="49.97933" lon="3.6341">
        <ele>119</ele>
        <time>2018-06-24T08:42:31Z</time>
      </trkpt>
      <trkpt lat="49.97963" lon="3.63485">
        <ele>118</ele>
        <time>2018-06-24T08:42:39Z</time>
      </trkpt>
      <trkpt lat="49.97973" lon="3.635">
        <ele>118</ele>
        <time>2018-06-24T08:42:41Z</time>
      </trkpt>
      <trkpt lat="49.97985" lon="3.63511">
        <ele>116</ele>
        <time>2018-06-24T08:42:43Z</time>
      </trkpt>
      <trkpt lat="49.98037" lon="3.63538">
        <ele>119</ele>
        <time>2018-06-24T08:42:51Z</time>
      </trkpt>
      <trkpt lat="49.9809" lon="3.6357">
        <ele>122</ele>
        <time>2018-06-24T08:42:59Z</time>
      </trkpt>
      <trkpt lat="49.98102" lon="3.63583">
        <ele>123</ele>
        <time>2018-06-24T08:43:00Z</time>
      </trkpt>
      <trkpt lat="49.98147" lon="3.63643">
        <ele>120</ele>
        <time>2018-06-24T08:43:09Z</time>
      </trkpt>
      <trkpt lat="49.98187" lon="3.63702">
        <ele>119</ele>
        <time>2018-06-24T08:43:17Z</time>
      </trkpt>
      <trkpt lat="49.98239" lon="3.63743">
        <ele>119</ele>
        <time>2018-06-24T08:43:25Z</time>
      </trkpt>
      <trkpt lat="49.98296" lon="3.63772">
        <ele>117</ele>
        <time>2018-06-24T08:43:33Z</time>
      </trkpt>
      <trkpt lat="49.98352" lon="3.63799">
        <ele>117</ele>
        <time>2018-06-24T08:43:41Z</time>
      </trkpt>
      <trkpt lat="49.98407" lon="3.63831">
        <ele>118</ele>
        <time>2018-06-24T08:43:49Z</time>
      </trkpt>
      <trkpt lat="49.98451" lon="3.63882">
        <ele>119</ele>
        <time>2018-06-24T08:43:57Z</time>
      </trkpt>
      <trkpt lat="49.98493" lon="3.63937">
        <ele>119</ele>
        <time>2018-06-24T08:44:05Z</time>
      </trkpt>
      <trkpt lat="49.98541" lon="3.63985">
        <ele>120</ele>
        <time>2018-06-24T08:44:14Z</time>
      </trkpt>
      <trkpt lat="49.98594" lon="3.64019">
        <ele>120</ele>
        <time>2018-06-24T08:44:23Z</time>
      </trkpt>
      <trkpt lat="49.98644" lon="3.64069">
        <ele>120</ele>
        <time>2018-06-24T08:44:32Z</time>
      </trkpt>
      <trkpt lat="49.98691" lon="3.64122">
        <ele>120</ele>
        <time>2018-06-24T08:44:41Z</time>
      </trkpt>
      <trkpt lat="49.98735" lon="3.64171">
        <ele>120</ele>
        <time>2018-06-24T08:44:50Z</time>
      </trkpt>
      <trkpt lat="49.98783" lon="3.6422">
        <ele>124</ele>
        <time>2018-06-24T08:45:01Z</time>
      </trkpt>
      <trkpt lat="49.9883" lon="3.6427">
        <ele>127</ele>
        <time>2018-06-24T08:45:13Z</time>
      </trkpt>
      <trkpt lat="49.98859" lon="3.64304">
        <ele>130</ele>
        <time>2018-06-24T08:45:21Z</time>
      </trkpt>
      <trkpt lat="49.98891" lon="3.64379">
        <ele>131</ele>
        <time>2018-06-24T08:45:34Z</time>
      </trkpt>
      <trkpt lat="49.9892" lon="3.64454">
        <ele>131</ele>
        <time>2018-06-24T08:45:44Z</time>
      </trkpt>
      <trkpt lat="49.98949" lon="3.64538">
        <ele>128</ele>
        <time>2018-06-24T08:45:53Z</time>
      </trkpt>
      <trkpt lat="49.98972" lon="3.64616">
        <ele>127</ele>
        <time>2018-06-24T08:46:01Z</time>
      </trkpt>
      <trkpt lat="49.99001" lon="3.64695">
        <ele>128</ele>
        <time>2018-06-24T08:46:09Z</time>
      </trkpt>
      <trkpt lat="49.9901" lon="3.64714">
        <ele>128</ele>
        <time>2018-06-24T08:46:11Z</time>
      </trkpt>
      <trkpt lat="49.99056" lon="3.64768">
        <ele>124</ele>
        <time>2018-06-24T08:46:18Z</time>
      </trkpt>
      <trkpt lat="49.99103" lon="3.64815">
        <ele>123</ele>
        <time>2018-06-24T08:46:24Z</time>
      </trkpt>
      <trkpt lat="49.99134" lon="3.64849">
        <ele>122</ele>
        <time>2018-06-24T08:46:28Z</time>
      </trkpt>
      <trkpt lat="49.99142" lon="3.64873">
        <ele>122</ele>
        <time>2018-06-24T08:46:30Z</time>
      </trkpt>
      <trkpt lat="49.99152" lon="3.64957">
        <ele>124</ele>
        <time>2018-06-24T08:46:37Z</time>
      </trkpt>
      <trkpt lat="49.99167" lon="3.65042">
        <ele>129</ele>
        <time>2018-06-24T08:46:45Z</time>
      </trkpt>
      <trkpt lat="49.99171" lon="3.65128">
        <ele>129</ele>
        <time>2018-06-24T08:46:53Z</time>
      </trkpt>
      <trkpt lat="49.99181" lon="3.65213">
        <ele>129</ele>
        <time>2018-06-24T08:47:01Z</time>
      </trkpt>
      <trkpt lat="49.99191" lon="3.65299">
        <ele>128</ele>
        <time>2018-06-24T08:47:09Z</time>
      </trkpt>
      <trkpt lat="49.99199" lon="3.65368">
        <ele>126</ele>
        <time>2018-06-24T08:47:15Z</time>
      </trkpt>
      <trkpt lat="49.99199" lon="3.65403">
        <ele>126</ele>
        <time>2018-06-24T08:47:18Z</time>
      </trkpt>
      <trkpt lat="49.99201" lon="3.65425">
        <ele>125</ele>
        <time>2018-06-24T08:47:20Z</time>
      </trkpt>
      <trkpt lat="49.99212" lon="3.65469">
        <ele>125</ele>
        <time>2018-06-24T08:47:30Z</time>
      </trkpt>
      <trkpt lat="49.99213" lon="3.65474">
        <ele>125</ele>
        <time>2018-06-24T08:47:39Z</time>
      </trkpt>
      <trkpt lat="49.9922" lon="3.65486">
        <ele>125</ele>
        <time>2018-06-24T08:47:43Z</time>
      </trkpt>
      <trkpt lat="49.99233" lon="3.65494">
        <ele>125</ele>
        <time>2018-06-24T08:47:46Z</time>
      </trkpt>
      <trkpt lat="49.99282" lon="3.65545">
        <ele>128</ele>
        <time>2018-06-24T08:47:55Z</time>
      </trkpt>
      <trkpt lat="49.99331" lon="3.65591">
        <ele>130</ele>
        <time>2018-06-24T08:48:04Z</time>
      </trkpt>
      <trkpt lat="49.99379" lon="3.65637">
        <ele>132</ele>
        <time>2018-06-24T08:48:14Z</time>
      </trkpt>
      <trkpt lat="49.99435" lon="3.65668">
        <ele>134</ele>
        <time>2018-06-24T08:48:24Z</time>
      </trkpt>
      <trkpt lat="49.99493" lon="3.65692">
        <ele>135</ele>
        <time>2018-06-24T08:48:34Z</time>
      </trkpt>
      <trkpt lat="49.99547" lon="3.65713">
        <ele>138</ele>
        <time>2018-06-24T08:48:44Z</time>
      </trkpt>
      <trkpt lat="49.99586" lon="3.65732">
        <ele>140</ele>
        <time>2018-06-24T08:48:52Z</time>
      </trkpt>
      <trkpt lat="49.99594" lon="3.65744">
        <ele>140</ele>
        <time>2018-06-24T08:48:54Z</time>
      </trkpt>
      <trkpt lat="49.9961" lon="3.65824">
        <ele>140</ele>
        <time>2018-06-24T08:49:03Z</time>
      </trkpt>
      <trkpt lat="49.99624" lon="3.65908">
        <ele>140</ele>
        <time>2018-06-24T08:49:12Z</time>
      </trkpt>
      <trkpt lat="49.99637" lon="3.65995">
        <ele>140</ele>
        <time>2018-06-24T08:49:21Z</time>
      </trkpt>
      <trkpt lat="49.99652" lon="3.66083">
        <ele>139</ele>
        <time>2018-06-24T08:49:30Z</time>
      </trkpt>
      <trkpt lat="49.99662" lon="3.66172">
        <ele>138</ele>
        <time>2018-06-24T08:49:38Z</time>
      </trkpt>
      <trkpt lat="49.99675" lon="3.66263">
        <ele>139</ele>
        <time>2018-06-24T08:49:46Z</time>
      </trkpt>
      <trkpt lat="49.99687" lon="3.66353">
        <ele>136</ele>
        <time>2018-06-24T08:49:54Z</time>
      </trkpt>
      <trkpt lat="49.99698" lon="3.66445">
        <ele>133</ele>
        <time>2018-06-24T08:50:02Z</time>
      </trkpt>
      <trkpt lat="49.9971" lon="3.66535">
        <ele>132</ele>
        <time>2018-06-24T08:50:10Z</time>
      </trkpt>
      <trkpt lat="49.99723" lon="3.66629">
        <ele>132</ele>
        <time>2018-06-24T08:50:18Z</time>
      </trkpt>
      <trkpt lat="49.99735" lon="3.66714">
        <ele>132</ele>
        <time>2018-06-24T08:50:25Z</time>
      </trkpt>
      <trkpt lat="49.99748" lon="3.66805">
        <ele>133</ele>
        <time>2018-06-24T08:50:33Z</time>
      </trkpt>
      <trkpt lat="49.9977" lon="3.66888">
        <ele>135</ele>
        <time>2018-06-24T08:50:41Z</time>
      </trkpt>
      <trkpt lat="49.99793" lon="3.66969">
        <ele>136</ele>
        <time>2018-06-24T08:50:49Z</time>
      </trkpt>
      <trkpt lat="49.99803" lon="3.67058">
        <ele>137</ele>
        <time>2018-06-24T08:50:57Z</time>
      </trkpt>
      <trkpt lat="49.99807" lon="3.67152">
        <ele>137</ele>
        <time>2018-06-24T08:51:05Z</time>
      </trkpt>
      <trkpt lat="49.99811" lon="3.67246">
        <ele>137</ele>
        <time>2018-06-24T08:51:13Z</time>
      </trkpt>
      <trkpt lat="49.99816" lon="3.67338">
        <ele>138</ele>
        <time>2018-06-24T08:51:21Z</time>
      </trkpt>
      <trkpt lat="49.99822" lon="3.67432">
        <ele>138</ele>
        <time>2018-06-24T08:51:29Z</time>
      </trkpt>
      <trkpt lat="49.99829" lon="3.67526">
        <ele>138</ele>
        <time>2018-06-24T08:51:37Z</time>
      </trkpt>
      <trkpt lat="49.99845" lon="3.67616">
        <ele>139</ele>
        <time>2018-06-24T08:51:45Z</time>
      </trkpt>
      <trkpt lat="49.99867" lon="3.67703">
        <ele>140</ele>
        <time>2018-06-24T08:51:53Z</time>
      </trkpt>
      <trkpt lat="49.99906" lon="3.67777">
        <ele>140</ele>
        <time>2018-06-24T08:52:01Z</time>
      </trkpt>
      <trkpt lat="49.99944" lon="3.67837">
        <ele>140</ele>
        <time>2018-06-24T08:52:08Z</time>
      </trkpt>
      <trkpt lat="49.99982" lon="3.67899">
        <ele>140</ele>
        <time>2018-06-24T08:52:15Z</time>
      </trkpt>
      <trkpt lat="50.00021" lon="3.6797">
        <ele>139</ele>
        <time>2018-06-24T08:52:23Z</time>
      </trkpt>
      <trkpt lat="50.00057" lon="3.6804">
        <ele>138</ele>
        <time>2018-06-24T08:52:31Z</time>
      </trkpt>
      <trkpt lat="50.00094" lon="3.68103">
        <ele>138</ele>
        <time>2018-06-24T08:52:43Z</time>
      </trkpt>
      <trkpt lat="50.00135" lon="3.68165">
        <ele>138</ele>
        <time>2018-06-24T08:52:52Z</time>
      </trkpt>
      <trkpt lat="50.00184" lon="3.68218">
        <ele>138</ele>
        <time>2018-06-24T08:53:00Z</time>
      </trkpt>
      <trkpt lat="50.00238" lon="3.68255">
        <ele>139</ele>
        <time>2018-06-24T08:53:08Z</time>
      </trkpt>
      <trkpt lat="50.00285" lon="3.68302">
        <ele>140</ele>
        <time>2018-06-24T08:53:16Z</time>
      </trkpt>
      <trkpt lat="50.00331" lon="3.68349">
        <ele>141</ele>
        <time>2018-06-24T08:53:24Z</time>
      </trkpt>
      <trkpt lat="50.00376" lon="3.68397">
        <ele>142</ele>
        <time>2018-06-24T08:53:32Z</time>
      </trkpt>
      <trkpt lat="50.00421" lon="3.68447">
        <ele>145</ele>
        <time>2018-06-24T08:53:40Z</time>
      </trkpt>
      <trkpt lat="50.00471" lon="3.685">
        <ele>146</ele>
        <time>2018-06-24T08:53:49Z</time>
      </trkpt>
      <trkpt lat="50.00518" lon="3.68546">
        <ele>147</ele>
        <time>2018-06-24T08:53:57Z</time>
      </trkpt>
      <trkpt lat="50.00569" lon="3.68591">
        <ele>148</ele>
        <time>2018-06-24T08:54:06Z</time>
      </trkpt>
      <trkpt lat="50.00617" lon="3.68631">
        <ele>149</ele>
        <time>2018-06-24T08:54:14Z</time>
      </trkpt>
      <trkpt lat="50.00641" lon="3.68657">
        <ele>150</ele>
        <time>2018-06-24T08:54:18Z</time>
      </trkpt>
      <trkpt lat="50.0065" lon="3.68676">
        <ele>150</ele>
        <time>2018-06-24T08:54:20Z</time>
      </trkpt>
      <trkpt lat="50.00668" lon="3.68767">
        <ele>149</ele>
        <time>2018-06-24T08:54:28Z</time>
      </trkpt>
      <trkpt lat="50.00672" lon="3.68857">
        <ele>149</ele>
        <time>2018-06-24T08:54:35Z</time>
      </trkpt>
      <trkpt lat="50.00676" lon="3.68953">
        <ele>149</ele>
        <time>2018-06-24T08:54:42Z</time>
      </trkpt>
      <trkpt lat="50.00679" lon="3.69037">
        <ele>149</ele>
        <time>2018-06-24T08:54:48Z</time>
      </trkpt>
      <trkpt lat="50.00683" lon="3.69119">
        <ele>149</ele>
        <time>2018-06-24T08:54:54Z</time>
      </trkpt>
      <trkpt lat="50.00693" lon="3.69157">
        <ele>148</ele>
        <time>2018-06-24T08:54:57Z</time>
      </trkpt>
      <trkpt lat="50.00732" lon="3.69231">
        <ele>149</ele>
        <time>2018-06-24T08:55:04Z</time>
      </trkpt>
      <trkpt lat="50.00741" lon="3.69264">
        <ele>150</ele>
        <time>2018-06-24T08:55:07Z</time>
      </trkpt>
      <trkpt lat="50.00747" lon="3.69353">
        <ele>151</ele>
        <time>2018-06-24T08:55:15Z</time>
      </trkpt>
      <trkpt lat="50.00746" lon="3.69371">
        <ele>151</ele>
        <time>2018-06-24T08:55:16Z</time>
      </trkpt>
      <trkpt lat="50.00742" lon="3.69389">
        <ele>151</ele>
        <time>2018-06-24T08:55:21Z</time>
      </trkpt>
      <trkpt lat="50.00753" lon="3.69403">
        <ele>151</ele>
        <time>2018-06-24T08:55:25Z</time>
      </trkpt>
      <trkpt lat="50.00809" lon="3.69442">
        <ele>151</ele>
        <time>2018-06-24T08:55:35Z</time>
      </trkpt>
      <trkpt lat="50.00866" lon="3.69472">
        <ele>149</ele>
        <time>2018-06-24T08:55:43Z</time>
      </trkpt>
      <trkpt lat="50.00926" lon="3.69478">
        <ele>146</ele>
        <time>2018-06-24T08:55:51Z</time>
      </trkpt>
      <trkpt lat="50.00988" lon="3.69478">
        <ele>146</ele>
        <time>2018-06-24T08:55:59Z</time>
      </trkpt>
      <trkpt lat="50.01019" lon="3.69484">
        <ele>146</ele>
        <time>2018-06-24T08:56:03Z</time>
      </trkpt>
      <trkpt lat="50.01069" lon="3.69527">
        <ele>145</ele>
        <time>2018-06-24T08:56:10Z</time>
      </trkpt>
      <trkpt lat="50.01086" lon="3.69546">
        <ele>146</ele>
        <time>2018-06-24T08:56:13Z</time>
      </trkpt>
      <trkpt lat="50.01096" lon="3.69557">
        <ele>146</ele>
        <time>2018-06-24T08:56:15Z</time>
      </trkpt>
      <trkpt lat="50.01107" lon="3.69555">
        <ele>146</ele>
        <time>2018-06-24T08:56:17Z</time>
      </trkpt>
      <trkpt lat="50.01162" lon="3.69534">
        <ele>146</ele>
        <time>2018-06-24T08:56:26Z</time>
      </trkpt>
      <trkpt lat="50.01222" lon="3.69532">
        <ele>149</ele>
        <time>2018-06-24T08:56:36Z</time>
      </trkpt>
      <trkpt lat="50.01265" lon="3.6953">
        <ele>151</ele>
        <time>2018-06-24T08:56:44Z</time>
      </trkpt>
      <trkpt lat="50.01276" lon="3.69517">
        <ele>151</ele>
        <time>2018-06-24T08:56:47Z</time>
      </trkpt>
      <trkpt lat="50.01278" lon="3.69502">
        <ele>151</ele>
        <time>2018-06-24T08:56:49Z</time>
      </trkpt>
      <trkpt lat="50.01283" lon="3.69423">
        <ele>151</ele>
        <time>2018-06-24T08:56:58Z</time>
      </trkpt>
      <trkpt lat="50.01293" lon="3.69401">
        <ele>152</ele>
        <time>2018-06-24T08:57:01Z</time>
      </trkpt>
      <trkpt lat="50.01303" lon="3.69392">
        <ele>152</ele>
        <time>2018-06-24T08:57:03Z</time>
      </trkpt>
      <trkpt lat="50.01358" lon="3.69374">
        <ele>154</ele>
        <time>2018-06-24T08:57:13Z</time>
      </trkpt>
      <trkpt lat="50.01413" lon="3.69364">
        <ele>154</ele>
        <time>2018-06-24T08:57:23Z</time>
      </trkpt>
      <trkpt lat="50.01468" lon="3.69353">
        <ele>156</ele>
        <time>2018-06-24T08:57:33Z</time>
      </trkpt>
      <trkpt lat="50.01521" lon="3.69336">
        <ele>157</ele>
        <time>2018-06-24T08:57:43Z</time>
      </trkpt>
      <trkpt lat="50.01578" lon="3.69315">
        <ele>157</ele>
        <time>2018-06-24T08:57:53Z</time>
      </trkpt>
      <trkpt lat="50.01633" lon="3.69296">
        <ele>156</ele>
        <time>2018-06-24T08:58:02Z</time>
      </trkpt>
      <trkpt lat="50.01692" lon="3.69281">
        <ele>155</ele>
        <time>2018-06-24T08:58:11Z</time>
      </trkpt>
      <trkpt lat="50.01748" lon="3.69268">
        <ele>154</ele>
        <time>2018-06-24T08:58:19Z</time>
      </trkpt>
      <trkpt lat="50.01806" lon="3.69255">
        <ele>152</ele>
        <time>2018-06-24T08:58:27Z</time>
      </trkpt>
      <trkpt lat="50.01866" lon="3.69237">
        <ele>150</ele>
        <time>2018-06-24T08:58:35Z</time>
      </trkpt>
      <trkpt lat="50.01923" lon="3.69207">
        <ele>150</ele>
        <time>2018-06-24T08:58:43Z</time>
      </trkpt>
      <trkpt lat="50.01975" lon="3.69165">
        <ele>150</ele>
        <time>2018-06-24T08:58:51Z</time>
      </trkpt>
      <trkpt lat="50.0202" lon="3.69111">
        <ele>151</ele>
        <time>2018-06-24T08:58:59Z</time>
      </trkpt>
      <trkpt lat="50.02064" lon="3.69046">
        <ele>150</ele>
        <time>2018-06-24T08:59:07Z</time>
      </trkpt>
      <trkpt lat="50.02102" lon="3.68971">
        <ele>149</ele>
        <time>2018-06-24T08:59:15Z</time>
      </trkpt>
      <trkpt lat="50.02134" lon="3.68901">
        <ele>148</ele>
        <time>2018-06-24T08:59:22Z</time>
      </trkpt>
      <trkpt lat="50.0217" lon="3.68827">
        <ele>146</ele>
        <time>2018-06-24T08:59:29Z</time>
      </trkpt>
      <trkpt lat="50.02217" lon="3.68769">
        <ele>144</ele>
        <time>2018-06-24T08:59:36Z</time>
      </trkpt>
      <trkpt lat="50.02232" lon="3.68758">
        <ele>144</ele>
        <time>2018-06-24T08:59:37Z</time>
      </trkpt>
      <trkpt lat="50.02285" lon="3.68737">
        <ele>142</ele>
        <time>2018-06-24T08:59:45Z</time>
      </trkpt>
      <trkpt lat="50.02339" lon="3.68717">
        <ele>141</ele>
        <time>2018-06-24T08:59:52Z</time>
      </trkpt>
      <trkpt lat="50.02369" lon="3.68704">
        <ele>141</ele>
        <time>2018-06-24T08:59:56Z</time>
      </trkpt>
      <trkpt lat="50.02389" lon="3.68686">
        <ele>141</ele>
        <time>2018-06-24T08:59:59Z</time>
      </trkpt>
      <trkpt lat="50.024" lon="3.68669">
        <ele>141</ele>
        <time>2018-06-24T09:00:01Z</time>
      </trkpt>
      <trkpt lat="50.02427" lon="3.68594">
        <ele>140</ele>
        <time>2018-06-24T09:00:08Z</time>
      </trkpt>
      <trkpt lat="50.02449" lon="3.68514">
        <ele>140</ele>
        <time>2018-06-24T09:00:15Z</time>
      </trkpt>
      <trkpt lat="50.02465" lon="3.6843">
        <ele>140</ele>
        <time>2018-06-24T09:00:22Z</time>
      </trkpt>
      <trkpt lat="50.02479" lon="3.68349">
        <ele>141</ele>
        <time>2018-06-24T09:00:29Z</time>
      </trkpt>
      <trkpt lat="50.02494" lon="3.68268">
        <ele>140</ele>
        <time>2018-06-24T09:00:36Z</time>
      </trkpt>
      <trkpt lat="50.0251" lon="3.68187">
        <ele>139</ele>
        <time>2018-06-24T09:00:43Z</time>
      </trkpt>
      <trkpt lat="50.02528" lon="3.68097">
        <ele>140</ele>
        <time>2018-06-24T09:00:51Z</time>
      </trkpt>
      <trkpt lat="50.02545" lon="3.68007">
        <ele>141</ele>
        <time>2018-06-24T09:00:59Z</time>
      </trkpt>
      <trkpt lat="50.02562" lon="3.67919">
        <ele>140</ele>
        <time>2018-06-24T09:01:07Z</time>
      </trkpt>
      <trkpt lat="50.02564" lon="3.67897">
        <ele>140</ele>
        <time>2018-06-24T09:01:08Z</time>
      </trkpt>
      <trkpt lat="50.02564" lon="3.67885">
        <ele>140</ele>
        <time>2018-06-24T09:01:10Z</time>
      </trkpt>
      <trkpt lat="50.02559" lon="3.67862">
        <ele>140</ele>
        <time>2018-06-24T09:01:12Z</time>
      </trkpt>
      <trkpt lat="50.02549" lon="3.67829">
        <ele>140</ele>
        <time>2018-06-24T09:01:15Z</time>
      </trkpt>
      <trkpt lat="50.02547" lon="3.67808">
        <ele>140</ele>
        <time>2018-06-24T09:01:17Z</time>
      </trkpt>
      <trkpt lat="50.0256" lon="3.6778">
        <ele>140</ele>
        <time>2018-06-24T09:01:23Z</time>
      </trkpt>
      <trkpt lat="50.02567" lon="3.67782">
        <ele>140</ele>
        <time>2018-06-24T09:01:25Z</time>
      </trkpt>
      <trkpt lat="50.02591" lon="3.67799">
        <ele>140</ele>
        <time>2018-06-24T09:01:30Z</time>
      </trkpt>
      <trkpt lat="50.02644" lon="3.67819">
        <ele>140</ele>
        <time>2018-06-24T09:01:38Z</time>
      </trkpt>
      <trkpt lat="50.02699" lon="3.67838">
        <ele>141</ele>
        <time>2018-06-24T09:01:47Z</time>
      </trkpt>
      <trkpt lat="50.02755" lon="3.67859">
        <ele>143</ele>
        <time>2018-06-24T09:01:56Z</time>
      </trkpt>
      <trkpt lat="50.02811" lon="3.67879">
        <ele>143</ele>
        <time>2018-06-24T09:02:05Z</time>
      </trkpt>
      <trkpt lat="50.02867" lon="3.67899">
        <ele>144</ele>
        <time>2018-06-24T09:02:14Z</time>
      </trkpt>
      <trkpt lat="50.02924" lon="3.67918">
        <ele>145</ele>
        <time>2018-06-24T09:02:23Z</time>
      </trkpt>
      <trkpt lat="50.02979" lon="3.67934">
        <ele>145</ele>
        <time>2018-06-24T09:02:31Z</time>
      </trkpt>
      <trkpt lat="50.03037" lon="3.6795">
        <ele>145</ele>
        <time>2018-06-24T09:02:39Z</time>
      </trkpt>
      <trkpt lat="50.03096" lon="3.67967">
        <ele>144</ele>
        <time>2018-06-24T09:02:47Z</time>
      </trkpt>
      <trkpt lat="50.03155" lon="3.67984">
        <ele>143</ele>
        <time>2018-06-24T09:02:55Z</time>
      </trkpt>
      <trkpt lat="50.03213" lon="3.68">
        <ele>144</ele>
        <time>2018-06-24T09:03:03Z</time>
      </trkpt>
      <trkpt lat="50.0327" lon="3.68016">
        <ele>144</ele>
        <time>2018-06-24T09:03:11Z</time>
      </trkpt>
      <trkpt lat="50.03324" lon="3.68031">
        <ele>144</ele>
        <time>2018-06-24T09:03:19Z</time>
      </trkpt>
      <trkpt lat="50.03379" lon="3.68047">
        <ele>145</ele>
        <time>2018-06-24T09:03:27Z</time>
      </trkpt>
      <trkpt lat="50.03436" lon="3.68063">
        <ele>144</ele>
        <time>2018-06-24T09:03:35Z</time>
      </trkpt>
      <trkpt lat="50.03494" lon="3.68079">
        <ele>143</ele>
        <time>2018-06-24T09:03:43Z</time>
      </trkpt>
      <trkpt lat="50.03551" lon="3.68095">
        <ele>144</ele>
        <time>2018-06-24T09:03:51Z</time>
      </trkpt>
      <trkpt lat="50.03606" lon="3.68112">
        <ele>146</ele>
        <time>2018-06-24T09:03:59Z</time>
      </trkpt>
      <trkpt lat="50.03663" lon="3.68112">
        <ele>147</ele>
        <time>2018-06-24T09:04:07Z</time>
      </trkpt>
      <trkpt lat="50.03717" lon="3.68096">
        <ele>148</ele>
        <time>2018-06-24T09:04:15Z</time>
      </trkpt>
      <trkpt lat="50.03743" lon="3.68075">
        <ele>148</ele>
        <time>2018-06-24T09:04:19Z</time>
      </trkpt>
      <trkpt lat="50.03784" lon="3.68014">
        <ele>145</ele>
        <time>2018-06-24T09:04:26Z</time>
      </trkpt>
      <trkpt lat="50.03828" lon="3.6795">
        <ele>143</ele>
        <time>2018-06-24T09:04:33Z</time>
      </trkpt>
      <trkpt lat="50.03871" lon="3.67888">
        <ele>142</ele>
        <time>2018-06-24T09:04:40Z</time>
      </trkpt>
      <trkpt lat="50.03914" lon="3.67827">
        <ele>143</ele>
        <time>2018-06-24T09:04:47Z</time>
      </trkpt>
      <trkpt lat="50.03958" lon="3.67776">
        <ele>145</ele>
        <time>2018-06-24T09:04:54Z</time>
      </trkpt>
      <trkpt lat="50.04008" lon="3.67742">
        <ele>147</ele>
        <time>2018-06-24T09:05:02Z</time>
      </trkpt>
      <trkpt lat="50.04068" lon="3.6773">
        <ele>148</ele>
        <time>2018-06-24T09:05:11Z</time>
      </trkpt>
      <trkpt lat="50.04095" lon="3.67738">
        <ele>149</ele>
        <time>2018-06-24T09:05:20Z</time>
      </trkpt>
      <trkpt lat="50.04099" lon="3.67751">
        <ele>150</ele>
        <time>2018-06-24T09:05:46Z</time>
      </trkpt>
      <trkpt lat="50.041" lon="3.67763">
        <ele>150</ele>
        <time>2018-06-24T09:05:48Z</time>
      </trkpt>
      <trkpt lat="50.04097" lon="3.67795">
        <ele>150</ele>
        <time>2018-06-24T09:05:52Z</time>
      </trkpt>
      <trkpt lat="50.04099" lon="3.67812">
        <ele>150</ele>
        <time>2018-06-24T09:05:54Z</time>
      </trkpt>
      <trkpt lat="50.04107" lon="3.67824">
        <ele>150</ele>
        <time>2018-06-24T09:05:56Z</time>
      </trkpt>
      <trkpt lat="50.04119" lon="3.67828">
        <ele>151</ele>
        <time>2018-06-24T09:05:58Z</time>
      </trkpt>
      <trkpt lat="50.04166" lon="3.67841">
        <ele>152</ele>
        <time>2018-06-24T09:06:06Z</time>
      </trkpt>
      <trkpt lat="50.04177" lon="3.67852">
        <ele>152</ele>
        <time>2018-06-24T09:06:08Z</time>
      </trkpt>
      <trkpt lat="50.04214" lon="3.67925">
        <ele>152</ele>
        <time>2018-06-24T09:06:17Z</time>
      </trkpt>
      <trkpt lat="50.04243" lon="3.67995">
        <ele>153</ele>
        <time>2018-06-24T09:06:25Z</time>
      </trkpt>
      <trkpt lat="50.04263" lon="3.68034">
        <ele>152</ele>
        <time>2018-06-24T09:06:30Z</time>
      </trkpt>
      <trkpt lat="50.04274" lon="3.68044">
        <ele>152</ele>
        <time>2018-06-24T09:06:32Z</time>
      </trkpt>
      <trkpt lat="50.04286" lon="3.68045">
        <ele>152</ele>
        <time>2018-06-24T09:06:34Z</time>
      </trkpt>
      <trkpt lat="50.04342" lon="3.68023">
        <ele>154</ele>
        <time>2018-06-24T09:06:43Z</time>
      </trkpt>
      <trkpt lat="50.04398" lon="3.68001">
        <ele>155</ele>
        <time>2018-06-24T09:06:52Z</time>
      </trkpt>
      <trkpt lat="50.04436" lon="3.67988">
        <ele>156</ele>
        <time>2018-06-24T09:06:58Z</time>
      </trkpt>
      <trkpt lat="50.04492" lon="3.68004">
        <ele>159</ele>
        <time>2018-06-24T09:07:07Z</time>
      </trkpt>
      <trkpt lat="50.04546" lon="3.68029">
        <ele>159</ele>
        <time>2018-06-24T09:07:16Z</time>
      </trkpt>
      <trkpt lat="50.04595" lon="3.68064">
        <ele>160</ele>
        <time>2018-06-24T09:07:25Z</time>
      </trkpt>
      <trkpt lat="50.04648" lon="3.68106">
        <ele>160</ele>
        <time>2018-06-24T09:07:35Z</time>
      </trkpt>
      <trkpt lat="50.04703" lon="3.68139">
        <ele>162</ele>
        <time>2018-06-24T09:07:45Z</time>
      </trkpt>
      <trkpt lat="50.04755" lon="3.68169">
        <ele>164</ele>
        <time>2018-06-24T09:07:55Z</time>
      </trkpt>
      <trkpt lat="50.04766" lon="3.68173">
        <ele>164</ele>
        <time>2018-06-24T09:07:56Z</time>
      </trkpt>
      <trkpt lat="50.04789" lon="3.68175">
        <ele>165</ele>
        <time>2018-06-24T09:08:01Z</time>
      </trkpt>
      <trkpt lat="50.04846" lon="3.6816">
        <ele>166</ele>
        <time>2018-06-24T09:08:11Z</time>
      </trkpt>
      <trkpt lat="50.04904" lon="3.68155">
        <ele>166</ele>
        <time>2018-06-24T09:08:21Z</time>
      </trkpt>
      <trkpt lat="50.04959" lon="3.68154">
        <ele>166</ele>
        <time>2018-06-24T09:08:30Z</time>
      </trkpt>
      <trkpt lat="50.05012" lon="3.68172">
        <ele>167</ele>
        <time>2018-06-24T09:08:39Z</time>
      </trkpt>
      <trkpt lat="50.05056" lon="3.68223">
        <ele>166</ele>
        <time>2018-06-24T09:08:53Z</time>
      </trkpt>
      <trkpt lat="50.051" lon="3.68281">
        <ele>166</ele>
        <time>2018-06-24T09:09:02Z</time>
      </trkpt>
      <trkpt lat="50.05141" lon="3.68337">
        <ele>166</ele>
        <time>2018-06-24T09:09:10Z</time>
      </trkpt>
      <trkpt lat="50.05181" lon="3.68401">
        <ele>166</ele>
        <time>2018-06-24T09:09:18Z</time>
      </trkpt>
      <trkpt lat="50.05222" lon="3.68463">
        <ele>167</ele>
        <time>2018-06-24T09:09:26Z</time>
      </trkpt>
      <trkpt lat="50.05266" lon="3.68516">
        <ele>168</ele>
        <time>2018-06-24T09:09:34Z</time>
      </trkpt>
      <trkpt lat="50.05307" lon="3.68577">
        <ele>168</ele>
        <time>2018-06-24T09:09:42Z</time>
      </trkpt>
      <trkpt lat="50.05347" lon="3.68643">
        <ele>169</ele>
        <time>2018-06-24T09:09:50Z</time>
      </trkpt>
      <trkpt lat="50.05386" lon="3.6871">
        <ele>170</ele>
        <time>2018-06-24T09:09:58Z</time>
      </trkpt>
      <trkpt lat="50.05424" lon="3.68776">
        <ele>170</ele>
        <time>2018-06-24T09:10:06Z</time>
      </trkpt>
      <trkpt lat="50.05453" lon="3.6885">
        <ele>169</ele>
        <time>2018-06-24T09:10:14Z</time>
      </trkpt>
      <trkpt lat="50.05477" lon="3.68929">
        <ele>168</ele>
        <time>2018-06-24T09:10:22Z</time>
      </trkpt>
      <trkpt lat="50.05503" lon="3.69012">
        <ele>167</ele>
        <time>2018-06-24T09:10:29Z</time>
      </trkpt>
      <trkpt lat="50.0551" lon="3.69037">
        <ele>167</ele>
        <time>2018-06-24T09:10:30Z</time>
      </trkpt>
      <trkpt lat="50.05523" lon="3.69128">
        <ele>166</ele>
        <time>2018-06-24T09:10:38Z</time>
      </trkpt>
      <trkpt lat="50.05542" lon="3.69215">
        <ele>165</ele>
        <time>2018-06-24T09:10:45Z</time>
      </trkpt>
      <trkpt lat="50.05567" lon="3.69291">
        <ele>166</ele>
        <time>2018-06-24T09:10:52Z</time>
      </trkpt>
      <trkpt lat="50.05596" lon="3.69372">
        <ele>168</ele>
        <time>2018-06-24T09:11:00Z</time>
      </trkpt>
      <trkpt lat="50.05621" lon="3.69447">
        <ele>169</ele>
        <time>2018-06-24T09:11:08Z</time>
      </trkpt>
      <trkpt lat="50.05644" lon="3.69529">
        <ele>171</ele>
        <time>2018-06-24T09:11:18Z</time>
      </trkpt>
      <trkpt lat="50.05654" lon="3.69561">
        <ele>171</ele>
        <time>2018-06-24T09:11:22Z</time>
      </trkpt>
      <trkpt lat="50.05682" lon="3.69636">
        <ele>173</ele>
        <time>2018-06-24T09:11:31Z</time>
      </trkpt>
      <trkpt lat="50.05716" lon="3.69705">
        <ele>174</ele>
        <time>2018-06-24T09:11:40Z</time>
      </trkpt>
      <trkpt lat="50.05749" lon="3.69775">
        <ele>174</ele>
        <time>2018-06-24T09:11:49Z</time>
      </trkpt>
      <trkpt lat="50.05779" lon="3.69855">
        <ele>173</ele>
        <time>2018-06-24T09:11:57Z</time>
      </trkpt>
      <trkpt lat="50.05791" lon="3.69902">
        <ele>173</ele>
        <time>2018-06-24T09:12:01Z</time>
      </trkpt>
      <trkpt lat="50.05797" lon="3.69994">
        <ele>172</ele>
        <time>2018-06-24T09:12:08Z</time>
      </trkpt>
      <trkpt lat="50.05799" lon="3.70032">
        <ele>172</ele>
        <time>2018-06-24T09:12:11Z</time>
      </trkpt>
      <trkpt lat="50.05824" lon="3.70108">
        <ele>173</ele>
        <time>2018-06-24T09:12:18Z</time>
      </trkpt>
      <trkpt lat="50.05857" lon="3.70178">
        <ele>176</ele>
        <time>2018-06-24T09:12:25Z</time>
      </trkpt>
      <trkpt lat="50.05892" lon="3.70253">
        <ele>176</ele>
        <time>2018-06-24T09:12:33Z</time>
      </trkpt>
      <trkpt lat="50.0592" lon="3.70331">
        <ele>177</ele>
        <time>2018-06-24T09:12:41Z</time>
      </trkpt>
      <trkpt lat="50.05946" lon="3.70407">
        <ele>178</ele>
        <time>2018-06-24T09:12:49Z</time>
      </trkpt>
      <trkpt lat="50.05973" lon="3.70481">
        <ele>179</ele>
        <time>2018-06-24T09:12:57Z</time>
      </trkpt>
      <trkpt lat="50.06005" lon="3.70561">
        <ele>179</ele>
        <time>2018-06-24T09:13:06Z</time>
      </trkpt>
      <trkpt lat="50.06032" lon="3.70639">
        <ele>179</ele>
        <time>2018-06-24T09:13:14Z</time>
      </trkpt>
      <trkpt lat="50.06044" lon="3.70729">
        <ele>179</ele>
        <time>2018-06-24T09:13:22Z</time>
      </trkpt>
      <trkpt lat="50.06054" lon="3.70814">
        <ele>179</ele>
        <time>2018-06-24T09:13:29Z</time>
      </trkpt>
      <trkpt lat="50.06065" lon="3.7091">
        <ele>179</ele>
        <time>2018-06-24T09:13:36Z</time>
      </trkpt>
      <trkpt lat="50.06073" lon="3.70996">
        <ele>177</ele>
        <time>2018-06-24T09:13:42Z</time>
      </trkpt>
      <trkpt lat="50.06069" lon="3.71084">
        <ele>177</ele>
        <time>2018-06-24T09:13:48Z</time>
      </trkpt>
      <trkpt lat="50.06064" lon="3.7117">
        <ele>177</ele>
        <time>2018-06-24T09:13:54Z</time>
      </trkpt>
      <trkpt lat="50.06067" lon="3.71265">
        <ele>177</ele>
        <time>2018-06-24T09:14:01Z</time>
      </trkpt>
      <trkpt lat="50.06073" lon="3.71348">
        <ele>178</ele>
        <time>2018-06-24T09:14:08Z</time>
      </trkpt>
      <trkpt lat="50.06082" lon="3.71435">
        <ele>179</ele>
        <time>2018-06-24T09:14:16Z</time>
      </trkpt>
      <trkpt lat="50.0609" lon="3.71522">
        <ele>180</ele>
        <time>2018-06-24T09:14:24Z</time>
      </trkpt>
      <trkpt lat="50.06094" lon="3.71611">
        <ele>182</ele>
        <time>2018-06-24T09:14:33Z</time>
      </trkpt>
      <trkpt lat="50.06096" lon="3.71702">
        <ele>183</ele>
        <time>2018-06-24T09:14:42Z</time>
      </trkpt>
      <trkpt lat="50.06095" lon="3.71793">
        <ele>183</ele>
        <time>2018-06-24T09:14:51Z</time>
      </trkpt>
      <trkpt lat="50.06088" lon="3.71878">
        <ele>183</ele>
        <time>2018-06-24T09:14:59Z</time>
      </trkpt>
      <trkpt lat="50.06073" lon="3.71963">
        <ele>184</ele>
        <time>2018-06-24T09:15:07Z</time>
      </trkpt>
      <trkpt lat="50.06055" lon="3.72045">
        <ele>184</ele>
        <time>2018-06-24T09:15:15Z</time>
      </trkpt>
      <trkpt lat="50.06045" lon="3.72094">
        <ele>184</ele>
        <time>2018-06-24T09:15:20Z</time>
      </trkpt>
      <trkpt lat="50.06046" lon="3.7218">
        <ele>185</ele>
        <time>2018-06-24T09:15:28Z</time>
      </trkpt>
      <trkpt lat="50.06053" lon="3.72267">
        <ele>185</ele>
        <time>2018-06-24T09:15:36Z</time>
      </trkpt>
      <trkpt lat="50.06061" lon="3.72359">
        <ele>185</ele>
        <time>2018-06-24T09:15:45Z</time>
      </trkpt>
      <trkpt lat="50.06067" lon="3.72422">
        <ele>186</ele>
        <time>2018-06-24T09:15:52Z</time>
      </trkpt>
      <trkpt lat="50.05582" lon="3.7256">
        <ele>183</ele>
        <time>2018-06-24T09:18:56Z</time>
      </trkpt>
      <trkpt lat="50.05537" lon="3.72507">
        <ele>183</ele>
        <time>2018-06-24T09:19:03Z</time>
      </trkpt>
      <trkpt lat="50.05491" lon="3.72451">
        <ele>181</ele>
        <time>2018-06-24T09:19:10Z</time>
      </trkpt>
      <trkpt lat="50.05452" lon="3.72392">
        <ele>181</ele>
        <time>2018-06-24T09:19:17Z</time>
      </trkpt>
      <trkpt lat="50.05442" lon="3.72376">
        <ele>181</ele>
        <time>2018-06-24T09:19:18Z</time>
      </trkpt>
      <trkpt lat="50.05391" lon="3.72334">
        <ele>182</ele>
        <time>2018-06-24T09:19:27Z</time>
      </trkpt>
      <trkpt lat="50.0534" lon="3.723">
        <ele>182</ele>
        <time>2018-06-24T09:19:35Z</time>
      </trkpt>
      <trkpt lat="50.0529" lon="3.72265">
        <ele>182</ele>
        <time>2018-06-24T09:19:43Z</time>
      </trkpt>
      <trkpt lat="50.05241" lon="3.72215">
        <ele>181</ele>
        <time>2018-06-24T09:19:51Z</time>
      </trkpt>
      <trkpt lat="50.05194" lon="3.7216">
        <ele>180</ele>
        <time>2018-06-24T09:19:59Z</time>
      </trkpt>
      <trkpt lat="50.05185" lon="3.7215">
        <ele>180</ele>
        <time>2018-06-24T09:20:00Z</time>
      </trkpt>
      <trkpt lat="50.05181" lon="3.72148">
        <ele>180</ele>
        <time>2018-06-24T09:20:02Z</time>
      </trkpt>
      <trkpt lat="50.05172" lon="3.72157">
        <ele>180</ele>
        <time>2018-06-24T09:20:05Z</time>
      </trkpt>
      <trkpt lat="50.05139" lon="3.72235">
        <ele>182</ele>
        <time>2018-06-24T09:20:16Z</time>
      </trkpt>
      <trkpt lat="50.0511" lon="3.72308">
        <ele>184</ele>
        <time>2018-06-24T09:20:25Z</time>
      </trkpt>
      <trkpt lat="50.05078" lon="3.72383">
        <ele>185</ele>
        <time>2018-06-24T09:20:35Z</time>
      </trkpt>
      <trkpt lat="50.05073" lon="3.72397">
        <ele>185</ele>
        <time>2018-06-24T09:20:37Z</time>
      </trkpt>
      <trkpt lat="50.05068" lon="3.72421">
        <ele>185</ele>
        <time>2018-06-24T09:20:40Z</time>
      </trkpt>
      <trkpt lat="50.05068" lon="3.72438">
        <ele>185</ele>
        <time>2018-06-24T09:20:42Z</time>
      </trkpt>
      <trkpt lat="50.0507" lon="3.72481">
        <ele>186</ele>
        <time>2018-06-24T09:20:51Z</time>
      </trkpt>
    </trkseg>
  </trk>
</gpx>